<?xml version="1.0" encoding="UTF-8" standalone="no" ?>
<gpx xmlns="http://www.topografix.com/GPX/1/1" xmlns:xsi="http://www.w3.org/2001/XMLSchema-instance" xsi:schemaLocation="http://www.topografix.com/GPX/1/1 http://www.topografix.com/GPX/1/1/gpx.xsd" version="1.1" creator="VisuGPX - https://www.visugpx.com">
  <metadata>
    <name>Plateau du Granier en boucle par l'Alpette, Pas des barres, Balme à Colon</name>
    <desc><![CDATA[Petite rando sympa dans les alpages du Granier.
Passage délicat avant le pas des barres car les rochers tombent sur le chemin.
Pas des barres plus tranquille.
On n'est pas monté au sommet du Granier (A/R de 30/40min en plus et ~60m D+)
Belle descente dans les sangles et à travers la balme à Colon (à visiter jusqu'au fond avec lampe).
A faire dans ce sens car la montée par la balme semble plus raide et plus pénible (sol moins stable et plus glissant en forêt et au dessus)
A noter, le départ est décalé car GPS non démarré à la voiture... donc compter 900m environ!]]></desc>
  </metadata>
  <trk>
    <name><![CDATA[20180820134544-ic6Th]]></name>
    <trkseg>
      <trkpt lat="45.44423" lon="5.90746">
        <ele>1125</ele>
        <time>2018-08-15T10:03:13Z</time>
      </trkpt>
      <trkpt lat="45.44422" lon="5.90747">
        <ele>1125</ele>
        <time>2018-08-15T10:03:14Z</time>
      </trkpt>
      <trkpt lat="45.44421" lon="5.90747">
        <ele>1124</ele>
        <time>2018-08-15T10:03:15Z</time>
      </trkpt>
      <trkpt lat="45.4442" lon="5.90747">
        <ele>1124</ele>
        <time>2018-08-15T10:03:16Z</time>
      </trkpt>
      <trkpt lat="45.4442" lon="5.90748">
        <ele>1124</ele>
        <time>2018-08-15T10:03:17Z</time>
      </trkpt>
      <trkpt lat="45.44421" lon="5.90748">
        <ele>1124</ele>
        <time>2018-08-15T10:03:18Z</time>
      </trkpt>
      <trkpt lat="45.44421" lon="5.90749">
        <ele>1124</ele>
        <time>2018-08-15T10:03:19Z</time>
      </trkpt>
      <trkpt lat="45.44422" lon="5.9075">
        <ele>1124</ele>
        <time>2018-08-15T10:03:20Z</time>
      </trkpt>
      <trkpt lat="45.44421" lon="5.90749">
        <ele>1124</ele>
        <time>2018-08-15T10:03:21Z</time>
      </trkpt>
      <trkpt lat="45.44422" lon="5.90749">
        <ele>1124</ele>
        <time>2018-08-15T10:03:22Z</time>
      </trkpt>
      <trkpt lat="45.44422" lon="5.9075">
        <ele>1124</ele>
        <time>2018-08-15T10:03:23Z</time>
      </trkpt>
      <trkpt lat="45.44423" lon="5.9075">
        <ele>1125</ele>
        <time>2018-08-15T10:03:24Z</time>
      </trkpt>
      <trkpt lat="45.4442" lon="5.90743">
        <ele>1125</ele>
        <time>2018-08-15T10:04:04Z</time>
      </trkpt>
      <trkpt lat="45.44421" lon="5.9075">
        <ele>1124</ele>
        <time>2018-08-15T10:04:10Z</time>
      </trkpt>
      <trkpt lat="45.44421" lon="5.90757">
        <ele>1129</ele>
        <time>2018-08-15T10:04:15Z</time>
      </trkpt>
      <trkpt lat="45.4442" lon="5.90765">
        <ele>1133</ele>
        <time>2018-08-15T10:04:21Z</time>
      </trkpt>
      <trkpt lat="45.4442" lon="5.90774">
        <ele>1136</ele>
        <time>2018-08-15T10:04:27Z</time>
      </trkpt>
      <trkpt lat="45.44419" lon="5.90782">
        <ele>1138</ele>
        <time>2018-08-15T10:04:33Z</time>
      </trkpt>
      <trkpt lat="45.44408" lon="5.90784">
        <ele>1128</ele>
        <time>2018-08-15T10:05:15Z</time>
      </trkpt>
      <trkpt lat="45.44403" lon="5.90786">
        <ele>1128</ele>
        <time>2018-08-15T10:05:20Z</time>
      </trkpt>
      <trkpt lat="45.44399" lon="5.90791">
        <ele>1129</ele>
        <time>2018-08-15T10:05:27Z</time>
      </trkpt>
      <trkpt lat="45.44394" lon="5.90796">
        <ele>1129</ele>
        <time>2018-08-15T10:05:33Z</time>
      </trkpt>
      <trkpt lat="45.4439" lon="5.90802">
        <ele>1129</ele>
        <time>2018-08-15T10:05:39Z</time>
      </trkpt>
      <trkpt lat="45.44387" lon="5.90806">
        <ele>1130</ele>
        <time>2018-08-15T10:05:45Z</time>
      </trkpt>
      <trkpt lat="45.44384" lon="5.90814">
        <ele>1130</ele>
        <time>2018-08-15T10:05:57Z</time>
      </trkpt>
      <trkpt lat="45.44381" lon="5.90821">
        <ele>1130</ele>
        <time>2018-08-15T10:06:03Z</time>
      </trkpt>
      <trkpt lat="45.44379" lon="5.90829">
        <ele>1131</ele>
        <time>2018-08-15T10:06:08Z</time>
      </trkpt>
      <trkpt lat="45.44379" lon="5.90836">
        <ele>1143</ele>
        <time>2018-08-15T10:06:16Z</time>
      </trkpt>
      <trkpt lat="45.44382" lon="5.90842">
        <ele>1143</ele>
        <time>2018-08-15T10:06:21Z</time>
      </trkpt>
      <trkpt lat="45.44383" lon="5.9085">
        <ele>1144</ele>
        <time>2018-08-15T10:06:28Z</time>
      </trkpt>
      <trkpt lat="45.44384" lon="5.90857">
        <ele>1145</ele>
        <time>2018-08-15T10:06:35Z</time>
      </trkpt>
      <trkpt lat="45.44381" lon="5.90863">
        <ele>1146</ele>
        <time>2018-08-15T10:06:43Z</time>
      </trkpt>
      <trkpt lat="45.44378" lon="5.9087">
        <ele>1147</ele>
        <time>2018-08-15T10:06:49Z</time>
      </trkpt>
      <trkpt lat="45.44378" lon="5.90877">
        <ele>1148</ele>
        <time>2018-08-15T10:06:57Z</time>
      </trkpt>
      <trkpt lat="45.44375" lon="5.90884">
        <ele>1149</ele>
        <time>2018-08-15T10:07:04Z</time>
      </trkpt>
      <trkpt lat="45.44374" lon="5.90891">
        <ele>1150</ele>
        <time>2018-08-15T10:07:10Z</time>
      </trkpt>
      <trkpt lat="45.44374" lon="5.90898">
        <ele>1151</ele>
        <time>2018-08-15T10:07:17Z</time>
      </trkpt>
      <trkpt lat="45.44372" lon="5.90905">
        <ele>1151</ele>
        <time>2018-08-15T10:07:26Z</time>
      </trkpt>
      <trkpt lat="45.44369" lon="5.90911">
        <ele>1152</ele>
        <time>2018-08-15T10:07:33Z</time>
      </trkpt>
      <trkpt lat="45.44367" lon="5.90919">
        <ele>1165</ele>
        <time>2018-08-15T10:07:41Z</time>
      </trkpt>
      <trkpt lat="45.44366" lon="5.90924">
        <ele>1165</ele>
        <time>2018-08-15T10:07:47Z</time>
      </trkpt>
      <trkpt lat="45.44365" lon="5.90932">
        <ele>1166</ele>
        <time>2018-08-15T10:07:54Z</time>
      </trkpt>
      <trkpt lat="45.44363" lon="5.90939">
        <ele>1167</ele>
        <time>2018-08-15T10:08:00Z</time>
      </trkpt>
      <trkpt lat="45.44363" lon="5.90948">
        <ele>1168</ele>
        <time>2018-08-15T10:08:08Z</time>
      </trkpt>
      <trkpt lat="45.44362" lon="5.90953">
        <ele>1168</ele>
        <time>2018-08-15T10:08:19Z</time>
      </trkpt>
      <trkpt lat="45.44363" lon="5.90959">
        <ele>1169</ele>
        <time>2018-08-15T10:08:48Z</time>
      </trkpt>
      <trkpt lat="45.44365" lon="5.90964">
        <ele>1170</ele>
        <time>2018-08-15T10:08:51Z</time>
      </trkpt>
      <trkpt lat="45.44366" lon="5.90972">
        <ele>1171</ele>
        <time>2018-08-15T10:09:00Z</time>
      </trkpt>
      <trkpt lat="45.44364" lon="5.90979">
        <ele>1171</ele>
        <time>2018-08-15T10:09:07Z</time>
      </trkpt>
      <trkpt lat="45.44362" lon="5.90985">
        <ele>1171</ele>
        <time>2018-08-15T10:09:15Z</time>
      </trkpt>
      <trkpt lat="45.44359" lon="5.90993">
        <ele>1172</ele>
        <time>2018-08-15T10:09:22Z</time>
      </trkpt>
      <trkpt lat="45.44357" lon="5.91001">
        <ele>1182</ele>
        <time>2018-08-15T10:09:30Z</time>
      </trkpt>
      <trkpt lat="45.44358" lon="5.91009">
        <ele>1183</ele>
        <time>2018-08-15T10:09:34Z</time>
      </trkpt>
      <trkpt lat="45.44358" lon="5.91014">
        <ele>1184</ele>
        <time>2018-08-15T10:09:38Z</time>
      </trkpt>
      <trkpt lat="45.44353" lon="5.91018">
        <ele>1184</ele>
        <time>2018-08-15T10:09:45Z</time>
      </trkpt>
      <trkpt lat="45.44351" lon="5.91024">
        <ele>1185</ele>
        <time>2018-08-15T10:09:52Z</time>
      </trkpt>
      <trkpt lat="45.44347" lon="5.9103">
        <ele>1186</ele>
        <time>2018-08-15T10:10:01Z</time>
      </trkpt>
      <trkpt lat="45.44343" lon="5.91035">
        <ele>1186</ele>
        <time>2018-08-15T10:10:07Z</time>
      </trkpt>
      <trkpt lat="45.44341" lon="5.91042">
        <ele>1187</ele>
        <time>2018-08-15T10:10:14Z</time>
      </trkpt>
      <trkpt lat="45.44338" lon="5.91048">
        <ele>1188</ele>
        <time>2018-08-15T10:10:21Z</time>
      </trkpt>
      <trkpt lat="45.44334" lon="5.91055">
        <ele>1189</ele>
        <time>2018-08-15T10:10:29Z</time>
      </trkpt>
      <trkpt lat="45.4433" lon="5.9106">
        <ele>1184</ele>
        <time>2018-08-15T10:10:37Z</time>
      </trkpt>
      <trkpt lat="45.44327" lon="5.91067">
        <ele>1185</ele>
        <time>2018-08-15T10:10:46Z</time>
      </trkpt>
      <trkpt lat="45.44325" lon="5.91075">
        <ele>1187</ele>
        <time>2018-08-15T10:10:52Z</time>
      </trkpt>
      <trkpt lat="45.44325" lon="5.91082">
        <ele>1188</ele>
        <time>2018-08-15T10:10:59Z</time>
      </trkpt>
      <trkpt lat="45.44325" lon="5.91089">
        <ele>1193</ele>
        <time>2018-08-15T10:11:07Z</time>
      </trkpt>
      <trkpt lat="45.44325" lon="5.91095">
        <ele>1194</ele>
        <time>2018-08-15T10:11:16Z</time>
      </trkpt>
      <trkpt lat="45.44322" lon="5.91094">
        <ele>1194</ele>
        <time>2018-08-15T10:11:35Z</time>
      </trkpt>
      <trkpt lat="45.44318" lon="5.91095">
        <ele>1194</ele>
        <time>2018-08-15T10:11:44Z</time>
      </trkpt>
      <trkpt lat="45.44318" lon="5.91101">
        <ele>1195</ele>
        <time>2018-08-15T10:11:53Z</time>
      </trkpt>
      <trkpt lat="45.44321" lon="5.91107">
        <ele>1195</ele>
        <time>2018-08-15T10:12:02Z</time>
      </trkpt>
      <trkpt lat="45.44321" lon="5.91113">
        <ele>1196</ele>
        <time>2018-08-15T10:12:13Z</time>
      </trkpt>
      <trkpt lat="45.44324" lon="5.9112">
        <ele>1197</ele>
        <time>2018-08-15T10:12:20Z</time>
      </trkpt>
      <trkpt lat="45.44326" lon="5.91125">
        <ele>1198</ele>
        <time>2018-08-15T10:12:25Z</time>
      </trkpt>
      <trkpt lat="45.44326" lon="5.91131">
        <ele>1198</ele>
        <time>2018-08-15T10:12:34Z</time>
      </trkpt>
      <trkpt lat="45.44327" lon="5.91139">
        <ele>1200</ele>
        <time>2018-08-15T10:12:42Z</time>
      </trkpt>
      <trkpt lat="45.44326" lon="5.91144">
        <ele>1201</ele>
        <time>2018-08-15T10:12:46Z</time>
      </trkpt>
      <trkpt lat="45.44326" lon="5.9115">
        <ele>1202</ele>
        <time>2018-08-15T10:12:56Z</time>
      </trkpt>
      <trkpt lat="45.44328" lon="5.91157">
        <ele>1204</ele>
        <time>2018-08-15T10:13:02Z</time>
      </trkpt>
      <trkpt lat="45.44331" lon="5.91163">
        <ele>1206</ele>
        <time>2018-08-15T10:13:09Z</time>
      </trkpt>
      <trkpt lat="45.44334" lon="5.91171">
        <ele>1211</ele>
        <time>2018-08-15T10:13:16Z</time>
      </trkpt>
      <trkpt lat="45.44337" lon="5.91177">
        <ele>1215</ele>
        <time>2018-08-15T10:13:21Z</time>
      </trkpt>
      <trkpt lat="45.44342" lon="5.91184">
        <ele>1218</ele>
        <time>2018-08-15T10:13:27Z</time>
      </trkpt>
      <trkpt lat="45.44344" lon="5.91189">
        <ele>1220</ele>
        <time>2018-08-15T10:13:34Z</time>
      </trkpt>
      <trkpt lat="45.44347" lon="5.91195">
        <ele>1221</ele>
        <time>2018-08-15T10:13:43Z</time>
      </trkpt>
      <trkpt lat="45.44352" lon="5.91199">
        <ele>1223</ele>
        <time>2018-08-15T10:13:57Z</time>
      </trkpt>
      <trkpt lat="45.44356" lon="5.91203">
        <ele>1224</ele>
        <time>2018-08-15T10:14:03Z</time>
      </trkpt>
      <trkpt lat="45.44362" lon="5.91207">
        <ele>1225</ele>
        <time>2018-08-15T10:14:08Z</time>
      </trkpt>
      <trkpt lat="45.44363" lon="5.91213">
        <ele>1226</ele>
        <time>2018-08-15T10:14:15Z</time>
      </trkpt>
      <trkpt lat="45.44366" lon="5.91221">
        <ele>1227</ele>
        <time>2018-08-15T10:14:22Z</time>
      </trkpt>
      <trkpt lat="45.44368" lon="5.91228">
        <ele>1227</ele>
        <time>2018-08-15T10:14:28Z</time>
      </trkpt>
      <trkpt lat="45.4437" lon="5.91233">
        <ele>1228</ele>
        <time>2018-08-15T10:14:36Z</time>
      </trkpt>
      <trkpt lat="45.44375" lon="5.91239">
        <ele>1229</ele>
        <time>2018-08-15T10:14:44Z</time>
      </trkpt>
      <trkpt lat="45.44379" lon="5.91243">
        <ele>1230</ele>
        <time>2018-08-15T10:14:49Z</time>
      </trkpt>
      <trkpt lat="45.44383" lon="5.91246">
        <ele>1231</ele>
        <time>2018-08-15T10:14:59Z</time>
      </trkpt>
      <trkpt lat="45.44388" lon="5.9125">
        <ele>1233</ele>
        <time>2018-08-15T10:15:07Z</time>
      </trkpt>
      <trkpt lat="45.44392" lon="5.91254">
        <ele>1244</ele>
        <time>2018-08-15T10:15:15Z</time>
      </trkpt>
      <trkpt lat="45.44395" lon="5.91259">
        <ele>1244</ele>
        <time>2018-08-15T10:15:25Z</time>
      </trkpt>
      <trkpt lat="45.444" lon="5.91264">
        <ele>1245</ele>
        <time>2018-08-15T10:15:34Z</time>
      </trkpt>
      <trkpt lat="45.44398" lon="5.91271">
        <ele>1245</ele>
        <time>2018-08-15T10:15:44Z</time>
      </trkpt>
      <trkpt lat="45.44394" lon="5.91276">
        <ele>1246</ele>
        <time>2018-08-15T10:15:52Z</time>
      </trkpt>
      <trkpt lat="45.44395" lon="5.91281">
        <ele>1246</ele>
        <time>2018-08-15T10:16:03Z</time>
      </trkpt>
      <trkpt lat="45.44399" lon="5.91284">
        <ele>1247</ele>
        <time>2018-08-15T10:16:11Z</time>
      </trkpt>
      <trkpt lat="45.44397" lon="5.91294">
        <ele>1248</ele>
        <time>2018-08-15T10:17:31Z</time>
      </trkpt>
      <trkpt lat="45.44399" lon="5.91302">
        <ele>1250</ele>
        <time>2018-08-15T10:17:38Z</time>
      </trkpt>
      <trkpt lat="45.44395" lon="5.91305">
        <ele>1250</ele>
        <time>2018-08-15T10:17:44Z</time>
      </trkpt>
      <trkpt lat="45.44389" lon="5.91305">
        <ele>1249</ele>
        <time>2018-08-15T10:17:50Z</time>
      </trkpt>
      <trkpt lat="45.44383" lon="5.91305">
        <ele>1249</ele>
        <time>2018-08-15T10:17:55Z</time>
      </trkpt>
      <trkpt lat="45.44378" lon="5.91307">
        <ele>1248</ele>
        <time>2018-08-15T10:18:03Z</time>
      </trkpt>
      <trkpt lat="45.44375" lon="5.91313">
        <ele>1249</ele>
        <time>2018-08-15T10:18:11Z</time>
      </trkpt>
      <trkpt lat="45.44372" lon="5.91321">
        <ele>1249</ele>
        <time>2018-08-15T10:18:17Z</time>
      </trkpt>
      <trkpt lat="45.44367" lon="5.91324">
        <ele>1249</ele>
        <time>2018-08-15T10:18:23Z</time>
      </trkpt>
      <trkpt lat="45.44364" lon="5.9133">
        <ele>1249</ele>
        <time>2018-08-15T10:18:28Z</time>
      </trkpt>
      <trkpt lat="45.4436" lon="5.91336">
        <ele>1265</ele>
        <time>2018-08-15T10:18:36Z</time>
      </trkpt>
      <trkpt lat="45.44356" lon="5.9134">
        <ele>1264</ele>
        <time>2018-08-15T10:18:41Z</time>
      </trkpt>
      <trkpt lat="45.44352" lon="5.91345">
        <ele>1264</ele>
        <time>2018-08-15T10:18:48Z</time>
      </trkpt>
      <trkpt lat="45.44351" lon="5.91353">
        <ele>1265</ele>
        <time>2018-08-15T10:18:56Z</time>
      </trkpt>
      <trkpt lat="45.44349" lon="5.91359">
        <ele>1267</ele>
        <time>2018-08-15T10:19:01Z</time>
      </trkpt>
      <trkpt lat="45.44345" lon="5.91365">
        <ele>1268</ele>
        <time>2018-08-15T10:19:08Z</time>
      </trkpt>
      <trkpt lat="45.44342" lon="5.91369">
        <ele>1268</ele>
        <time>2018-08-15T10:19:13Z</time>
      </trkpt>
      <trkpt lat="45.44339" lon="5.91377">
        <ele>1270</ele>
        <time>2018-08-15T10:19:21Z</time>
      </trkpt>
      <trkpt lat="45.44338" lon="5.91383">
        <ele>1271</ele>
        <time>2018-08-15T10:19:27Z</time>
      </trkpt>
      <trkpt lat="45.44334" lon="5.91389">
        <ele>1272</ele>
        <time>2018-08-15T10:19:35Z</time>
      </trkpt>
      <trkpt lat="45.44329" lon="5.9139">
        <ele>1262</ele>
        <time>2018-08-15T10:19:41Z</time>
      </trkpt>
      <trkpt lat="45.44325" lon="5.91395">
        <ele>1263</ele>
        <time>2018-08-15T10:19:49Z</time>
      </trkpt>
      <trkpt lat="45.44322" lon="5.914">
        <ele>1264</ele>
        <time>2018-08-15T10:19:56Z</time>
      </trkpt>
      <trkpt lat="45.44325" lon="5.91405">
        <ele>1267</ele>
        <time>2018-08-15T10:20:01Z</time>
      </trkpt>
      <trkpt lat="45.44327" lon="5.91414">
        <ele>1271</ele>
        <time>2018-08-15T10:20:09Z</time>
      </trkpt>
      <trkpt lat="45.44329" lon="5.91419">
        <ele>1278</ele>
        <time>2018-08-15T10:20:15Z</time>
      </trkpt>
      <trkpt lat="45.44331" lon="5.91429">
        <ele>1279</ele>
        <time>2018-08-15T10:20:33Z</time>
      </trkpt>
      <trkpt lat="45.44333" lon="5.91436">
        <ele>1280</ele>
        <time>2018-08-15T10:20:42Z</time>
      </trkpt>
      <trkpt lat="45.44334" lon="5.91444">
        <ele>1298</ele>
        <time>2018-08-15T10:20:55Z</time>
      </trkpt>
      <trkpt lat="45.44335" lon="5.91453">
        <ele>1302</ele>
        <time>2018-08-15T10:21:01Z</time>
      </trkpt>
      <trkpt lat="45.44336" lon="5.9146">
        <ele>1305</ele>
        <time>2018-08-15T10:21:07Z</time>
      </trkpt>
      <trkpt lat="45.44334" lon="5.91467">
        <ele>1307</ele>
        <time>2018-08-15T10:21:14Z</time>
      </trkpt>
      <trkpt lat="45.44331" lon="5.91473">
        <ele>1293</ele>
        <time>2018-08-15T10:21:22Z</time>
      </trkpt>
      <trkpt lat="45.44327" lon="5.91479">
        <ele>1296</ele>
        <time>2018-08-15T10:21:29Z</time>
      </trkpt>
      <trkpt lat="45.44323" lon="5.91484">
        <ele>1298</ele>
        <time>2018-08-15T10:21:36Z</time>
      </trkpt>
      <trkpt lat="45.44322" lon="5.9149">
        <ele>1301</ele>
        <time>2018-08-15T10:21:43Z</time>
      </trkpt>
      <trkpt lat="45.44317" lon="5.91491">
        <ele>1298</ele>
        <time>2018-08-15T10:21:53Z</time>
      </trkpt>
      <trkpt lat="45.44312" lon="5.91492">
        <ele>1295</ele>
        <time>2018-08-15T10:21:58Z</time>
      </trkpt>
      <trkpt lat="45.44307" lon="5.91495">
        <ele>1293</ele>
        <time>2018-08-15T10:22:05Z</time>
      </trkpt>
      <trkpt lat="45.44303" lon="5.91497">
        <ele>1291</ele>
        <time>2018-08-15T10:22:13Z</time>
      </trkpt>
      <trkpt lat="45.44301" lon="5.91503">
        <ele>1314</ele>
        <time>2018-08-15T10:22:22Z</time>
      </trkpt>
      <trkpt lat="45.44297" lon="5.91509">
        <ele>1313</ele>
        <time>2018-08-15T10:22:31Z</time>
      </trkpt>
      <trkpt lat="45.44295" lon="5.91516">
        <ele>1314</ele>
        <time>2018-08-15T10:22:37Z</time>
      </trkpt>
      <trkpt lat="45.4429" lon="5.9152">
        <ele>1313</ele>
        <time>2018-08-15T10:22:44Z</time>
      </trkpt>
      <trkpt lat="45.44287" lon="5.91525">
        <ele>1313</ele>
        <time>2018-08-15T10:22:52Z</time>
      </trkpt>
      <trkpt lat="45.44282" lon="5.91527">
        <ele>1312</ele>
        <time>2018-08-15T10:23:00Z</time>
      </trkpt>
      <trkpt lat="45.44278" lon="5.91533">
        <ele>1313</ele>
        <time>2018-08-15T10:23:08Z</time>
      </trkpt>
      <trkpt lat="45.44276" lon="5.91538">
        <ele>1315</ele>
        <time>2018-08-15T10:23:12Z</time>
      </trkpt>
      <trkpt lat="45.44276" lon="5.91547">
        <ele>1318</ele>
        <time>2018-08-15T10:23:21Z</time>
      </trkpt>
      <trkpt lat="45.44273" lon="5.91552">
        <ele>1319</ele>
        <time>2018-08-15T10:23:28Z</time>
      </trkpt>
      <trkpt lat="45.4427" lon="5.91558">
        <ele>1321</ele>
        <time>2018-08-15T10:23:36Z</time>
      </trkpt>
      <trkpt lat="45.44266" lon="5.91566">
        <ele>1323</ele>
        <time>2018-08-15T10:23:42Z</time>
      </trkpt>
      <trkpt lat="45.44261" lon="5.9157">
        <ele>1325</ele>
        <time>2018-08-15T10:23:47Z</time>
      </trkpt>
      <trkpt lat="45.44259" lon="5.91575">
        <ele>1327</ele>
        <time>2018-08-15T10:23:51Z</time>
      </trkpt>
      <trkpt lat="45.44255" lon="5.91582">
        <ele>1330</ele>
        <time>2018-08-15T10:23:57Z</time>
      </trkpt>
      <trkpt lat="45.44252" lon="5.91587">
        <ele>1342</ele>
        <time>2018-08-15T10:24:04Z</time>
      </trkpt>
      <trkpt lat="45.44252" lon="5.91596">
        <ele>1359</ele>
        <time>2018-08-15T10:24:10Z</time>
      </trkpt>
      <trkpt lat="45.4425" lon="5.91603">
        <ele>1369</ele>
        <time>2018-08-15T10:24:15Z</time>
      </trkpt>
      <trkpt lat="45.44251" lon="5.9161">
        <ele>1379</ele>
        <time>2018-08-15T10:24:21Z</time>
      </trkpt>
      <trkpt lat="45.44249" lon="5.91615">
        <ele>1409</ele>
        <time>2018-08-15T10:24:28Z</time>
      </trkpt>
      <trkpt lat="45.44246" lon="5.9162">
        <ele>1416</ele>
        <time>2018-08-15T10:24:35Z</time>
      </trkpt>
      <trkpt lat="45.44245" lon="5.91628">
        <ele>1427</ele>
        <time>2018-08-15T10:24:42Z</time>
      </trkpt>
      <trkpt lat="45.44243" lon="5.91635">
        <ele>1437</ele>
        <time>2018-08-15T10:24:51Z</time>
      </trkpt>
      <trkpt lat="45.44241" lon="5.91641">
        <ele>1444</ele>
        <time>2018-08-15T10:25:00Z</time>
      </trkpt>
      <trkpt lat="45.44242" lon="5.9164">
        <ele>1443</ele>
        <time>2018-08-15T10:25:11Z</time>
      </trkpt>
      <trkpt lat="45.44247" lon="5.91641">
        <ele>1444</ele>
        <time>2018-08-15T10:25:22Z</time>
      </trkpt>
      <trkpt lat="45.44252" lon="5.9164">
        <ele>1419</ele>
        <time>2018-08-15T10:25:32Z</time>
      </trkpt>
      <trkpt lat="45.44257" lon="5.9164">
        <ele>1417</ele>
        <time>2018-08-15T10:25:43Z</time>
      </trkpt>
      <trkpt lat="45.4426" lon="5.91634">
        <ele>1408</ele>
        <time>2018-08-15T10:25:50Z</time>
      </trkpt>
      <trkpt lat="45.44264" lon="5.91629">
        <ele>1401</ele>
        <time>2018-08-15T10:25:55Z</time>
      </trkpt>
      <trkpt lat="45.44268" lon="5.91626">
        <ele>1397</ele>
        <time>2018-08-15T10:26:01Z</time>
      </trkpt>
      <trkpt lat="45.44272" lon="5.91619">
        <ele>1390</ele>
        <time>2018-08-15T10:26:07Z</time>
      </trkpt>
      <trkpt lat="45.44275" lon="5.91613">
        <ele>1385</ele>
        <time>2018-08-15T10:26:12Z</time>
      </trkpt>
      <trkpt lat="45.4428" lon="5.91614">
        <ele>1385</ele>
        <time>2018-08-15T10:26:18Z</time>
      </trkpt>
      <trkpt lat="45.44284" lon="5.91617">
        <ele>1387</ele>
        <time>2018-08-15T10:26:24Z</time>
      </trkpt>
      <trkpt lat="45.44289" lon="5.91622">
        <ele>1390</ele>
        <time>2018-08-15T10:26:31Z</time>
      </trkpt>
      <trkpt lat="45.44288" lon="5.91628">
        <ele>1394</ele>
        <time>2018-08-15T10:26:40Z</time>
      </trkpt>
      <trkpt lat="45.44291" lon="5.91628">
        <ele>1393</ele>
        <time>2018-08-15T10:26:51Z</time>
      </trkpt>
      <trkpt lat="45.44297" lon="5.91629">
        <ele>1392</ele>
        <time>2018-08-15T10:26:58Z</time>
      </trkpt>
      <trkpt lat="45.44301" lon="5.91632">
        <ele>1393</ele>
        <time>2018-08-15T10:27:04Z</time>
      </trkpt>
      <trkpt lat="45.44307" lon="5.91635">
        <ele>1392</ele>
        <time>2018-08-15T10:27:14Z</time>
      </trkpt>
      <trkpt lat="45.44305" lon="5.91634">
        <ele>1393</ele>
        <time>2018-08-15T10:27:24Z</time>
      </trkpt>
      <trkpt lat="45.443" lon="5.91641">
        <ele>1397</ele>
        <time>2018-08-15T10:27:35Z</time>
      </trkpt>
      <trkpt lat="45.44298" lon="5.91645">
        <ele>1399</ele>
        <time>2018-08-15T10:27:39Z</time>
      </trkpt>
      <trkpt lat="45.44297" lon="5.91652">
        <ele>1402</ele>
        <time>2018-08-15T10:27:44Z</time>
      </trkpt>
      <trkpt lat="45.44294" lon="5.9166">
        <ele>1406</ele>
        <time>2018-08-15T10:27:50Z</time>
      </trkpt>
      <trkpt lat="45.44291" lon="5.91666">
        <ele>1410</ele>
        <time>2018-08-15T10:27:55Z</time>
      </trkpt>
      <trkpt lat="45.44286" lon="5.91668">
        <ele>1451</ele>
        <time>2018-08-15T10:28:01Z</time>
      </trkpt>
      <trkpt lat="45.44284" lon="5.91675">
        <ele>1453</ele>
        <time>2018-08-15T10:28:06Z</time>
      </trkpt>
      <trkpt lat="45.44283" lon="5.9168">
        <ele>1454</ele>
        <time>2018-08-15T10:28:10Z</time>
      </trkpt>
      <trkpt lat="45.44281" lon="5.91687">
        <ele>1455</ele>
        <time>2018-08-15T10:28:17Z</time>
      </trkpt>
      <trkpt lat="45.44275" lon="5.9168">
        <ele>1459</ele>
        <time>2018-08-15T10:28:38Z</time>
      </trkpt>
      <trkpt lat="45.44269" lon="5.91676">
        <ele>1464</ele>
        <time>2018-08-15T10:28:47Z</time>
      </trkpt>
      <trkpt lat="45.44255" lon="5.9165">
        <ele>1435</ele>
        <time>2018-08-15T10:29:10Z</time>
      </trkpt>
      <trkpt lat="45.44253" lon="5.91646">
        <ele>1429</ele>
        <time>2018-08-15T10:29:14Z</time>
      </trkpt>
      <trkpt lat="45.44257" lon="5.91645">
        <ele>1425</ele>
        <time>2018-08-15T10:29:26Z</time>
      </trkpt>
      <trkpt lat="45.4427" lon="5.91664">
        <ele>1433</ele>
        <time>2018-08-15T10:29:58Z</time>
      </trkpt>
      <trkpt lat="45.44272" lon="5.91672">
        <ele>1462</ele>
        <time>2018-08-15T10:30:05Z</time>
      </trkpt>
      <trkpt lat="45.44273" lon="5.91678">
        <ele>1461</ele>
        <time>2018-08-15T10:30:12Z</time>
      </trkpt>
      <trkpt lat="45.44274" lon="5.9168">
        <ele>1460</ele>
        <time>2018-08-15T10:30:23Z</time>
      </trkpt>
      <trkpt lat="45.44276" lon="5.91672">
        <ele>1459</ele>
        <time>2018-08-15T10:30:58Z</time>
      </trkpt>
      <trkpt lat="45.44278" lon="5.91684">
        <ele>1457</ele>
        <time>2018-08-15T10:31:37Z</time>
      </trkpt>
      <trkpt lat="45.44281" lon="5.91682">
        <ele>1455</ele>
        <time>2018-08-15T10:31:46Z</time>
      </trkpt>
      <trkpt lat="45.44285" lon="5.91678">
        <ele>1452</ele>
        <time>2018-08-15T10:31:53Z</time>
      </trkpt>
      <trkpt lat="45.44289" lon="5.91678">
        <ele>1449</ele>
        <time>2018-08-15T10:31:57Z</time>
      </trkpt>
      <trkpt lat="45.44294" lon="5.91679">
        <ele>1446</ele>
        <time>2018-08-15T10:32:05Z</time>
      </trkpt>
      <trkpt lat="45.44299" lon="5.91677">
        <ele>1442</ele>
        <time>2018-08-15T10:32:11Z</time>
      </trkpt>
      <trkpt lat="45.44304" lon="5.91677">
        <ele>1438</ele>
        <time>2018-08-15T10:32:17Z</time>
      </trkpt>
      <trkpt lat="45.44309" lon="5.91679">
        <ele>1434</ele>
        <time>2018-08-15T10:32:22Z</time>
      </trkpt>
      <trkpt lat="45.44314" lon="5.91681">
        <ele>1430</ele>
        <time>2018-08-15T10:32:28Z</time>
      </trkpt>
      <trkpt lat="45.44319" lon="5.91683">
        <ele>1428</ele>
        <time>2018-08-15T10:32:34Z</time>
      </trkpt>
      <trkpt lat="45.44324" lon="5.91686">
        <ele>1427</ele>
        <time>2018-08-15T10:32:39Z</time>
      </trkpt>
      <trkpt lat="45.44328" lon="5.91692">
        <ele>1430</ele>
        <time>2018-08-15T10:32:46Z</time>
      </trkpt>
      <trkpt lat="45.44327" lon="5.91698">
        <ele>1434</ele>
        <time>2018-08-15T10:32:50Z</time>
      </trkpt>
      <trkpt lat="45.44323" lon="5.91702">
        <ele>1437</ele>
        <time>2018-08-15T10:32:56Z</time>
      </trkpt>
      <trkpt lat="45.44319" lon="5.91707">
        <ele>1440</ele>
        <time>2018-08-15T10:33:04Z</time>
      </trkpt>
      <trkpt lat="45.44315" lon="5.91713">
        <ele>1443</ele>
        <time>2018-08-15T10:33:12Z</time>
      </trkpt>
      <trkpt lat="45.44312" lon="5.91718">
        <ele>1445</ele>
        <time>2018-08-15T10:33:20Z</time>
      </trkpt>
      <trkpt lat="45.44311" lon="5.91725">
        <ele>1446</ele>
        <time>2018-08-15T10:33:28Z</time>
      </trkpt>
      <trkpt lat="45.4431" lon="5.91733">
        <ele>1446</ele>
        <time>2018-08-15T10:33:36Z</time>
      </trkpt>
      <trkpt lat="45.4431" lon="5.91739">
        <ele>1446</ele>
        <time>2018-08-15T10:33:42Z</time>
      </trkpt>
      <trkpt lat="45.44305" lon="5.91742">
        <ele>1449</ele>
        <time>2018-08-15T10:33:49Z</time>
      </trkpt>
      <trkpt lat="45.44302" lon="5.91743">
        <ele>1450</ele>
        <time>2018-08-15T10:33:56Z</time>
      </trkpt>
      <trkpt lat="45.44302" lon="5.91749">
        <ele>1450</ele>
        <time>2018-08-15T10:34:05Z</time>
      </trkpt>
      <trkpt lat="45.44304" lon="5.91748">
        <ele>1449</ele>
        <time>2018-08-15T10:34:15Z</time>
      </trkpt>
      <trkpt lat="45.44309" lon="5.91749">
        <ele>1447</ele>
        <time>2018-08-15T10:34:21Z</time>
      </trkpt>
      <trkpt lat="45.44313" lon="5.91746">
        <ele>1445</ele>
        <time>2018-08-15T10:34:31Z</time>
      </trkpt>
      <trkpt lat="45.44319" lon="5.91746">
        <ele>1442</ele>
        <time>2018-08-15T10:34:41Z</time>
      </trkpt>
      <trkpt lat="45.4432" lon="5.9175">
        <ele>1454</ele>
        <time>2018-08-15T10:34:49Z</time>
      </trkpt>
      <trkpt lat="45.44322" lon="5.91756">
        <ele>1453</ele>
        <time>2018-08-15T10:34:59Z</time>
      </trkpt>
      <trkpt lat="45.44327" lon="5.91753">
        <ele>1445</ele>
        <time>2018-08-15T10:35:07Z</time>
      </trkpt>
      <trkpt lat="45.44332" lon="5.9175">
        <ele>1436</ele>
        <time>2018-08-15T10:35:14Z</time>
      </trkpt>
      <trkpt lat="45.44333" lon="5.91756">
        <ele>1444</ele>
        <time>2018-08-15T10:35:21Z</time>
      </trkpt>
      <trkpt lat="45.44329" lon="5.91759">
        <ele>1450</ele>
        <time>2018-08-15T10:35:28Z</time>
      </trkpt>
      <trkpt lat="45.44334" lon="5.91763">
        <ele>1445</ele>
        <time>2018-08-15T10:35:35Z</time>
      </trkpt>
      <trkpt lat="45.44339" lon="5.91764">
        <ele>1446</ele>
        <time>2018-08-15T10:35:39Z</time>
      </trkpt>
      <trkpt lat="45.44341" lon="5.91767">
        <ele>1449</ele>
        <time>2018-08-15T10:35:50Z</time>
      </trkpt>
      <trkpt lat="45.44337" lon="5.91772">
        <ele>1451</ele>
        <time>2018-08-15T10:35:57Z</time>
      </trkpt>
      <trkpt lat="45.44334" lon="5.91777">
        <ele>1453</ele>
        <time>2018-08-15T10:36:06Z</time>
      </trkpt>
      <trkpt lat="45.44333" lon="5.91781">
        <ele>1468</ele>
        <time>2018-08-15T10:36:14Z</time>
      </trkpt>
      <trkpt lat="45.44333" lon="5.91789">
        <ele>1472</ele>
        <time>2018-08-15T10:36:19Z</time>
      </trkpt>
      <trkpt lat="45.44331" lon="5.91796">
        <ele>1475</ele>
        <time>2018-08-15T10:36:24Z</time>
      </trkpt>
      <trkpt lat="45.44328" lon="5.91802">
        <ele>1477</ele>
        <time>2018-08-15T10:36:30Z</time>
      </trkpt>
      <trkpt lat="45.44328" lon="5.91809">
        <ele>1479</ele>
        <time>2018-08-15T10:36:34Z</time>
      </trkpt>
      <trkpt lat="45.44326" lon="5.91815">
        <ele>1481</ele>
        <time>2018-08-15T10:36:39Z</time>
      </trkpt>
      <trkpt lat="45.44322" lon="5.91823">
        <ele>1482</ele>
        <time>2018-08-15T10:36:49Z</time>
      </trkpt>
      <trkpt lat="45.44319" lon="5.91829">
        <ele>1483</ele>
        <time>2018-08-15T10:36:56Z</time>
      </trkpt>
      <trkpt lat="45.44316" lon="5.91835">
        <ele>1502</ele>
        <time>2018-08-15T10:37:03Z</time>
      </trkpt>
      <trkpt lat="45.44311" lon="5.9184">
        <ele>1506</ele>
        <time>2018-08-15T10:37:10Z</time>
      </trkpt>
      <trkpt lat="45.44306" lon="5.91842">
        <ele>1509</ele>
        <time>2018-08-15T10:37:15Z</time>
      </trkpt>
      <trkpt lat="45.44302" lon="5.9184">
        <ele>1511</ele>
        <time>2018-08-15T10:37:30Z</time>
      </trkpt>
      <trkpt lat="45.44297" lon="5.9184">
        <ele>1513</ele>
        <time>2018-08-15T10:37:38Z</time>
      </trkpt>
      <trkpt lat="45.44294" lon="5.91836">
        <ele>1513</ele>
        <time>2018-08-15T10:37:43Z</time>
      </trkpt>
      <trkpt lat="45.4429" lon="5.91841">
        <ele>1515</ele>
        <time>2018-08-15T10:37:56Z</time>
      </trkpt>
      <trkpt lat="45.44291" lon="5.91844">
        <ele>1515</ele>
        <time>2018-08-15T10:38:09Z</time>
      </trkpt>
      <trkpt lat="45.4429" lon="5.91851">
        <ele>1517</ele>
        <time>2018-08-15T10:38:23Z</time>
      </trkpt>
      <trkpt lat="45.4429" lon="5.9185">
        <ele>1517</ele>
        <time>2018-08-15T10:38:37Z</time>
      </trkpt>
      <trkpt lat="45.44287" lon="5.91849">
        <ele>1517</ele>
        <time>2018-08-15T10:38:53Z</time>
      </trkpt>
      <trkpt lat="45.44285" lon="5.91844">
        <ele>1517</ele>
        <time>2018-08-15T10:38:59Z</time>
      </trkpt>
      <trkpt lat="45.4428" lon="5.9184">
        <ele>1518</ele>
        <time>2018-08-15T10:39:06Z</time>
      </trkpt>
      <trkpt lat="45.4428" lon="5.91833">
        <ele>1494</ele>
        <time>2018-08-15T10:39:14Z</time>
      </trkpt>
      <trkpt lat="45.44277" lon="5.91829">
        <ele>1496</ele>
        <time>2018-08-15T10:39:23Z</time>
      </trkpt>
      <trkpt lat="45.44272" lon="5.91823">
        <ele>1497</ele>
        <time>2018-08-15T10:39:30Z</time>
      </trkpt>
      <trkpt lat="45.44268" lon="5.9182">
        <ele>1498</ele>
        <time>2018-08-15T10:39:35Z</time>
      </trkpt>
      <trkpt lat="45.44266" lon="5.91814">
        <ele>1497</ele>
        <time>2018-08-15T10:39:43Z</time>
      </trkpt>
      <trkpt lat="45.44261" lon="5.91808">
        <ele>1496</ele>
        <time>2018-08-15T10:39:51Z</time>
      </trkpt>
      <trkpt lat="45.44257" lon="5.91805">
        <ele>1496</ele>
        <time>2018-08-15T10:39:56Z</time>
      </trkpt>
      <trkpt lat="45.44252" lon="5.91799">
        <ele>1494</ele>
        <time>2018-08-15T10:40:04Z</time>
      </trkpt>
      <trkpt lat="45.44246" lon="5.91798">
        <ele>1518</ele>
        <time>2018-08-15T10:40:09Z</time>
      </trkpt>
      <trkpt lat="45.44242" lon="5.91793">
        <ele>1517</ele>
        <time>2018-08-15T10:40:17Z</time>
      </trkpt>
      <trkpt lat="45.44238" lon="5.9179">
        <ele>1517</ele>
        <time>2018-08-15T10:40:24Z</time>
      </trkpt>
      <trkpt lat="45.44237" lon="5.91783">
        <ele>1515</ele>
        <time>2018-08-15T10:40:30Z</time>
      </trkpt>
      <trkpt lat="45.44233" lon="5.91789">
        <ele>1517</ele>
        <time>2018-08-15T10:40:46Z</time>
      </trkpt>
      <trkpt lat="45.44235" lon="5.91795">
        <ele>1518</ele>
        <time>2018-08-15T10:40:54Z</time>
      </trkpt>
      <trkpt lat="45.44236" lon="5.91802">
        <ele>1519</ele>
        <time>2018-08-15T10:41:01Z</time>
      </trkpt>
      <trkpt lat="45.44238" lon="5.91809">
        <ele>1519</ele>
        <time>2018-08-15T10:41:09Z</time>
      </trkpt>
      <trkpt lat="45.44236" lon="5.91816">
        <ele>1520</ele>
        <time>2018-08-15T10:41:17Z</time>
      </trkpt>
      <trkpt lat="45.44232" lon="5.91818">
        <ele>1520</ele>
        <time>2018-08-15T10:41:25Z</time>
      </trkpt>
      <trkpt lat="45.44228" lon="5.91813">
        <ele>1521</ele>
        <time>2018-08-15T10:41:33Z</time>
      </trkpt>
      <trkpt lat="45.44225" lon="5.91808">
        <ele>1520</ele>
        <time>2018-08-15T10:41:40Z</time>
      </trkpt>
      <trkpt lat="45.44227" lon="5.91818">
        <ele>1521</ele>
        <time>2018-08-15T10:41:56Z</time>
      </trkpt>
      <trkpt lat="45.44226" lon="5.91825">
        <ele>1521</ele>
        <time>2018-08-15T10:42:04Z</time>
      </trkpt>
      <trkpt lat="45.44225" lon="5.91831">
        <ele>1522</ele>
        <time>2018-08-15T10:42:18Z</time>
      </trkpt>
      <trkpt lat="45.44223" lon="5.91838">
        <ele>1532</ele>
        <time>2018-08-15T10:42:28Z</time>
      </trkpt>
      <trkpt lat="45.4422" lon="5.91844">
        <ele>1533</ele>
        <time>2018-08-15T10:42:37Z</time>
      </trkpt>
      <trkpt lat="45.44215" lon="5.91846">
        <ele>1534</ele>
        <time>2018-08-15T10:42:44Z</time>
      </trkpt>
      <trkpt lat="45.4421" lon="5.91849">
        <ele>1535</ele>
        <time>2018-08-15T10:42:53Z</time>
      </trkpt>
      <trkpt lat="45.44206" lon="5.91853">
        <ele>1535</ele>
        <time>2018-08-15T10:43:03Z</time>
      </trkpt>
      <trkpt lat="45.44202" lon="5.91859">
        <ele>1536</ele>
        <time>2018-08-15T10:43:12Z</time>
      </trkpt>
      <trkpt lat="45.44204" lon="5.91865">
        <ele>1536</ele>
        <time>2018-08-15T10:43:21Z</time>
      </trkpt>
      <trkpt lat="45.44199" lon="5.91868">
        <ele>1537</ele>
        <time>2018-08-15T10:43:28Z</time>
      </trkpt>
      <trkpt lat="45.44194" lon="5.91872">
        <ele>1537</ele>
        <time>2018-08-15T10:43:37Z</time>
      </trkpt>
      <trkpt lat="45.4419" lon="5.91878">
        <ele>1538</ele>
        <time>2018-08-15T10:43:45Z</time>
      </trkpt>
      <trkpt lat="45.44186" lon="5.91878">
        <ele>1538</ele>
        <time>2018-08-15T10:43:52Z</time>
      </trkpt>
      <trkpt lat="45.44186" lon="5.91877">
        <ele>1538</ele>
        <time>2018-08-15T10:44:28Z</time>
      </trkpt>
      <trkpt lat="45.44181" lon="5.91883">
        <ele>1538</ele>
        <time>2018-08-15T10:45:17Z</time>
      </trkpt>
      <trkpt lat="45.44181" lon="5.91881">
        <ele>1538</ele>
        <time>2018-08-15T10:45:32Z</time>
      </trkpt>
      <trkpt lat="45.44186" lon="5.91876">
        <ele>1537</ele>
        <time>2018-08-15T10:45:38Z</time>
      </trkpt>
      <trkpt lat="45.44186" lon="5.91876">
        <ele>1537</ele>
        <time>2018-08-15T10:50:14Z</time>
      </trkpt>
      <trkpt lat="45.44183" lon="5.91885">
        <ele>1538</ele>
        <time>2018-08-15T10:50:27Z</time>
      </trkpt>
      <trkpt lat="45.44181" lon="5.9189">
        <ele>1538</ele>
        <time>2018-08-15T10:50:33Z</time>
      </trkpt>
      <trkpt lat="45.4418" lon="5.91902">
        <ele>1539</ele>
        <time>2018-08-15T10:52:52Z</time>
      </trkpt>
      <trkpt lat="45.44179" lon="5.91908">
        <ele>1539</ele>
        <time>2018-08-15T10:52:55Z</time>
      </trkpt>
      <trkpt lat="45.44178" lon="5.91916">
        <ele>1539</ele>
        <time>2018-08-15T10:53:00Z</time>
      </trkpt>
      <trkpt lat="45.44178" lon="5.91923">
        <ele>1545</ele>
        <time>2018-08-15T10:53:05Z</time>
      </trkpt>
      <trkpt lat="45.44178" lon="5.9193">
        <ele>1546</ele>
        <time>2018-08-15T10:53:09Z</time>
      </trkpt>
      <trkpt lat="45.44178" lon="5.91938">
        <ele>1548</ele>
        <time>2018-08-15T10:53:14Z</time>
      </trkpt>
      <trkpt lat="45.44178" lon="5.91946">
        <ele>1549</ele>
        <time>2018-08-15T10:53:19Z</time>
      </trkpt>
      <trkpt lat="45.44178" lon="5.91953">
        <ele>1549</ele>
        <time>2018-08-15T10:53:24Z</time>
      </trkpt>
      <trkpt lat="45.44178" lon="5.91962">
        <ele>1550</ele>
        <time>2018-08-15T10:53:30Z</time>
      </trkpt>
      <trkpt lat="45.44178" lon="5.9197">
        <ele>1550</ele>
        <time>2018-08-15T10:53:35Z</time>
      </trkpt>
      <trkpt lat="45.44178" lon="5.91977">
        <ele>1550</ele>
        <time>2018-08-15T10:53:40Z</time>
      </trkpt>
      <trkpt lat="45.44178" lon="5.91986">
        <ele>1549</ele>
        <time>2018-08-15T10:53:47Z</time>
      </trkpt>
      <trkpt lat="45.44177" lon="5.91993">
        <ele>1548</ele>
        <time>2018-08-15T10:53:51Z</time>
      </trkpt>
      <trkpt lat="45.44177" lon="5.92002">
        <ele>1549</ele>
        <time>2018-08-15T10:53:56Z</time>
      </trkpt>
      <trkpt lat="45.44176" lon="5.92011">
        <ele>1551</ele>
        <time>2018-08-15T10:54:01Z</time>
      </trkpt>
      <trkpt lat="45.44176" lon="5.92018">
        <ele>1553</ele>
        <time>2018-08-15T10:54:05Z</time>
      </trkpt>
      <trkpt lat="45.44176" lon="5.92025">
        <ele>1554</ele>
        <time>2018-08-15T10:54:09Z</time>
      </trkpt>
      <trkpt lat="45.44176" lon="5.92032">
        <ele>1555</ele>
        <time>2018-08-15T10:54:14Z</time>
      </trkpt>
      <trkpt lat="45.44177" lon="5.92041">
        <ele>1555</ele>
        <time>2018-08-15T10:54:19Z</time>
      </trkpt>
      <trkpt lat="45.44177" lon="5.92048">
        <ele>1555</ele>
        <time>2018-08-15T10:54:23Z</time>
      </trkpt>
      <trkpt lat="45.44178" lon="5.92057">
        <ele>1555</ele>
        <time>2018-08-15T10:54:28Z</time>
      </trkpt>
      <trkpt lat="45.44177" lon="5.92065">
        <ele>1553</ele>
        <time>2018-08-15T10:54:33Z</time>
      </trkpt>
      <trkpt lat="45.44177" lon="5.92072">
        <ele>1552</ele>
        <time>2018-08-15T10:54:37Z</time>
      </trkpt>
      <trkpt lat="45.44176" lon="5.92079">
        <ele>1550</ele>
        <time>2018-08-15T10:54:42Z</time>
      </trkpt>
      <trkpt lat="45.44175" lon="5.92087">
        <ele>1549</ele>
        <time>2018-08-15T10:54:47Z</time>
      </trkpt>
      <trkpt lat="45.44177" lon="5.92107">
        <ele>1553</ele>
        <time>2018-08-15T10:55:17Z</time>
      </trkpt>
      <trkpt lat="45.44179" lon="5.92114">
        <ele>1554</ele>
        <time>2018-08-15T10:55:22Z</time>
      </trkpt>
      <trkpt lat="45.44181" lon="5.92122">
        <ele>1554</ele>
        <time>2018-08-15T10:55:27Z</time>
      </trkpt>
      <trkpt lat="45.44182" lon="5.92128">
        <ele>1554</ele>
        <time>2018-08-15T10:55:33Z</time>
      </trkpt>
      <trkpt lat="45.44184" lon="5.92136">
        <ele>1554</ele>
        <time>2018-08-15T10:55:40Z</time>
      </trkpt>
      <trkpt lat="45.44185" lon="5.92142">
        <ele>1554</ele>
        <time>2018-08-15T10:55:46Z</time>
      </trkpt>
      <trkpt lat="45.44184" lon="5.92141">
        <ele>1554</ele>
        <time>2018-08-15T10:56:19Z</time>
      </trkpt>
      <trkpt lat="45.4419" lon="5.92153">
        <ele>1553</ele>
        <time>2018-08-15T10:56:23Z</time>
      </trkpt>
      <trkpt lat="45.44192" lon="5.92157">
        <ele>1554</ele>
        <time>2018-08-15T10:56:27Z</time>
      </trkpt>
      <trkpt lat="45.44196" lon="5.92164">
        <ele>1555</ele>
        <time>2018-08-15T10:56:33Z</time>
      </trkpt>
      <trkpt lat="45.44199" lon="5.9217">
        <ele>1551</ele>
        <time>2018-08-15T10:56:38Z</time>
      </trkpt>
      <trkpt lat="45.44203" lon="5.92177">
        <ele>1552</ele>
        <time>2018-08-15T10:56:43Z</time>
      </trkpt>
      <trkpt lat="45.44206" lon="5.92183">
        <ele>1553</ele>
        <time>2018-08-15T10:56:47Z</time>
      </trkpt>
      <trkpt lat="45.44208" lon="5.9219">
        <ele>1553</ele>
        <time>2018-08-15T10:56:52Z</time>
      </trkpt>
      <trkpt lat="45.4421" lon="5.92199">
        <ele>1553</ele>
        <time>2018-08-15T10:56:59Z</time>
      </trkpt>
      <trkpt lat="45.44209" lon="5.92207">
        <ele>1552</ele>
        <time>2018-08-15T10:57:04Z</time>
      </trkpt>
      <trkpt lat="45.44206" lon="5.92211">
        <ele>1552</ele>
        <time>2018-08-15T10:57:07Z</time>
      </trkpt>
      <trkpt lat="45.44206" lon="5.92218">
        <ele>1551</ele>
        <time>2018-08-15T10:57:12Z</time>
      </trkpt>
      <trkpt lat="45.44206" lon="5.92218">
        <ele>1551</ele>
        <time>2018-08-15T10:57:43Z</time>
      </trkpt>
      <trkpt lat="45.44204" lon="5.92227">
        <ele>1551</ele>
        <time>2018-08-15T10:57:47Z</time>
      </trkpt>
      <trkpt lat="45.44205" lon="5.92235">
        <ele>1550</ele>
        <time>2018-08-15T10:57:52Z</time>
      </trkpt>
      <trkpt lat="45.44206" lon="5.92243">
        <ele>1550</ele>
        <time>2018-08-15T10:57:57Z</time>
      </trkpt>
      <trkpt lat="45.44206" lon="5.9225">
        <ele>1545</ele>
        <time>2018-08-15T10:58:02Z</time>
      </trkpt>
      <trkpt lat="45.44207" lon="5.92257">
        <ele>1545</ele>
        <time>2018-08-15T10:58:06Z</time>
      </trkpt>
      <trkpt lat="45.44208" lon="5.92265">
        <ele>1545</ele>
        <time>2018-08-15T10:58:11Z</time>
      </trkpt>
      <trkpt lat="45.44212" lon="5.9227">
        <ele>1545</ele>
        <time>2018-08-15T10:58:15Z</time>
      </trkpt>
      <trkpt lat="45.44218" lon="5.92278">
        <ele>1546</ele>
        <time>2018-08-15T10:58:30Z</time>
      </trkpt>
      <trkpt lat="45.44222" lon="5.92284">
        <ele>1546</ele>
        <time>2018-08-15T10:58:35Z</time>
      </trkpt>
      <trkpt lat="45.44225" lon="5.9229">
        <ele>1546</ele>
        <time>2018-08-15T10:58:40Z</time>
      </trkpt>
      <trkpt lat="45.44228" lon="5.92298">
        <ele>1545</ele>
        <time>2018-08-15T10:58:45Z</time>
      </trkpt>
      <trkpt lat="45.4423" lon="5.92306">
        <ele>1545</ele>
        <time>2018-08-15T10:58:50Z</time>
      </trkpt>
      <trkpt lat="45.44231" lon="5.92311">
        <ele>1545</ele>
        <time>2018-08-15T10:58:57Z</time>
      </trkpt>
      <trkpt lat="45.4423" lon="5.92314">
        <ele>1545</ele>
        <time>2018-08-15T11:01:01Z</time>
      </trkpt>
      <trkpt lat="45.44236" lon="5.92337">
        <ele>1544</ele>
        <time>2018-08-15T11:01:04Z</time>
      </trkpt>
      <trkpt lat="45.44238" lon="5.92341">
        <ele>1544</ele>
        <time>2018-08-15T11:01:05Z</time>
      </trkpt>
      <trkpt lat="45.44239" lon="5.92346">
        <ele>1543</ele>
        <time>2018-08-15T11:01:07Z</time>
      </trkpt>
      <trkpt lat="45.44241" lon="5.92354">
        <ele>1543</ele>
        <time>2018-08-15T11:01:12Z</time>
      </trkpt>
      <trkpt lat="45.44243" lon="5.92361">
        <ele>1542</ele>
        <time>2018-08-15T11:01:18Z</time>
      </trkpt>
      <trkpt lat="45.44246" lon="5.92369">
        <ele>1542</ele>
        <time>2018-08-15T11:01:25Z</time>
      </trkpt>
      <trkpt lat="45.44249" lon="5.92375">
        <ele>1542</ele>
        <time>2018-08-15T11:01:30Z</time>
      </trkpt>
      <trkpt lat="45.44252" lon="5.92381">
        <ele>1552</ele>
        <time>2018-08-15T11:01:35Z</time>
      </trkpt>
      <trkpt lat="45.44255" lon="5.92387">
        <ele>1552</ele>
        <time>2018-08-15T11:01:40Z</time>
      </trkpt>
      <trkpt lat="45.44259" lon="5.92393">
        <ele>1551</ele>
        <time>2018-08-15T11:01:46Z</time>
      </trkpt>
      <trkpt lat="45.44263" lon="5.92396">
        <ele>1551</ele>
        <time>2018-08-15T11:01:51Z</time>
      </trkpt>
      <trkpt lat="45.44269" lon="5.92396">
        <ele>1552</ele>
        <time>2018-08-15T11:01:58Z</time>
      </trkpt>
      <trkpt lat="45.44277" lon="5.92399">
        <ele>1553</ele>
        <time>2018-08-15T11:02:48Z</time>
      </trkpt>
      <trkpt lat="45.44281" lon="5.92402">
        <ele>1554</ele>
        <time>2018-08-15T11:02:52Z</time>
      </trkpt>
      <trkpt lat="45.44283" lon="5.9241">
        <ele>1554</ele>
        <time>2018-08-15T11:03:34Z</time>
      </trkpt>
      <trkpt lat="45.44286" lon="5.92423">
        <ele>1548</ele>
        <time>2018-08-15T11:03:42Z</time>
      </trkpt>
      <trkpt lat="45.44287" lon="5.92428">
        <ele>1549</ele>
        <time>2018-08-15T11:03:44Z</time>
      </trkpt>
      <trkpt lat="45.44289" lon="5.92434">
        <ele>1549</ele>
        <time>2018-08-15T11:03:48Z</time>
      </trkpt>
      <trkpt lat="45.44291" lon="5.92441">
        <ele>1549</ele>
        <time>2018-08-15T11:03:54Z</time>
      </trkpt>
      <trkpt lat="45.44293" lon="5.92447">
        <ele>1549</ele>
        <time>2018-08-15T11:04:00Z</time>
      </trkpt>
      <trkpt lat="45.44297" lon="5.92454">
        <ele>1549</ele>
        <time>2018-08-15T11:04:07Z</time>
      </trkpt>
      <trkpt lat="45.44302" lon="5.92459">
        <ele>1549</ele>
        <time>2018-08-15T11:04:12Z</time>
      </trkpt>
      <trkpt lat="45.44305" lon="5.92465">
        <ele>1549</ele>
        <time>2018-08-15T11:04:17Z</time>
      </trkpt>
      <trkpt lat="45.44309" lon="5.92471">
        <ele>1548</ele>
        <time>2018-08-15T11:04:22Z</time>
      </trkpt>
      <trkpt lat="45.44312" lon="5.92478">
        <ele>1548</ele>
        <time>2018-08-15T11:04:27Z</time>
      </trkpt>
      <trkpt lat="45.44315" lon="5.92482">
        <ele>1548</ele>
        <time>2018-08-15T11:05:13Z</time>
      </trkpt>
      <trkpt lat="45.44319" lon="5.92489">
        <ele>1548</ele>
        <time>2018-08-15T11:05:17Z</time>
      </trkpt>
      <trkpt lat="45.44321" lon="5.92494">
        <ele>1548</ele>
        <time>2018-08-15T11:05:22Z</time>
      </trkpt>
      <trkpt lat="45.44325" lon="5.925">
        <ele>1548</ele>
        <time>2018-08-15T11:05:27Z</time>
      </trkpt>
      <trkpt lat="45.44328" lon="5.92507">
        <ele>1546</ele>
        <time>2018-08-15T11:05:33Z</time>
      </trkpt>
      <trkpt lat="45.44331" lon="5.92514">
        <ele>1545</ele>
        <time>2018-08-15T11:05:38Z</time>
      </trkpt>
      <trkpt lat="45.44334" lon="5.92521">
        <ele>1554</ele>
        <time>2018-08-15T11:05:43Z</time>
      </trkpt>
      <trkpt lat="45.44338" lon="5.92528">
        <ele>1555</ele>
        <time>2018-08-15T11:05:47Z</time>
      </trkpt>
      <trkpt lat="45.44341" lon="5.92534">
        <ele>1555</ele>
        <time>2018-08-15T11:05:51Z</time>
      </trkpt>
      <trkpt lat="45.44344" lon="5.92541">
        <ele>1555</ele>
        <time>2018-08-15T11:05:55Z</time>
      </trkpt>
      <trkpt lat="45.44346" lon="5.92547">
        <ele>1555</ele>
        <time>2018-08-15T11:05:59Z</time>
      </trkpt>
      <trkpt lat="45.44349" lon="5.92553">
        <ele>1554</ele>
        <time>2018-08-15T11:06:03Z</time>
      </trkpt>
      <trkpt lat="45.44352" lon="5.92561">
        <ele>1554</ele>
        <time>2018-08-15T11:06:08Z</time>
      </trkpt>
      <trkpt lat="45.44356" lon="5.92567">
        <ele>1554</ele>
        <time>2018-08-15T11:06:12Z</time>
      </trkpt>
      <trkpt lat="45.44359" lon="5.92573">
        <ele>1554</ele>
        <time>2018-08-15T11:06:16Z</time>
      </trkpt>
      <trkpt lat="45.44362" lon="5.9258">
        <ele>1554</ele>
        <time>2018-08-15T11:06:20Z</time>
      </trkpt>
      <trkpt lat="45.44365" lon="5.92587">
        <ele>1548</ele>
        <time>2018-08-15T11:06:24Z</time>
      </trkpt>
      <trkpt lat="45.44369" lon="5.92593">
        <ele>1548</ele>
        <time>2018-08-15T11:06:28Z</time>
      </trkpt>
      <trkpt lat="45.44372" lon="5.926">
        <ele>1549</ele>
        <time>2018-08-15T11:06:32Z</time>
      </trkpt>
      <trkpt lat="45.44375" lon="5.92606">
        <ele>1549</ele>
        <time>2018-08-15T11:06:36Z</time>
      </trkpt>
      <trkpt lat="45.44378" lon="5.92612">
        <ele>1549</ele>
        <time>2018-08-15T11:06:40Z</time>
      </trkpt>
      <trkpt lat="45.44382" lon="5.92616">
        <ele>1549</ele>
        <time>2018-08-15T11:06:44Z</time>
      </trkpt>
      <trkpt lat="45.44386" lon="5.92621">
        <ele>1549</ele>
        <time>2018-08-15T11:06:48Z</time>
      </trkpt>
      <trkpt lat="45.44391" lon="5.92626">
        <ele>1549</ele>
        <time>2018-08-15T11:06:53Z</time>
      </trkpt>
      <trkpt lat="45.44394" lon="5.92631">
        <ele>1549</ele>
        <time>2018-08-15T11:06:57Z</time>
      </trkpt>
      <trkpt lat="45.44398" lon="5.92636">
        <ele>1549</ele>
        <time>2018-08-15T11:07:01Z</time>
      </trkpt>
      <trkpt lat="45.44402" lon="5.92642">
        <ele>1549</ele>
        <time>2018-08-15T11:07:05Z</time>
      </trkpt>
      <trkpt lat="45.44406" lon="5.92647">
        <ele>1550</ele>
        <time>2018-08-15T11:07:09Z</time>
      </trkpt>
      <trkpt lat="45.44409" lon="5.92652">
        <ele>1550</ele>
        <time>2018-08-15T11:07:13Z</time>
      </trkpt>
      <trkpt lat="45.44413" lon="5.92659">
        <ele>1550</ele>
        <time>2018-08-15T11:07:18Z</time>
      </trkpt>
      <trkpt lat="45.44417" lon="5.92664">
        <ele>1554</ele>
        <time>2018-08-15T11:07:22Z</time>
      </trkpt>
      <trkpt lat="45.44421" lon="5.92669">
        <ele>1553</ele>
        <time>2018-08-15T11:07:26Z</time>
      </trkpt>
      <trkpt lat="45.44426" lon="5.92674">
        <ele>1555</ele>
        <time>2018-08-15T11:07:31Z</time>
      </trkpt>
      <trkpt lat="45.4443" lon="5.9268">
        <ele>1556</ele>
        <time>2018-08-15T11:07:36Z</time>
      </trkpt>
      <trkpt lat="45.44433" lon="5.92685">
        <ele>1557</ele>
        <time>2018-08-15T11:07:40Z</time>
      </trkpt>
      <trkpt lat="45.44437" lon="5.92692">
        <ele>1558</ele>
        <time>2018-08-15T11:07:45Z</time>
      </trkpt>
      <trkpt lat="45.44442" lon="5.92698">
        <ele>1559</ele>
        <time>2018-08-15T11:07:50Z</time>
      </trkpt>
      <trkpt lat="45.44446" lon="5.92703">
        <ele>1559</ele>
        <time>2018-08-15T11:07:54Z</time>
      </trkpt>
      <trkpt lat="45.4445" lon="5.92709">
        <ele>1559</ele>
        <time>2018-08-15T11:07:59Z</time>
      </trkpt>
      <trkpt lat="45.44455" lon="5.92715">
        <ele>1559</ele>
        <time>2018-08-15T11:08:04Z</time>
      </trkpt>
      <trkpt lat="45.44458" lon="5.92721">
        <ele>1559</ele>
        <time>2018-08-15T11:08:08Z</time>
      </trkpt>
      <trkpt lat="45.44461" lon="5.92727">
        <ele>1559</ele>
        <time>2018-08-15T11:08:12Z</time>
      </trkpt>
      <trkpt lat="45.44465" lon="5.92733">
        <ele>1559</ele>
        <time>2018-08-15T11:08:16Z</time>
      </trkpt>
      <trkpt lat="45.44468" lon="5.92739">
        <ele>1559</ele>
        <time>2018-08-15T11:08:20Z</time>
      </trkpt>
      <trkpt lat="45.44471" lon="5.92746">
        <ele>1559</ele>
        <time>2018-08-15T11:08:25Z</time>
      </trkpt>
      <trkpt lat="45.44475" lon="5.92752">
        <ele>1551</ele>
        <time>2018-08-15T11:08:29Z</time>
      </trkpt>
      <trkpt lat="45.44479" lon="5.92759">
        <ele>1552</ele>
        <time>2018-08-15T11:08:34Z</time>
      </trkpt>
      <trkpt lat="45.44482" lon="5.92765">
        <ele>1551</ele>
        <time>2018-08-15T11:08:38Z</time>
      </trkpt>
      <trkpt lat="45.44487" lon="5.9277">
        <ele>1551</ele>
        <time>2018-08-15T11:08:43Z</time>
      </trkpt>
      <trkpt lat="45.44491" lon="5.92774">
        <ele>1551</ele>
        <time>2018-08-15T11:08:49Z</time>
      </trkpt>
      <trkpt lat="45.4449" lon="5.92773">
        <ele>1551</ele>
        <time>2018-08-15T11:09:26Z</time>
      </trkpt>
      <trkpt lat="45.44494" lon="5.92786">
        <ele>1548</ele>
        <time>2018-08-15T11:09:36Z</time>
      </trkpt>
      <trkpt lat="45.44495" lon="5.92784">
        <ele>1549</ele>
        <time>2018-08-15T11:10:03Z</time>
      </trkpt>
      <trkpt lat="45.44494" lon="5.92779">
        <ele>1550</ele>
        <time>2018-08-15T11:10:07Z</time>
      </trkpt>
      <trkpt lat="45.44499" lon="5.92778">
        <ele>1550</ele>
        <time>2018-08-15T11:10:14Z</time>
      </trkpt>
      <trkpt lat="45.44504" lon="5.9278">
        <ele>1562</ele>
        <time>2018-08-15T11:10:19Z</time>
      </trkpt>
      <trkpt lat="45.4451" lon="5.92782">
        <ele>1562</ele>
        <time>2018-08-15T11:10:24Z</time>
      </trkpt>
      <trkpt lat="45.44515" lon="5.92786">
        <ele>1562</ele>
        <time>2018-08-15T11:10:29Z</time>
      </trkpt>
      <trkpt lat="45.44521" lon="5.92789">
        <ele>1562</ele>
        <time>2018-08-15T11:10:34Z</time>
      </trkpt>
      <trkpt lat="45.44526" lon="5.92793">
        <ele>1562</ele>
        <time>2018-08-15T11:10:39Z</time>
      </trkpt>
      <trkpt lat="45.4453" lon="5.92799">
        <ele>1562</ele>
        <time>2018-08-15T11:10:44Z</time>
      </trkpt>
      <trkpt lat="45.44535" lon="5.92804">
        <ele>1562</ele>
        <time>2018-08-15T11:10:49Z</time>
      </trkpt>
      <trkpt lat="45.4454" lon="5.92804">
        <ele>1563</ele>
        <time>2018-08-15T11:10:54Z</time>
      </trkpt>
      <trkpt lat="45.44545" lon="5.92805">
        <ele>1564</ele>
        <time>2018-08-15T11:10:59Z</time>
      </trkpt>
      <trkpt lat="45.4455" lon="5.92808">
        <ele>1565</ele>
        <time>2018-08-15T11:11:04Z</time>
      </trkpt>
      <trkpt lat="45.44556" lon="5.92811">
        <ele>1565</ele>
        <time>2018-08-15T11:11:10Z</time>
      </trkpt>
      <trkpt lat="45.44561" lon="5.92814">
        <ele>1566</ele>
        <time>2018-08-15T11:11:16Z</time>
      </trkpt>
      <trkpt lat="45.44566" lon="5.92817">
        <ele>1566</ele>
        <time>2018-08-15T11:11:22Z</time>
      </trkpt>
      <trkpt lat="45.44571" lon="5.92817">
        <ele>1566</ele>
        <time>2018-08-15T11:11:28Z</time>
      </trkpt>
      <trkpt lat="45.44576" lon="5.92821">
        <ele>1567</ele>
        <time>2018-08-15T11:11:34Z</time>
      </trkpt>
      <trkpt lat="45.4458" lon="5.92825">
        <ele>1567</ele>
        <time>2018-08-15T11:11:40Z</time>
      </trkpt>
      <trkpt lat="45.44585" lon="5.92824">
        <ele>1576</ele>
        <time>2018-08-15T11:11:46Z</time>
      </trkpt>
      <trkpt lat="45.4459" lon="5.92825">
        <ele>1577</ele>
        <time>2018-08-15T11:11:53Z</time>
      </trkpt>
      <trkpt lat="45.44595" lon="5.92828">
        <ele>1579</ele>
        <time>2018-08-15T11:12:00Z</time>
      </trkpt>
      <trkpt lat="45.446" lon="5.92834">
        <ele>1568</ele>
        <time>2018-08-15T11:12:06Z</time>
      </trkpt>
      <trkpt lat="45.44604" lon="5.92837">
        <ele>1569</ele>
        <time>2018-08-15T11:12:10Z</time>
      </trkpt>
      <trkpt lat="45.44609" lon="5.92841">
        <ele>1569</ele>
        <time>2018-08-15T11:12:16Z</time>
      </trkpt>
      <trkpt lat="45.44615" lon="5.92841">
        <ele>1570</ele>
        <time>2018-08-15T11:12:29Z</time>
      </trkpt>
      <trkpt lat="45.4462" lon="5.92846">
        <ele>1571</ele>
        <time>2018-08-15T11:12:35Z</time>
      </trkpt>
      <trkpt lat="45.44626" lon="5.9285">
        <ele>1572</ele>
        <time>2018-08-15T11:12:53Z</time>
      </trkpt>
      <trkpt lat="45.44628" lon="5.92853">
        <ele>1572</ele>
        <time>2018-08-15T11:13:58Z</time>
      </trkpt>
      <trkpt lat="45.4464" lon="5.92855">
        <ele>1575</ele>
        <time>2018-08-15T11:14:12Z</time>
      </trkpt>
      <trkpt lat="45.44643" lon="5.92855">
        <ele>1576</ele>
        <time>2018-08-15T11:14:14Z</time>
      </trkpt>
      <trkpt lat="45.44648" lon="5.92856">
        <ele>1577</ele>
        <time>2018-08-15T11:14:20Z</time>
      </trkpt>
      <trkpt lat="45.44653" lon="5.92859">
        <ele>1577</ele>
        <time>2018-08-15T11:14:27Z</time>
      </trkpt>
      <trkpt lat="45.44677" lon="5.92859">
        <ele>1593</ele>
        <time>2018-08-15T11:16:20Z</time>
      </trkpt>
      <trkpt lat="45.44681" lon="5.92862">
        <ele>1593</ele>
        <time>2018-08-15T11:16:26Z</time>
      </trkpt>
      <trkpt lat="45.44686" lon="5.92867">
        <ele>1592</ele>
        <time>2018-08-15T11:16:33Z</time>
      </trkpt>
      <trkpt lat="45.44691" lon="5.92871">
        <ele>1591</ele>
        <time>2018-08-15T11:16:41Z</time>
      </trkpt>
      <trkpt lat="45.44695" lon="5.92876">
        <ele>1591</ele>
        <time>2018-08-15T11:16:46Z</time>
      </trkpt>
      <trkpt lat="45.44699" lon="5.92881">
        <ele>1590</ele>
        <time>2018-08-15T11:16:50Z</time>
      </trkpt>
      <trkpt lat="45.44703" lon="5.92886">
        <ele>1590</ele>
        <time>2018-08-15T11:16:54Z</time>
      </trkpt>
      <trkpt lat="45.44706" lon="5.92892">
        <ele>1589</ele>
        <time>2018-08-15T11:16:58Z</time>
      </trkpt>
      <trkpt lat="45.4471" lon="5.92898">
        <ele>1589</ele>
        <time>2018-08-15T11:17:02Z</time>
      </trkpt>
      <trkpt lat="45.44715" lon="5.92903">
        <ele>1590</ele>
        <time>2018-08-15T11:17:07Z</time>
      </trkpt>
      <trkpt lat="45.44719" lon="5.92909">
        <ele>1590</ele>
        <time>2018-08-15T11:17:12Z</time>
      </trkpt>
      <trkpt lat="45.44723" lon="5.92913">
        <ele>1591</ele>
        <time>2018-08-15T11:17:16Z</time>
      </trkpt>
      <trkpt lat="45.44728" lon="5.92919">
        <ele>1578</ele>
        <time>2018-08-15T11:17:21Z</time>
      </trkpt>
      <trkpt lat="45.44733" lon="5.92925">
        <ele>1580</ele>
        <time>2018-08-15T11:17:26Z</time>
      </trkpt>
      <trkpt lat="45.44737" lon="5.9293">
        <ele>1580</ele>
        <time>2018-08-15T11:17:31Z</time>
      </trkpt>
      <trkpt lat="45.44741" lon="5.92938">
        <ele>1578</ele>
        <time>2018-08-15T11:17:36Z</time>
      </trkpt>
      <trkpt lat="45.44745" lon="5.92945">
        <ele>1576</ele>
        <time>2018-08-15T11:17:40Z</time>
      </trkpt>
      <trkpt lat="45.44747" lon="5.9295">
        <ele>1575</ele>
        <time>2018-08-15T11:17:44Z</time>
      </trkpt>
      <trkpt lat="45.44753" lon="5.92957">
        <ele>1584</ele>
        <time>2018-08-15T11:17:51Z</time>
      </trkpt>
      <trkpt lat="45.44757" lon="5.92962">
        <ele>1583</ele>
        <time>2018-08-15T11:17:55Z</time>
      </trkpt>
      <trkpt lat="45.44761" lon="5.92968">
        <ele>1582</ele>
        <time>2018-08-15T11:17:59Z</time>
      </trkpt>
      <trkpt lat="45.44763" lon="5.92975">
        <ele>1581</ele>
        <time>2018-08-15T11:18:03Z</time>
      </trkpt>
      <trkpt lat="45.44766" lon="5.9298">
        <ele>1580</ele>
        <time>2018-08-15T11:18:07Z</time>
      </trkpt>
      <trkpt lat="45.4477" lon="5.92986">
        <ele>1580</ele>
        <time>2018-08-15T11:18:12Z</time>
      </trkpt>
      <trkpt lat="45.44775" lon="5.9299">
        <ele>1580</ele>
        <time>2018-08-15T11:18:16Z</time>
      </trkpt>
      <trkpt lat="45.44778" lon="5.92996">
        <ele>1580</ele>
        <time>2018-08-15T11:18:20Z</time>
      </trkpt>
      <trkpt lat="45.44782" lon="5.93002">
        <ele>1573</ele>
        <time>2018-08-15T11:18:24Z</time>
      </trkpt>
      <trkpt lat="45.44786" lon="5.93007">
        <ele>1573</ele>
        <time>2018-08-15T11:18:28Z</time>
      </trkpt>
      <trkpt lat="45.44789" lon="5.93013">
        <ele>1573</ele>
        <time>2018-08-15T11:18:32Z</time>
      </trkpt>
      <trkpt lat="45.44793" lon="5.93018">
        <ele>1573</ele>
        <time>2018-08-15T11:18:36Z</time>
      </trkpt>
      <trkpt lat="45.44797" lon="5.93024">
        <ele>1573</ele>
        <time>2018-08-15T11:18:40Z</time>
      </trkpt>
      <trkpt lat="45.448" lon="5.93029">
        <ele>1573</ele>
        <time>2018-08-15T11:18:46Z</time>
      </trkpt>
      <trkpt lat="45.44803" lon="5.93034">
        <ele>1573</ele>
        <time>2018-08-15T11:18:52Z</time>
      </trkpt>
      <trkpt lat="45.44801" lon="5.93031">
        <ele>1573</ele>
        <time>2018-08-15T11:20:50Z</time>
      </trkpt>
      <trkpt lat="45.44803" lon="5.9302">
        <ele>1574</ele>
        <time>2018-08-15T11:21:16Z</time>
      </trkpt>
      <trkpt lat="45.44806" lon="5.93017">
        <ele>1575</ele>
        <time>2018-08-15T11:21:20Z</time>
      </trkpt>
      <trkpt lat="45.4481" lon="5.93022">
        <ele>1575</ele>
        <time>2018-08-15T11:21:28Z</time>
      </trkpt>
      <trkpt lat="45.44813" lon="5.93028">
        <ele>1575</ele>
        <time>2018-08-15T11:21:36Z</time>
      </trkpt>
      <trkpt lat="45.44816" lon="5.93035">
        <ele>1575</ele>
        <time>2018-08-15T11:21:42Z</time>
      </trkpt>
      <trkpt lat="45.44824" lon="5.93049">
        <ele>1575</ele>
        <time>2018-08-15T11:22:45Z</time>
      </trkpt>
      <trkpt lat="45.44827" lon="5.93054">
        <ele>1575</ele>
        <time>2018-08-15T11:22:49Z</time>
      </trkpt>
      <trkpt lat="45.44831" lon="5.93059">
        <ele>1576</ele>
        <time>2018-08-15T11:22:54Z</time>
      </trkpt>
      <trkpt lat="45.44835" lon="5.93062">
        <ele>1585</ele>
        <time>2018-08-15T11:23:01Z</time>
      </trkpt>
      <trkpt lat="45.44838" lon="5.93057">
        <ele>1585</ele>
        <time>2018-08-15T11:23:12Z</time>
      </trkpt>
      <trkpt lat="45.44835" lon="5.9305">
        <ele>1585</ele>
        <time>2018-08-15T11:23:40Z</time>
      </trkpt>
      <trkpt lat="45.44833" lon="5.93045">
        <ele>1575</ele>
        <time>2018-08-15T11:23:43Z</time>
      </trkpt>
      <trkpt lat="45.44832" lon="5.93038">
        <ele>1575</ele>
        <time>2018-08-15T11:23:50Z</time>
      </trkpt>
      <trkpt lat="45.44828" lon="5.93034">
        <ele>1575</ele>
        <time>2018-08-15T11:23:57Z</time>
      </trkpt>
      <trkpt lat="45.44828" lon="5.93026">
        <ele>1576</ele>
        <time>2018-08-15T11:24:17Z</time>
      </trkpt>
      <trkpt lat="45.44827" lon="5.93026">
        <ele>1576</ele>
        <time>2018-08-15T11:25:28Z</time>
      </trkpt>
      <trkpt lat="45.44833" lon="5.93026">
        <ele>1576</ele>
        <time>2018-08-15T11:25:50Z</time>
      </trkpt>
      <trkpt lat="45.44837" lon="5.93032">
        <ele>1585</ele>
        <time>2018-08-15T11:25:56Z</time>
      </trkpt>
      <trkpt lat="45.44842" lon="5.93036">
        <ele>1585</ele>
        <time>2018-08-15T11:26:03Z</time>
      </trkpt>
      <trkpt lat="45.44847" lon="5.9304">
        <ele>1585</ele>
        <time>2018-08-15T11:26:08Z</time>
      </trkpt>
      <trkpt lat="45.44851" lon="5.93045">
        <ele>1586</ele>
        <time>2018-08-15T11:26:13Z</time>
      </trkpt>
      <trkpt lat="45.44853" lon="5.93047">
        <ele>1586</ele>
        <time>2018-08-15T11:26:57Z</time>
      </trkpt>
      <trkpt lat="45.44856" lon="5.93052">
        <ele>1586</ele>
        <time>2018-08-15T11:27:00Z</time>
      </trkpt>
      <trkpt lat="45.4486" lon="5.93059">
        <ele>1586</ele>
        <time>2018-08-15T11:27:04Z</time>
      </trkpt>
      <trkpt lat="45.44863" lon="5.93065">
        <ele>1587</ele>
        <time>2018-08-15T11:27:07Z</time>
      </trkpt>
      <trkpt lat="45.44867" lon="5.9307">
        <ele>1587</ele>
        <time>2018-08-15T11:27:11Z</time>
      </trkpt>
      <trkpt lat="45.44873" lon="5.93078">
        <ele>1588</ele>
        <time>2018-08-15T11:27:15Z</time>
      </trkpt>
      <trkpt lat="45.44876" lon="5.93083">
        <ele>1589</ele>
        <time>2018-08-15T11:27:18Z</time>
      </trkpt>
      <trkpt lat="45.4488" lon="5.9309">
        <ele>1589</ele>
        <time>2018-08-15T11:27:22Z</time>
      </trkpt>
      <trkpt lat="45.44885" lon="5.93098">
        <ele>1589</ele>
        <time>2018-08-15T11:27:25Z</time>
      </trkpt>
      <trkpt lat="45.44886" lon="5.93104">
        <ele>1589</ele>
        <time>2018-08-15T11:27:27Z</time>
      </trkpt>
      <trkpt lat="45.44889" lon="5.9311">
        <ele>1589</ele>
        <time>2018-08-15T11:27:30Z</time>
      </trkpt>
      <trkpt lat="45.44891" lon="5.93118">
        <ele>1589</ele>
        <time>2018-08-15T11:27:34Z</time>
      </trkpt>
      <trkpt lat="45.44893" lon="5.93125">
        <ele>1590</ele>
        <time>2018-08-15T11:27:37Z</time>
      </trkpt>
      <trkpt lat="45.44894" lon="5.93132">
        <ele>1590</ele>
        <time>2018-08-15T11:27:42Z</time>
      </trkpt>
      <trkpt lat="45.44895" lon="5.93137">
        <ele>1590</ele>
        <time>2018-08-15T11:28:19Z</time>
      </trkpt>
      <trkpt lat="45.44899" lon="5.93142">
        <ele>1592</ele>
        <time>2018-08-15T11:28:23Z</time>
      </trkpt>
      <trkpt lat="45.44902" lon="5.93148">
        <ele>1593</ele>
        <time>2018-08-15T11:28:36Z</time>
      </trkpt>
      <trkpt lat="45.44905" lon="5.93156">
        <ele>1596</ele>
        <time>2018-08-15T11:28:42Z</time>
      </trkpt>
      <trkpt lat="45.44907" lon="5.93162">
        <ele>1599</ele>
        <time>2018-08-15T11:28:45Z</time>
      </trkpt>
      <trkpt lat="45.4491" lon="5.93168">
        <ele>1598</ele>
        <time>2018-08-15T11:28:48Z</time>
      </trkpt>
      <trkpt lat="45.44913" lon="5.93175">
        <ele>1596</ele>
        <time>2018-08-15T11:28:52Z</time>
      </trkpt>
      <trkpt lat="45.44916" lon="5.93182">
        <ele>1591</ele>
        <time>2018-08-15T11:28:56Z</time>
      </trkpt>
      <trkpt lat="45.44919" lon="5.93188">
        <ele>1608</ele>
        <time>2018-08-15T11:29:00Z</time>
      </trkpt>
      <trkpt lat="45.44922" lon="5.93193">
        <ele>1608</ele>
        <time>2018-08-15T11:29:04Z</time>
      </trkpt>
      <trkpt lat="45.44925" lon="5.93199">
        <ele>1608</ele>
        <time>2018-08-15T11:29:09Z</time>
      </trkpt>
      <trkpt lat="45.44931" lon="5.93201">
        <ele>1609</ele>
        <time>2018-08-15T11:29:12Z</time>
      </trkpt>
      <trkpt lat="45.44935" lon="5.93206">
        <ele>1609</ele>
        <time>2018-08-15T11:29:16Z</time>
      </trkpt>
      <trkpt lat="45.44939" lon="5.93212">
        <ele>1609</ele>
        <time>2018-08-15T11:29:22Z</time>
      </trkpt>
      <trkpt lat="45.44943" lon="5.93217">
        <ele>1609</ele>
        <time>2018-08-15T11:29:28Z</time>
      </trkpt>
      <trkpt lat="45.44942" lon="5.93229">
        <ele>1607</ele>
        <time>2018-08-15T11:30:57Z</time>
      </trkpt>
      <trkpt lat="45.4495" lon="5.93219">
        <ele>1611</ele>
        <time>2018-08-15T11:31:53Z</time>
      </trkpt>
      <trkpt lat="45.44946" lon="5.93221">
        <ele>1609</ele>
        <time>2018-08-15T11:32:17Z</time>
      </trkpt>
      <trkpt lat="45.44952" lon="5.93219">
        <ele>1611</ele>
        <time>2018-08-15T11:34:15Z</time>
      </trkpt>
      <trkpt lat="45.44956" lon="5.9322">
        <ele>1613</ele>
        <time>2018-08-15T11:34:20Z</time>
      </trkpt>
      <trkpt lat="45.44959" lon="5.93218">
        <ele>1614</ele>
        <time>2018-08-15T11:34:25Z</time>
      </trkpt>
      <trkpt lat="45.44961" lon="5.93225">
        <ele>1614</ele>
        <time>2018-08-15T11:34:33Z</time>
      </trkpt>
      <trkpt lat="45.4496" lon="5.93224">
        <ele>1614</ele>
        <time>2018-08-15T11:37:04Z</time>
      </trkpt>
      <trkpt lat="45.44964" lon="5.93238">
        <ele>1615</ele>
        <time>2018-08-15T11:37:08Z</time>
      </trkpt>
      <trkpt lat="45.44964" lon="5.93245">
        <ele>1615</ele>
        <time>2018-08-15T11:37:10Z</time>
      </trkpt>
      <trkpt lat="45.4497" lon="5.93247">
        <ele>1618</ele>
        <time>2018-08-15T11:37:28Z</time>
      </trkpt>
      <trkpt lat="45.44975" lon="5.9325">
        <ele>1622</ele>
        <time>2018-08-15T11:37:35Z</time>
      </trkpt>
      <trkpt lat="45.44979" lon="5.93253">
        <ele>1616</ele>
        <time>2018-08-15T11:37:40Z</time>
      </trkpt>
      <trkpt lat="45.44983" lon="5.93252">
        <ele>1620</ele>
        <time>2018-08-15T11:37:51Z</time>
      </trkpt>
      <trkpt lat="45.4498" lon="5.93246">
        <ele>1623</ele>
        <time>2018-08-15T11:38:05Z</time>
      </trkpt>
      <trkpt lat="45.44981" lon="5.93248">
        <ele>1624</ele>
        <time>2018-08-15T11:38:12Z</time>
      </trkpt>
      <trkpt lat="45.44977" lon="5.9324">
        <ele>1621</ele>
        <time>2018-08-15T11:38:51Z</time>
      </trkpt>
      <trkpt lat="45.44976" lon="5.93235">
        <ele>1620</ele>
        <time>2018-08-15T11:38:54Z</time>
      </trkpt>
      <trkpt lat="45.44976" lon="5.93229">
        <ele>1619</ele>
        <time>2018-08-15T11:39:01Z</time>
      </trkpt>
      <trkpt lat="45.44977" lon="5.93228">
        <ele>1620</ele>
        <time>2018-08-15T11:40:27Z</time>
      </trkpt>
      <trkpt lat="45.44983" lon="5.93224">
        <ele>1621</ele>
        <time>2018-08-15T11:40:41Z</time>
      </trkpt>
      <trkpt lat="45.44984" lon="5.93221">
        <ele>1620</ele>
        <time>2018-08-15T11:40:52Z</time>
      </trkpt>
      <trkpt lat="45.44982" lon="5.93213">
        <ele>1619</ele>
        <time>2018-08-15T11:42:15Z</time>
      </trkpt>
      <trkpt lat="45.4498" lon="5.93204">
        <ele>1618</ele>
        <time>2018-08-15T11:42:21Z</time>
      </trkpt>
      <trkpt lat="45.44982" lon="5.93203">
        <ele>1619</ele>
        <time>2018-08-15T11:42:28Z</time>
      </trkpt>
      <trkpt lat="45.44988" lon="5.93205">
        <ele>1620</ele>
        <time>2018-08-15T11:42:34Z</time>
      </trkpt>
      <trkpt lat="45.44992" lon="5.93206">
        <ele>1620</ele>
        <time>2018-08-15T11:42:42Z</time>
      </trkpt>
      <trkpt lat="45.44996" lon="5.93206">
        <ele>1621</ele>
        <time>2018-08-15T11:42:55Z</time>
      </trkpt>
      <trkpt lat="45.45" lon="5.9321">
        <ele>1657</ele>
        <time>2018-08-15T11:43:03Z</time>
      </trkpt>
      <trkpt lat="45.44998" lon="5.93205">
        <ele>1621</ele>
        <time>2018-08-15T11:43:13Z</time>
      </trkpt>
      <trkpt lat="45.44998" lon="5.93206">
        <ele>1621</ele>
        <time>2018-08-15T11:44:04Z</time>
      </trkpt>
      <trkpt lat="45.44992" lon="5.93197">
        <ele>1620</ele>
        <time>2018-08-15T11:44:19Z</time>
      </trkpt>
      <trkpt lat="45.44989" lon="5.93192">
        <ele>1620</ele>
        <time>2018-08-15T11:44:24Z</time>
      </trkpt>
      <trkpt lat="45.44986" lon="5.93186">
        <ele>1620</ele>
        <time>2018-08-15T11:44:29Z</time>
      </trkpt>
      <trkpt lat="45.44984" lon="5.93177">
        <ele>1621</ele>
        <time>2018-08-15T11:44:34Z</time>
      </trkpt>
      <trkpt lat="45.44985" lon="5.93171">
        <ele>1622</ele>
        <time>2018-08-15T11:44:40Z</time>
      </trkpt>
      <trkpt lat="45.44983" lon="5.93164">
        <ele>1618</ele>
        <time>2018-08-15T11:44:46Z</time>
      </trkpt>
      <trkpt lat="45.44979" lon="5.93157">
        <ele>1616</ele>
        <time>2018-08-15T11:44:51Z</time>
      </trkpt>
      <trkpt lat="45.44976" lon="5.93152">
        <ele>1614</ele>
        <time>2018-08-15T11:44:56Z</time>
      </trkpt>
      <trkpt lat="45.44973" lon="5.93144">
        <ele>1612</ele>
        <time>2018-08-15T11:45:02Z</time>
      </trkpt>
      <trkpt lat="45.44968" lon="5.9314">
        <ele>1611</ele>
        <time>2018-08-15T11:45:08Z</time>
      </trkpt>
      <trkpt lat="45.44963" lon="5.93138">
        <ele>1610</ele>
        <time>2018-08-15T11:45:14Z</time>
      </trkpt>
      <trkpt lat="45.44959" lon="5.93134">
        <ele>1609</ele>
        <time>2018-08-15T11:45:20Z</time>
      </trkpt>
      <trkpt lat="45.44955" lon="5.93129">
        <ele>1609</ele>
        <time>2018-08-15T11:45:26Z</time>
      </trkpt>
      <trkpt lat="45.44951" lon="5.93125">
        <ele>1608</ele>
        <time>2018-08-15T11:45:31Z</time>
      </trkpt>
      <trkpt lat="45.44949" lon="5.93125">
        <ele>1608</ele>
        <time>2018-08-15T11:47:59Z</time>
      </trkpt>
      <trkpt lat="45.44947" lon="5.93124">
        <ele>1608</ele>
        <time>2018-08-15T11:49:45Z</time>
      </trkpt>
      <trkpt lat="45.44941" lon="5.93119">
        <ele>1607</ele>
        <time>2018-08-15T11:49:50Z</time>
      </trkpt>
      <trkpt lat="45.44936" lon="5.93115">
        <ele>1606</ele>
        <time>2018-08-15T11:49:56Z</time>
      </trkpt>
      <trkpt lat="45.44932" lon="5.93111">
        <ele>1605</ele>
        <time>2018-08-15T11:50:02Z</time>
      </trkpt>
      <trkpt lat="45.44928" lon="5.93105">
        <ele>1605</ele>
        <time>2018-08-15T11:50:09Z</time>
      </trkpt>
      <trkpt lat="45.44928" lon="5.93099">
        <ele>1604</ele>
        <time>2018-08-15T11:50:15Z</time>
      </trkpt>
      <trkpt lat="45.44931" lon="5.93096">
        <ele>1604</ele>
        <time>2018-08-15T11:50:22Z</time>
      </trkpt>
      <trkpt lat="45.44933" lon="5.93091">
        <ele>1603</ele>
        <time>2018-08-15T11:50:34Z</time>
      </trkpt>
      <trkpt lat="45.44937" lon="5.93087">
        <ele>1604</ele>
        <time>2018-08-15T11:50:42Z</time>
      </trkpt>
      <trkpt lat="45.44941" lon="5.93086">
        <ele>1604</ele>
        <time>2018-08-15T11:50:51Z</time>
      </trkpt>
      <trkpt lat="45.44941" lon="5.93084">
        <ele>1604</ele>
        <time>2018-08-15T11:51:03Z</time>
      </trkpt>
      <trkpt lat="45.44938" lon="5.93078">
        <ele>1598</ele>
        <time>2018-08-15T11:51:10Z</time>
      </trkpt>
      <trkpt lat="45.44941" lon="5.93074">
        <ele>1597</ele>
        <time>2018-08-15T11:51:17Z</time>
      </trkpt>
      <trkpt lat="45.44945" lon="5.93071">
        <ele>1597</ele>
        <time>2018-08-15T11:51:27Z</time>
      </trkpt>
      <trkpt lat="45.44946" lon="5.93067">
        <ele>1597</ele>
        <time>2018-08-15T11:51:46Z</time>
      </trkpt>
      <trkpt lat="45.4495" lon="5.93064">
        <ele>1597</ele>
        <time>2018-08-15T11:51:55Z</time>
      </trkpt>
      <trkpt lat="45.4495" lon="5.93064">
        <ele>1597</ele>
        <time>2018-08-15T11:52:21Z</time>
      </trkpt>
      <trkpt lat="45.44949" lon="5.93052">
        <ele>1597</ele>
        <time>2018-08-15T11:52:26Z</time>
      </trkpt>
      <trkpt lat="45.44947" lon="5.93046">
        <ele>1596</ele>
        <time>2018-08-15T11:52:34Z</time>
      </trkpt>
      <trkpt lat="45.44947" lon="5.93038">
        <ele>1596</ele>
        <time>2018-08-15T11:52:46Z</time>
      </trkpt>
      <trkpt lat="45.44945" lon="5.93032">
        <ele>1595</ele>
        <time>2018-08-15T11:52:53Z</time>
      </trkpt>
      <trkpt lat="45.44943" lon="5.93025">
        <ele>1595</ele>
        <time>2018-08-15T11:53:03Z</time>
      </trkpt>
      <trkpt lat="45.44939" lon="5.93018">
        <ele>1594</ele>
        <time>2018-08-15T11:53:11Z</time>
      </trkpt>
      <trkpt lat="45.44938" lon="5.93012">
        <ele>1593</ele>
        <time>2018-08-15T11:53:20Z</time>
      </trkpt>
      <trkpt lat="45.44937" lon="5.93009">
        <ele>1593</ele>
        <time>2018-08-15T11:53:51Z</time>
      </trkpt>
      <trkpt lat="45.44938" lon="5.93003">
        <ele>1593</ele>
        <time>2018-08-15T11:53:57Z</time>
      </trkpt>
      <trkpt lat="45.44937" lon="5.92997">
        <ele>1589</ele>
        <time>2018-08-15T11:54:07Z</time>
      </trkpt>
      <trkpt lat="45.44931" lon="5.92992">
        <ele>1588</ele>
        <time>2018-08-15T11:54:31Z</time>
      </trkpt>
      <trkpt lat="45.4493" lon="5.92989">
        <ele>1588</ele>
        <time>2018-08-15T11:54:34Z</time>
      </trkpt>
      <trkpt lat="45.44935" lon="5.9298">
        <ele>1588</ele>
        <time>2018-08-15T11:56:33Z</time>
      </trkpt>
      <trkpt lat="45.44929" lon="5.92978">
        <ele>1588</ele>
        <time>2018-08-15T11:56:40Z</time>
      </trkpt>
      <trkpt lat="45.44933" lon="5.92975">
        <ele>1588</ele>
        <time>2018-08-15T11:56:47Z</time>
      </trkpt>
      <trkpt lat="45.44938" lon="5.92972">
        <ele>1588</ele>
        <time>2018-08-15T11:56:52Z</time>
      </trkpt>
      <trkpt lat="45.44944" lon="5.9297">
        <ele>1589</ele>
        <time>2018-08-15T11:56:57Z</time>
      </trkpt>
      <trkpt lat="45.4495" lon="5.9297">
        <ele>1589</ele>
        <time>2018-08-15T11:57:02Z</time>
      </trkpt>
      <trkpt lat="45.44955" lon="5.92966">
        <ele>1589</ele>
        <time>2018-08-15T11:57:09Z</time>
      </trkpt>
      <trkpt lat="45.4496" lon="5.92965">
        <ele>1589</ele>
        <time>2018-08-15T11:57:18Z</time>
      </trkpt>
      <trkpt lat="45.44965" lon="5.92967">
        <ele>1590</ele>
        <time>2018-08-15T11:57:27Z</time>
      </trkpt>
      <trkpt lat="45.4497" lon="5.92964">
        <ele>1590</ele>
        <time>2018-08-15T11:57:36Z</time>
      </trkpt>
      <trkpt lat="45.44975" lon="5.92962">
        <ele>1590</ele>
        <time>2018-08-15T11:57:44Z</time>
      </trkpt>
      <trkpt lat="45.44982" lon="5.92967">
        <ele>1591</ele>
        <time>2018-08-15T11:58:40Z</time>
      </trkpt>
      <trkpt lat="45.44986" lon="5.92968">
        <ele>1591</ele>
        <time>2018-08-15T11:58:43Z</time>
      </trkpt>
      <trkpt lat="45.44992" lon="5.9297">
        <ele>1592</ele>
        <time>2018-08-15T11:58:49Z</time>
      </trkpt>
      <trkpt lat="45.44997" lon="5.92972">
        <ele>1592</ele>
        <time>2018-08-15T11:58:54Z</time>
      </trkpt>
      <trkpt lat="45.45001" lon="5.92972">
        <ele>1597</ele>
        <time>2018-08-15T11:59:00Z</time>
      </trkpt>
      <trkpt lat="45.45007" lon="5.92969">
        <ele>1596</ele>
        <time>2018-08-15T11:59:07Z</time>
      </trkpt>
      <trkpt lat="45.45013" lon="5.9297">
        <ele>1597</ele>
        <time>2018-08-15T11:59:15Z</time>
      </trkpt>
      <trkpt lat="45.45018" lon="5.9297">
        <ele>1597</ele>
        <time>2018-08-15T11:59:22Z</time>
      </trkpt>
      <trkpt lat="45.45024" lon="5.9297">
        <ele>1597</ele>
        <time>2018-08-15T11:59:29Z</time>
      </trkpt>
      <trkpt lat="45.45027" lon="5.92975">
        <ele>1597</ele>
        <time>2018-08-15T11:59:37Z</time>
      </trkpt>
      <trkpt lat="45.4503" lon="5.9298">
        <ele>1597</ele>
        <time>2018-08-15T11:59:49Z</time>
      </trkpt>
      <trkpt lat="45.45038" lon="5.92981">
        <ele>1597</ele>
        <time>2018-08-15T12:00:21Z</time>
      </trkpt>
      <trkpt lat="45.45042" lon="5.92983">
        <ele>1597</ele>
        <time>2018-08-15T12:00:23Z</time>
      </trkpt>
      <trkpt lat="45.45047" lon="5.92984">
        <ele>1597</ele>
        <time>2018-08-15T12:00:27Z</time>
      </trkpt>
      <trkpt lat="45.45052" lon="5.92983">
        <ele>1597</ele>
        <time>2018-08-15T12:00:32Z</time>
      </trkpt>
      <trkpt lat="45.45058" lon="5.92981">
        <ele>1597</ele>
        <time>2018-08-15T12:00:37Z</time>
      </trkpt>
      <trkpt lat="45.45063" lon="5.92981">
        <ele>1598</ele>
        <time>2018-08-15T12:00:42Z</time>
      </trkpt>
      <trkpt lat="45.45069" lon="5.92979">
        <ele>1598</ele>
        <time>2018-08-15T12:00:48Z</time>
      </trkpt>
      <trkpt lat="45.45074" lon="5.92979">
        <ele>1598</ele>
        <time>2018-08-15T12:00:53Z</time>
      </trkpt>
      <trkpt lat="45.45079" lon="5.92977">
        <ele>1598</ele>
        <time>2018-08-15T12:00:57Z</time>
      </trkpt>
      <trkpt lat="45.45083" lon="5.92974">
        <ele>1598</ele>
        <time>2018-08-15T12:01:02Z</time>
      </trkpt>
      <trkpt lat="45.45089" lon="5.92973">
        <ele>1608</ele>
        <time>2018-08-15T12:01:14Z</time>
      </trkpt>
      <trkpt lat="45.45095" lon="5.92968">
        <ele>1609</ele>
        <time>2018-08-15T12:01:27Z</time>
      </trkpt>
      <trkpt lat="45.45097" lon="5.92962">
        <ele>1609</ele>
        <time>2018-08-15T12:01:31Z</time>
      </trkpt>
      <trkpt lat="45.45102" lon="5.92956">
        <ele>1609</ele>
        <time>2018-08-15T12:01:36Z</time>
      </trkpt>
      <trkpt lat="45.45104" lon="5.9295">
        <ele>1609</ele>
        <time>2018-08-15T12:01:40Z</time>
      </trkpt>
      <trkpt lat="45.45108" lon="5.92944">
        <ele>1609</ele>
        <time>2018-08-15T12:01:44Z</time>
      </trkpt>
      <trkpt lat="45.45113" lon="5.92939">
        <ele>1609</ele>
        <time>2018-08-15T12:01:49Z</time>
      </trkpt>
      <trkpt lat="45.45115" lon="5.92934">
        <ele>1608</ele>
        <time>2018-08-15T12:01:53Z</time>
      </trkpt>
      <trkpt lat="45.4512" lon="5.92931">
        <ele>1608</ele>
        <time>2018-08-15T12:01:58Z</time>
      </trkpt>
      <trkpt lat="45.45124" lon="5.92926">
        <ele>1608</ele>
        <time>2018-08-15T12:02:03Z</time>
      </trkpt>
      <trkpt lat="45.45126" lon="5.92919">
        <ele>1608</ele>
        <time>2018-08-15T12:02:09Z</time>
      </trkpt>
      <trkpt lat="45.45129" lon="5.92914">
        <ele>1597</ele>
        <time>2018-08-15T12:02:16Z</time>
      </trkpt>
      <trkpt lat="45.45132" lon="5.92907">
        <ele>1597</ele>
        <time>2018-08-15T12:02:24Z</time>
      </trkpt>
      <trkpt lat="45.45136" lon="5.929">
        <ele>1597</ele>
        <time>2018-08-15T12:02:29Z</time>
      </trkpt>
      <trkpt lat="45.45139" lon="5.92895">
        <ele>1597</ele>
        <time>2018-08-15T12:02:34Z</time>
      </trkpt>
      <trkpt lat="45.45144" lon="5.92891">
        <ele>1597</ele>
        <time>2018-08-15T12:02:40Z</time>
      </trkpt>
      <trkpt lat="45.45148" lon="5.92887">
        <ele>1597</ele>
        <time>2018-08-15T12:02:47Z</time>
      </trkpt>
      <trkpt lat="45.45153" lon="5.92883">
        <ele>1597</ele>
        <time>2018-08-15T12:02:52Z</time>
      </trkpt>
      <trkpt lat="45.45158" lon="5.9288">
        <ele>1597</ele>
        <time>2018-08-15T12:02:57Z</time>
      </trkpt>
      <trkpt lat="45.45163" lon="5.92876">
        <ele>1597</ele>
        <time>2018-08-15T12:03:03Z</time>
      </trkpt>
      <trkpt lat="45.45164" lon="5.92869">
        <ele>1597</ele>
        <time>2018-08-15T12:03:09Z</time>
      </trkpt>
      <trkpt lat="45.45166" lon="5.92861">
        <ele>1597</ele>
        <time>2018-08-15T12:03:15Z</time>
      </trkpt>
      <trkpt lat="45.4517" lon="5.92856">
        <ele>1606</ele>
        <time>2018-08-15T12:03:21Z</time>
      </trkpt>
      <trkpt lat="45.45174" lon="5.92852">
        <ele>1605</ele>
        <time>2018-08-15T12:03:26Z</time>
      </trkpt>
      <trkpt lat="45.45179" lon="5.92847">
        <ele>1605</ele>
        <time>2018-08-15T12:03:33Z</time>
      </trkpt>
      <trkpt lat="45.45183" lon="5.92841">
        <ele>1605</ele>
        <time>2018-08-15T12:03:41Z</time>
      </trkpt>
      <trkpt lat="45.45187" lon="5.92837">
        <ele>1605</ele>
        <time>2018-08-15T12:03:48Z</time>
      </trkpt>
      <trkpt lat="45.45191" lon="5.92832">
        <ele>1598</ele>
        <time>2018-08-15T12:03:56Z</time>
      </trkpt>
      <trkpt lat="45.45195" lon="5.92828">
        <ele>1597</ele>
        <time>2018-08-15T12:04:03Z</time>
      </trkpt>
      <trkpt lat="45.45198" lon="5.92825">
        <ele>1597</ele>
        <time>2018-08-15T12:04:16Z</time>
      </trkpt>
      <trkpt lat="45.45203" lon="5.92826">
        <ele>1597</ele>
        <time>2018-08-15T12:04:21Z</time>
      </trkpt>
      <trkpt lat="45.45206" lon="5.92833">
        <ele>1597</ele>
        <time>2018-08-15T12:04:27Z</time>
      </trkpt>
      <trkpt lat="45.45208" lon="5.92833">
        <ele>1597</ele>
        <time>2018-08-15T12:04:42Z</time>
      </trkpt>
      <trkpt lat="45.45212" lon="5.92829">
        <ele>1597</ele>
        <time>2018-08-15T12:04:48Z</time>
      </trkpt>
      <trkpt lat="45.45215" lon="5.92824">
        <ele>1597</ele>
        <time>2018-08-15T12:04:55Z</time>
      </trkpt>
      <trkpt lat="45.45218" lon="5.92831">
        <ele>1598</ele>
        <time>2018-08-15T12:05:05Z</time>
      </trkpt>
      <trkpt lat="45.45219" lon="5.9283">
        <ele>1598</ele>
        <time>2018-08-15T12:05:12Z</time>
      </trkpt>
      <trkpt lat="45.45219" lon="5.92822">
        <ele>1597</ele>
        <time>2018-08-15T12:05:38Z</time>
      </trkpt>
      <trkpt lat="45.45217" lon="5.92817">
        <ele>1597</ele>
        <time>2018-08-15T12:05:43Z</time>
      </trkpt>
      <trkpt lat="45.45222" lon="5.92821">
        <ele>1598</ele>
        <time>2018-08-15T12:06:17Z</time>
      </trkpt>
      <trkpt lat="45.45223" lon="5.92828">
        <ele>1598</ele>
        <time>2018-08-15T12:06:22Z</time>
      </trkpt>
      <trkpt lat="45.45223" lon="5.92836">
        <ele>1607</ele>
        <time>2018-08-15T12:06:27Z</time>
      </trkpt>
      <trkpt lat="45.4522" lon="5.92835">
        <ele>1607</ele>
        <time>2018-08-15T12:06:33Z</time>
      </trkpt>
      <trkpt lat="45.45216" lon="5.92829">
        <ele>1598</ele>
        <time>2018-08-15T12:06:39Z</time>
      </trkpt>
      <trkpt lat="45.45211" lon="5.92831">
        <ele>1597</ele>
        <time>2018-08-15T12:06:48Z</time>
      </trkpt>
      <trkpt lat="45.45207" lon="5.92831">
        <ele>1597</ele>
        <time>2018-08-15T12:06:54Z</time>
      </trkpt>
      <trkpt lat="45.45203" lon="5.92826">
        <ele>1597</ele>
        <time>2018-08-15T12:07:00Z</time>
      </trkpt>
      <trkpt lat="45.45198" lon="5.92823">
        <ele>1597</ele>
        <time>2018-08-15T12:07:06Z</time>
      </trkpt>
      <trkpt lat="45.45195" lon="5.9283">
        <ele>1597</ele>
        <time>2018-08-15T12:07:13Z</time>
      </trkpt>
      <trkpt lat="45.45191" lon="5.92835">
        <ele>1606</ele>
        <time>2018-08-15T12:07:19Z</time>
      </trkpt>
      <trkpt lat="45.45187" lon="5.92838">
        <ele>1605</ele>
        <time>2018-08-15T12:07:25Z</time>
      </trkpt>
      <trkpt lat="45.45182" lon="5.92832">
        <ele>1598</ele>
        <time>2018-08-15T12:08:38Z</time>
      </trkpt>
      <trkpt lat="45.45185" lon="5.92836">
        <ele>1605</ele>
        <time>2018-08-15T12:08:46Z</time>
      </trkpt>
      <trkpt lat="45.45184" lon="5.92829">
        <ele>1598</ele>
        <time>2018-08-15T12:09:00Z</time>
      </trkpt>
      <trkpt lat="45.45183" lon="5.92822">
        <ele>1597</ele>
        <time>2018-08-15T12:09:06Z</time>
      </trkpt>
      <trkpt lat="45.45181" lon="5.92815">
        <ele>1597</ele>
        <time>2018-08-15T12:09:15Z</time>
      </trkpt>
      <trkpt lat="45.45179" lon="5.92804">
        <ele>1597</ele>
        <time>2018-08-15T12:09:35Z</time>
      </trkpt>
      <trkpt lat="45.45181" lon="5.92797">
        <ele>1596</ele>
        <time>2018-08-15T12:09:42Z</time>
      </trkpt>
      <trkpt lat="45.45179" lon="5.9279">
        <ele>1596</ele>
        <time>2018-08-15T12:09:50Z</time>
      </trkpt>
      <trkpt lat="45.45178" lon="5.92782">
        <ele>1595</ele>
        <time>2018-08-15T12:09:57Z</time>
      </trkpt>
      <trkpt lat="45.45177" lon="5.92775">
        <ele>1594</ele>
        <time>2018-08-15T12:10:03Z</time>
      </trkpt>
      <trkpt lat="45.45176" lon="5.92768">
        <ele>1593</ele>
        <time>2018-08-15T12:10:09Z</time>
      </trkpt>
      <trkpt lat="45.45171" lon="5.92766">
        <ele>1593</ele>
        <time>2018-08-15T12:10:16Z</time>
      </trkpt>
      <trkpt lat="45.45168" lon="5.92759">
        <ele>1591</ele>
        <time>2018-08-15T12:10:23Z</time>
      </trkpt>
      <trkpt lat="45.45165" lon="5.92754">
        <ele>1589</ele>
        <time>2018-08-15T12:10:30Z</time>
      </trkpt>
      <trkpt lat="45.45163" lon="5.92748">
        <ele>1589</ele>
        <time>2018-08-15T12:10:37Z</time>
      </trkpt>
      <trkpt lat="45.45158" lon="5.92746">
        <ele>1588</ele>
        <time>2018-08-15T12:10:55Z</time>
      </trkpt>
      <trkpt lat="45.45156" lon="5.92741">
        <ele>1588</ele>
        <time>2018-08-15T12:11:09Z</time>
      </trkpt>
      <trkpt lat="45.45155" lon="5.92734">
        <ele>1588</ele>
        <time>2018-08-15T12:11:15Z</time>
      </trkpt>
      <trkpt lat="45.45155" lon="5.92727">
        <ele>1587</ele>
        <time>2018-08-15T12:11:23Z</time>
      </trkpt>
      <trkpt lat="45.45152" lon="5.92726">
        <ele>1587</ele>
        <time>2018-08-15T12:24:13Z</time>
      </trkpt>
      <trkpt lat="45.45147" lon="5.92717">
        <ele>1587</ele>
        <time>2018-08-15T12:24:16Z</time>
      </trkpt>
      <trkpt lat="45.45143" lon="5.92715">
        <ele>1587</ele>
        <time>2018-08-15T12:24:18Z</time>
      </trkpt>
      <trkpt lat="45.45147" lon="5.9272">
        <ele>1587</ele>
        <time>2018-08-15T12:24:27Z</time>
      </trkpt>
      <trkpt lat="45.45146" lon="5.92719">
        <ele>1587</ele>
        <time>2018-08-15T12:24:31Z</time>
      </trkpt>
      <trkpt lat="45.45152" lon="5.92723">
        <ele>1587</ele>
        <time>2018-08-15T12:24:40Z</time>
      </trkpt>
      <trkpt lat="45.45153" lon="5.92724">
        <ele>1587</ele>
        <time>2018-08-15T12:24:44Z</time>
      </trkpt>
      <trkpt lat="45.45158" lon="5.92723">
        <ele>1587</ele>
        <time>2018-08-15T12:24:47Z</time>
      </trkpt>
      <trkpt lat="45.45157" lon="5.92724">
        <ele>1587</ele>
        <time>2018-08-15T12:24:51Z</time>
      </trkpt>
      <trkpt lat="45.45151" lon="5.92725">
        <ele>1587</ele>
        <time>2018-08-15T12:24:54Z</time>
      </trkpt>
      <trkpt lat="45.4515" lon="5.92732">
        <ele>1587</ele>
        <time>2018-08-15T12:25:00Z</time>
      </trkpt>
      <trkpt lat="45.4515" lon="5.92735">
        <ele>1587</ele>
        <time>2018-08-15T12:25:06Z</time>
      </trkpt>
      <trkpt lat="45.45159" lon="5.92735">
        <ele>1588</ele>
        <time>2018-08-15T12:25:10Z</time>
      </trkpt>
      <trkpt lat="45.45168" lon="5.92732">
        <ele>1605</ele>
        <time>2018-08-15T12:25:12Z</time>
      </trkpt>
      <trkpt lat="45.45166" lon="5.92733">
        <ele>1588</ele>
        <time>2018-08-15T12:25:13Z</time>
      </trkpt>
      <trkpt lat="45.45161" lon="5.92732">
        <ele>1588</ele>
        <time>2018-08-15T12:25:15Z</time>
      </trkpt>
      <trkpt lat="45.45157" lon="5.9273">
        <ele>1587</ele>
        <time>2018-08-15T12:25:18Z</time>
      </trkpt>
      <trkpt lat="45.45162" lon="5.92729">
        <ele>1588</ele>
        <time>2018-08-15T12:25:24Z</time>
      </trkpt>
      <trkpt lat="45.45163" lon="5.92725">
        <ele>1587</ele>
        <time>2018-08-15T12:25:32Z</time>
      </trkpt>
      <trkpt lat="45.45159" lon="5.92726">
        <ele>1587</ele>
        <time>2018-08-15T12:28:02Z</time>
      </trkpt>
      <trkpt lat="45.45152" lon="5.92723">
        <ele>1587</ele>
        <time>2018-08-15T12:28:46Z</time>
      </trkpt>
      <trkpt lat="45.45152" lon="5.92724">
        <ele>1587</ele>
        <time>2018-08-15T12:37:50Z</time>
      </trkpt>
      <trkpt lat="45.45156" lon="5.92719">
        <ele>1587</ele>
        <time>2018-08-15T12:39:04Z</time>
      </trkpt>
      <trkpt lat="45.45158" lon="5.92716">
        <ele>1587</ele>
        <time>2018-08-15T12:39:06Z</time>
      </trkpt>
      <trkpt lat="45.45162" lon="5.92711">
        <ele>1587</ele>
        <time>2018-08-15T12:39:11Z</time>
      </trkpt>
      <trkpt lat="45.45166" lon="5.92706">
        <ele>1586</ele>
        <time>2018-08-15T12:39:16Z</time>
      </trkpt>
      <trkpt lat="45.45165" lon="5.92699">
        <ele>1586</ele>
        <time>2018-08-15T12:39:23Z</time>
      </trkpt>
      <trkpt lat="45.4516" lon="5.92695">
        <ele>1586</ele>
        <time>2018-08-15T12:39:28Z</time>
      </trkpt>
      <trkpt lat="45.45156" lon="5.92688">
        <ele>1585</ele>
        <time>2018-08-15T12:39:34Z</time>
      </trkpt>
      <trkpt lat="45.45153" lon="5.92683">
        <ele>1585</ele>
        <time>2018-08-15T12:39:39Z</time>
      </trkpt>
      <trkpt lat="45.45152" lon="5.92678">
        <ele>1585</ele>
        <time>2018-08-15T12:39:45Z</time>
      </trkpt>
      <trkpt lat="45.45157" lon="5.92675">
        <ele>1584</ele>
        <time>2018-08-15T12:39:53Z</time>
      </trkpt>
      <trkpt lat="45.45157" lon="5.92667">
        <ele>1583</ele>
        <time>2018-08-15T12:39:59Z</time>
      </trkpt>
      <trkpt lat="45.45153" lon="5.92662">
        <ele>1618</ele>
        <time>2018-08-15T12:40:06Z</time>
      </trkpt>
      <trkpt lat="45.4515" lon="5.92654">
        <ele>1630</ele>
        <time>2018-08-15T12:40:12Z</time>
      </trkpt>
      <trkpt lat="45.45146" lon="5.92648">
        <ele>1640</ele>
        <time>2018-08-15T12:40:18Z</time>
      </trkpt>
      <trkpt lat="45.45142" lon="5.92642">
        <ele>1649</ele>
        <time>2018-08-15T12:40:24Z</time>
      </trkpt>
      <trkpt lat="45.45145" lon="5.92635">
        <ele>1658</ele>
        <time>2018-08-15T12:40:29Z</time>
      </trkpt>
      <trkpt lat="45.45148" lon="5.92628">
        <ele>1669</ele>
        <time>2018-08-15T12:40:34Z</time>
      </trkpt>
      <trkpt lat="45.45152" lon="5.92622">
        <ele>1682</ele>
        <time>2018-08-15T12:40:39Z</time>
      </trkpt>
      <trkpt lat="45.45154" lon="5.92616">
        <ele>1696</ele>
        <time>2018-08-15T12:40:43Z</time>
      </trkpt>
      <trkpt lat="45.45155" lon="5.92609">
        <ele>1713</ele>
        <time>2018-08-15T12:40:48Z</time>
      </trkpt>
      <trkpt lat="45.45158" lon="5.92602">
        <ele>1738</ele>
        <time>2018-08-15T12:40:53Z</time>
      </trkpt>
      <trkpt lat="45.45158" lon="5.92594">
        <ele>1765</ele>
        <time>2018-08-15T12:40:58Z</time>
      </trkpt>
      <trkpt lat="45.45158" lon="5.92586">
        <ele>1789</ele>
        <time>2018-08-15T12:41:03Z</time>
      </trkpt>
      <trkpt lat="45.45159" lon="5.92577">
        <ele>1822</ele>
        <time>2018-08-15T12:41:09Z</time>
      </trkpt>
      <trkpt lat="45.45158" lon="5.9257">
        <ele>1812</ele>
        <time>2018-08-15T12:41:14Z</time>
      </trkpt>
      <trkpt lat="45.45156" lon="5.92566">
        <ele>1805</ele>
        <time>2018-08-15T12:41:30Z</time>
      </trkpt>
      <trkpt lat="45.45154" lon="5.92557">
        <ele>1798</ele>
        <time>2018-08-15T12:41:36Z</time>
      </trkpt>
      <trkpt lat="45.45154" lon="5.92551">
        <ele>1796</ele>
        <time>2018-08-15T12:41:40Z</time>
      </trkpt>
      <trkpt lat="45.45153" lon="5.92543">
        <ele>1795</ele>
        <time>2018-08-15T12:41:49Z</time>
      </trkpt>
      <trkpt lat="45.45156" lon="5.92537">
        <ele>1797</ele>
        <time>2018-08-15T12:41:54Z</time>
      </trkpt>
      <trkpt lat="45.45159" lon="5.92529">
        <ele>1802</ele>
        <time>2018-08-15T12:41:59Z</time>
      </trkpt>
      <trkpt lat="45.45159" lon="5.92521">
        <ele>1806</ele>
        <time>2018-08-15T12:42:04Z</time>
      </trkpt>
      <trkpt lat="45.45161" lon="5.92513">
        <ele>1815</ele>
        <time>2018-08-15T12:42:10Z</time>
      </trkpt>
      <trkpt lat="45.45162" lon="5.92505">
        <ele>1825</ele>
        <time>2018-08-15T12:42:16Z</time>
      </trkpt>
      <trkpt lat="45.45163" lon="5.92498">
        <ele>1836</ele>
        <time>2018-08-15T12:42:21Z</time>
      </trkpt>
      <trkpt lat="45.45165" lon="5.92492">
        <ele>1834</ele>
        <time>2018-08-15T12:42:27Z</time>
      </trkpt>
      <trkpt lat="45.45166" lon="5.92483">
        <ele>1831</ele>
        <time>2018-08-15T12:42:35Z</time>
      </trkpt>
      <trkpt lat="45.45167" lon="5.92477">
        <ele>1838</ele>
        <time>2018-08-15T12:42:41Z</time>
      </trkpt>
      <trkpt lat="45.45169" lon="5.9247">
        <ele>1838</ele>
        <time>2018-08-15T12:42:48Z</time>
      </trkpt>
      <trkpt lat="45.45174" lon="5.92464">
        <ele>1838</ele>
        <time>2018-08-15T12:43:41Z</time>
      </trkpt>
      <trkpt lat="45.45176" lon="5.92461">
        <ele>1838</ele>
        <time>2018-08-15T12:43:42Z</time>
      </trkpt>
      <trkpt lat="45.45179" lon="5.92457">
        <ele>1838</ele>
        <time>2018-08-15T12:43:44Z</time>
      </trkpt>
      <trkpt lat="45.45182" lon="5.92453">
        <ele>1838</ele>
        <time>2018-08-15T12:43:48Z</time>
      </trkpt>
      <trkpt lat="45.45185" lon="5.92446">
        <ele>1838</ele>
        <time>2018-08-15T12:43:53Z</time>
      </trkpt>
      <trkpt lat="45.45188" lon="5.9244">
        <ele>1837</ele>
        <time>2018-08-15T12:43:58Z</time>
      </trkpt>
      <trkpt lat="45.45192" lon="5.92435">
        <ele>1837</ele>
        <time>2018-08-15T12:44:05Z</time>
      </trkpt>
      <trkpt lat="45.45198" lon="5.92433">
        <ele>1838</ele>
        <time>2018-08-15T12:44:33Z</time>
      </trkpt>
      <trkpt lat="45.45202" lon="5.92433">
        <ele>1838</ele>
        <time>2018-08-15T12:44:40Z</time>
      </trkpt>
      <trkpt lat="45.45205" lon="5.92428">
        <ele>1838</ele>
        <time>2018-08-15T12:45:01Z</time>
      </trkpt>
      <trkpt lat="45.4521" lon="5.92421">
        <ele>1838</ele>
        <time>2018-08-15T12:45:15Z</time>
      </trkpt>
      <trkpt lat="45.45217" lon="5.92422">
        <ele>1838</ele>
        <time>2018-08-15T12:45:25Z</time>
      </trkpt>
      <trkpt lat="45.45222" lon="5.92419">
        <ele>1838</ele>
        <time>2018-08-15T12:45:31Z</time>
      </trkpt>
      <trkpt lat="45.45224" lon="5.92413">
        <ele>1835</ele>
        <time>2018-08-15T12:45:36Z</time>
      </trkpt>
      <trkpt lat="45.45229" lon="5.92407">
        <ele>1835</ele>
        <time>2018-08-15T12:45:42Z</time>
      </trkpt>
      <trkpt lat="45.45233" lon="5.92403">
        <ele>1835</ele>
        <time>2018-08-15T12:45:47Z</time>
      </trkpt>
      <trkpt lat="45.45239" lon="5.924">
        <ele>1835</ele>
        <time>2018-08-15T12:46:02Z</time>
      </trkpt>
      <trkpt lat="45.45244" lon="5.92397">
        <ele>1835</ele>
        <time>2018-08-15T12:46:09Z</time>
      </trkpt>
      <trkpt lat="45.45249" lon="5.92395">
        <ele>1835</ele>
        <time>2018-08-15T12:46:14Z</time>
      </trkpt>
      <trkpt lat="45.45253" lon="5.92395">
        <ele>1839</ele>
        <time>2018-08-15T12:46:51Z</time>
      </trkpt>
      <trkpt lat="45.45256" lon="5.92396">
        <ele>1839</ele>
        <time>2018-08-15T12:46:53Z</time>
      </trkpt>
      <trkpt lat="45.45262" lon="5.92394">
        <ele>1839</ele>
        <time>2018-08-15T12:46:58Z</time>
      </trkpt>
      <trkpt lat="45.45268" lon="5.92391">
        <ele>1839</ele>
        <time>2018-08-15T12:47:03Z</time>
      </trkpt>
      <trkpt lat="45.45272" lon="5.92387">
        <ele>1839</ele>
        <time>2018-08-15T12:47:09Z</time>
      </trkpt>
      <trkpt lat="45.45276" lon="5.92383">
        <ele>1839</ele>
        <time>2018-08-15T12:47:14Z</time>
      </trkpt>
      <trkpt lat="45.45281" lon="5.9238">
        <ele>1839</ele>
        <time>2018-08-15T12:47:20Z</time>
      </trkpt>
      <trkpt lat="45.45286" lon="5.92377">
        <ele>1840</ele>
        <time>2018-08-15T12:47:27Z</time>
      </trkpt>
      <trkpt lat="45.45289" lon="5.92372">
        <ele>1839</ele>
        <time>2018-08-15T12:47:33Z</time>
      </trkpt>
      <trkpt lat="45.45294" lon="5.92371">
        <ele>1840</ele>
        <time>2018-08-15T12:47:39Z</time>
      </trkpt>
      <trkpt lat="45.45299" lon="5.92368">
        <ele>1840</ele>
        <time>2018-08-15T12:47:44Z</time>
      </trkpt>
      <trkpt lat="45.45303" lon="5.92365">
        <ele>1840</ele>
        <time>2018-08-15T12:47:50Z</time>
      </trkpt>
      <trkpt lat="45.45308" lon="5.92364">
        <ele>1840</ele>
        <time>2018-08-15T12:47:55Z</time>
      </trkpt>
      <trkpt lat="45.45314" lon="5.92362">
        <ele>1840</ele>
        <time>2018-08-15T12:48:01Z</time>
      </trkpt>
      <trkpt lat="45.45319" lon="5.92361">
        <ele>1840</ele>
        <time>2018-08-15T12:48:07Z</time>
      </trkpt>
      <trkpt lat="45.45324" lon="5.92363">
        <ele>1840</ele>
        <time>2018-08-15T12:48:12Z</time>
      </trkpt>
      <trkpt lat="45.45329" lon="5.92365">
        <ele>1841</ele>
        <time>2018-08-15T12:48:19Z</time>
      </trkpt>
      <trkpt lat="45.45335" lon="5.92365">
        <ele>1846</ele>
        <time>2018-08-15T12:48:28Z</time>
      </trkpt>
      <trkpt lat="45.45336" lon="5.92364">
        <ele>1846</ele>
        <time>2018-08-15T12:50:16Z</time>
      </trkpt>
      <trkpt lat="45.45346" lon="5.92367">
        <ele>1846</ele>
        <time>2018-08-15T12:50:37Z</time>
      </trkpt>
      <trkpt lat="45.4535" lon="5.92368">
        <ele>1846</ele>
        <time>2018-08-15T12:50:39Z</time>
      </trkpt>
      <trkpt lat="45.45355" lon="5.92368">
        <ele>1847</ele>
        <time>2018-08-15T12:50:45Z</time>
      </trkpt>
      <trkpt lat="45.4536" lon="5.92369">
        <ele>1847</ele>
        <time>2018-08-15T12:50:55Z</time>
      </trkpt>
      <trkpt lat="45.45366" lon="5.92369">
        <ele>1847</ele>
        <time>2018-08-15T12:51:01Z</time>
      </trkpt>
      <trkpt lat="45.4537" lon="5.9237">
        <ele>1848</ele>
        <time>2018-08-15T12:51:06Z</time>
      </trkpt>
      <trkpt lat="45.45375" lon="5.92371">
        <ele>1848</ele>
        <time>2018-08-15T12:51:12Z</time>
      </trkpt>
      <trkpt lat="45.45381" lon="5.92369">
        <ele>1848</ele>
        <time>2018-08-15T12:51:18Z</time>
      </trkpt>
      <trkpt lat="45.45385" lon="5.9237">
        <ele>1848</ele>
        <time>2018-08-15T12:51:23Z</time>
      </trkpt>
      <trkpt lat="45.45392" lon="5.92371">
        <ele>1849</ele>
        <time>2018-08-15T12:51:33Z</time>
      </trkpt>
      <trkpt lat="45.45397" lon="5.9237">
        <ele>1849</ele>
        <time>2018-08-15T12:51:38Z</time>
      </trkpt>
      <trkpt lat="45.45401" lon="5.92368">
        <ele>1849</ele>
        <time>2018-08-15T12:51:42Z</time>
      </trkpt>
      <trkpt lat="45.45406" lon="5.92366">
        <ele>1849</ele>
        <time>2018-08-15T12:51:47Z</time>
      </trkpt>
      <trkpt lat="45.45411" lon="5.92363">
        <ele>1849</ele>
        <time>2018-08-15T12:51:52Z</time>
      </trkpt>
      <trkpt lat="45.45415" lon="5.92354">
        <ele>1849</ele>
        <time>2018-08-15T12:51:59Z</time>
      </trkpt>
      <trkpt lat="45.45418" lon="5.92351">
        <ele>1853</ele>
        <time>2018-08-15T12:52:03Z</time>
      </trkpt>
      <trkpt lat="45.45423" lon="5.92347">
        <ele>1853</ele>
        <time>2018-08-15T12:52:10Z</time>
      </trkpt>
      <trkpt lat="45.45426" lon="5.92341">
        <ele>1853</ele>
        <time>2018-08-15T12:52:16Z</time>
      </trkpt>
      <trkpt lat="45.45433" lon="5.92338">
        <ele>1854</ele>
        <time>2018-08-15T12:52:30Z</time>
      </trkpt>
      <trkpt lat="45.45438" lon="5.92334">
        <ele>1854</ele>
        <time>2018-08-15T12:52:36Z</time>
      </trkpt>
      <trkpt lat="45.45443" lon="5.92329">
        <ele>1850</ele>
        <time>2018-08-15T12:52:41Z</time>
      </trkpt>
      <trkpt lat="45.45446" lon="5.92324">
        <ele>1850</ele>
        <time>2018-08-15T12:52:46Z</time>
      </trkpt>
      <trkpt lat="45.45448" lon="5.92318">
        <ele>1850</ele>
        <time>2018-08-15T12:52:52Z</time>
      </trkpt>
      <trkpt lat="45.45452" lon="5.92314">
        <ele>1850</ele>
        <time>2018-08-15T12:52:58Z</time>
      </trkpt>
      <trkpt lat="45.45456" lon="5.9231">
        <ele>1850</ele>
        <time>2018-08-15T12:53:07Z</time>
      </trkpt>
      <trkpt lat="45.45463" lon="5.92308">
        <ele>1851</ele>
        <time>2018-08-15T12:53:20Z</time>
      </trkpt>
      <trkpt lat="45.45468" lon="5.92309">
        <ele>1851</ele>
        <time>2018-08-15T12:53:25Z</time>
      </trkpt>
      <trkpt lat="45.45474" lon="5.92308">
        <ele>1851</ele>
        <time>2018-08-15T12:53:30Z</time>
      </trkpt>
      <trkpt lat="45.45478" lon="5.92307">
        <ele>1852</ele>
        <time>2018-08-15T12:53:36Z</time>
      </trkpt>
      <trkpt lat="45.45473" lon="5.92299">
        <ele>1851</ele>
        <time>2018-08-15T12:55:34Z</time>
      </trkpt>
      <trkpt lat="45.45469" lon="5.92294">
        <ele>1850</ele>
        <time>2018-08-15T12:55:40Z</time>
      </trkpt>
      <trkpt lat="45.45473" lon="5.92291">
        <ele>1850</ele>
        <time>2018-08-15T12:55:46Z</time>
      </trkpt>
      <trkpt lat="45.45475" lon="5.92286">
        <ele>1850</ele>
        <time>2018-08-15T12:55:54Z</time>
      </trkpt>
      <trkpt lat="45.45472" lon="5.92279">
        <ele>1850</ele>
        <time>2018-08-15T12:56:02Z</time>
      </trkpt>
      <trkpt lat="45.4547" lon="5.92272">
        <ele>1849</ele>
        <time>2018-08-15T12:56:09Z</time>
      </trkpt>
      <trkpt lat="45.45468" lon="5.92264">
        <ele>1849</ele>
        <time>2018-08-15T12:56:18Z</time>
      </trkpt>
      <trkpt lat="45.45467" lon="5.92258">
        <ele>1849</ele>
        <time>2018-08-15T12:56:30Z</time>
      </trkpt>
      <trkpt lat="45.4546" lon="5.92263">
        <ele>1848</ele>
        <time>2018-08-15T12:57:53Z</time>
      </trkpt>
      <trkpt lat="45.45456" lon="5.92263">
        <ele>1848</ele>
        <time>2018-08-15T12:57:54Z</time>
      </trkpt>
      <trkpt lat="45.45451" lon="5.92264">
        <ele>1848</ele>
        <time>2018-08-15T12:57:56Z</time>
      </trkpt>
      <trkpt lat="45.45446" lon="5.92264">
        <ele>1847</ele>
        <time>2018-08-15T12:58:00Z</time>
      </trkpt>
      <trkpt lat="45.45441" lon="5.92265">
        <ele>1847</ele>
        <time>2018-08-15T12:58:05Z</time>
      </trkpt>
      <trkpt lat="45.45437" lon="5.92262">
        <ele>1846</ele>
        <time>2018-08-15T12:58:10Z</time>
      </trkpt>
      <trkpt lat="45.45435" lon="5.92254">
        <ele>1845</ele>
        <time>2018-08-15T12:58:16Z</time>
      </trkpt>
      <trkpt lat="45.4543" lon="5.9225">
        <ele>1844</ele>
        <time>2018-08-15T12:58:21Z</time>
      </trkpt>
      <trkpt lat="45.45425" lon="5.92245">
        <ele>1841</ele>
        <time>2018-08-15T12:58:27Z</time>
      </trkpt>
      <trkpt lat="45.4542" lon="5.92241">
        <ele>1841</ele>
        <time>2018-08-15T12:58:32Z</time>
      </trkpt>
      <trkpt lat="45.45415" lon="5.92244">
        <ele>1839</ele>
        <time>2018-08-15T12:58:37Z</time>
      </trkpt>
      <trkpt lat="45.4541" lon="5.92247">
        <ele>1839</ele>
        <time>2018-08-15T12:58:41Z</time>
      </trkpt>
      <trkpt lat="45.45403" lon="5.9225">
        <ele>1840</ele>
        <time>2018-08-15T12:58:46Z</time>
      </trkpt>
      <trkpt lat="45.45398" lon="5.92251">
        <ele>1840</ele>
        <time>2018-08-15T12:58:51Z</time>
      </trkpt>
      <trkpt lat="45.45395" lon="5.92245">
        <ele>1838</ele>
        <time>2018-08-15T12:58:57Z</time>
      </trkpt>
      <trkpt lat="45.4539" lon="5.9224">
        <ele>1837</ele>
        <time>2018-08-15T12:59:02Z</time>
      </trkpt>
      <trkpt lat="45.45385" lon="5.92235">
        <ele>1837</ele>
        <time>2018-08-15T12:59:07Z</time>
      </trkpt>
      <trkpt lat="45.45382" lon="5.9223">
        <ele>1837</ele>
        <time>2018-08-15T12:59:12Z</time>
      </trkpt>
      <trkpt lat="45.45376" lon="5.92231">
        <ele>1836</ele>
        <time>2018-08-15T12:59:18Z</time>
      </trkpt>
      <trkpt lat="45.4537" lon="5.92232">
        <ele>1836</ele>
        <time>2018-08-15T12:59:24Z</time>
      </trkpt>
      <trkpt lat="45.45365" lon="5.9223">
        <ele>1836</ele>
        <time>2018-08-15T12:59:30Z</time>
      </trkpt>
      <trkpt lat="45.45359" lon="5.92229">
        <ele>1836</ele>
        <time>2018-08-15T12:59:35Z</time>
      </trkpt>
      <trkpt lat="45.45355" lon="5.92229">
        <ele>1835</ele>
        <time>2018-08-15T12:59:39Z</time>
      </trkpt>
      <trkpt lat="45.4535" lon="5.92228">
        <ele>1835</ele>
        <time>2018-08-15T12:59:44Z</time>
      </trkpt>
      <trkpt lat="45.45344" lon="5.92226">
        <ele>1835</ele>
        <time>2018-08-15T12:59:49Z</time>
      </trkpt>
      <trkpt lat="45.45339" lon="5.92224">
        <ele>1835</ele>
        <time>2018-08-15T12:59:54Z</time>
      </trkpt>
      <trkpt lat="45.45336" lon="5.92221">
        <ele>1835</ele>
        <time>2018-08-15T13:00:28Z</time>
      </trkpt>
      <trkpt lat="45.45329" lon="5.9221">
        <ele>1833</ele>
        <time>2018-08-15T13:01:00Z</time>
      </trkpt>
      <trkpt lat="45.45326" lon="5.92206">
        <ele>1833</ele>
        <time>2018-08-15T13:01:02Z</time>
      </trkpt>
      <trkpt lat="45.45322" lon="5.92201">
        <ele>1833</ele>
        <time>2018-08-15T13:01:06Z</time>
      </trkpt>
      <trkpt lat="45.45316" lon="5.922">
        <ele>1833</ele>
        <time>2018-08-15T13:01:11Z</time>
      </trkpt>
      <trkpt lat="45.45311" lon="5.92198">
        <ele>1832</ele>
        <time>2018-08-15T13:01:15Z</time>
      </trkpt>
      <trkpt lat="45.45306" lon="5.92194">
        <ele>1832</ele>
        <time>2018-08-15T13:01:20Z</time>
      </trkpt>
      <trkpt lat="45.453" lon="5.92191">
        <ele>1832</ele>
        <time>2018-08-15T13:01:24Z</time>
      </trkpt>
      <trkpt lat="45.45295" lon="5.92189">
        <ele>1832</ele>
        <time>2018-08-15T13:01:29Z</time>
      </trkpt>
      <trkpt lat="45.4529" lon="5.92183">
        <ele>1832</ele>
        <time>2018-08-15T13:01:34Z</time>
      </trkpt>
      <trkpt lat="45.45287" lon="5.92177">
        <ele>1832</ele>
        <time>2018-08-15T13:01:39Z</time>
      </trkpt>
      <trkpt lat="45.45282" lon="5.92175">
        <ele>1832</ele>
        <time>2018-08-15T13:01:44Z</time>
      </trkpt>
      <trkpt lat="45.45277" lon="5.92172">
        <ele>1832</ele>
        <time>2018-08-15T13:01:51Z</time>
      </trkpt>
      <trkpt lat="45.45271" lon="5.9217">
        <ele>1832</ele>
        <time>2018-08-15T13:01:56Z</time>
      </trkpt>
      <trkpt lat="45.45266" lon="5.92167">
        <ele>1832</ele>
        <time>2018-08-15T13:02:01Z</time>
      </trkpt>
      <trkpt lat="45.4526" lon="5.92163">
        <ele>1831</ele>
        <time>2018-08-15T13:02:07Z</time>
      </trkpt>
      <trkpt lat="45.45256" lon="5.92158">
        <ele>1831</ele>
        <time>2018-08-15T13:02:13Z</time>
      </trkpt>
      <trkpt lat="45.45251" lon="5.92155">
        <ele>1831</ele>
        <time>2018-08-15T13:02:19Z</time>
      </trkpt>
      <trkpt lat="45.45246" lon="5.92154">
        <ele>1836</ele>
        <time>2018-08-15T13:02:24Z</time>
      </trkpt>
      <trkpt lat="45.45242" lon="5.92149">
        <ele>1837</ele>
        <time>2018-08-15T13:02:58Z</time>
      </trkpt>
      <trkpt lat="45.45239" lon="5.92144">
        <ele>1838</ele>
        <time>2018-08-15T13:03:02Z</time>
      </trkpt>
      <trkpt lat="45.45236" lon="5.92138">
        <ele>1838</ele>
        <time>2018-08-15T13:03:08Z</time>
      </trkpt>
      <trkpt lat="45.45231" lon="5.92133">
        <ele>1839</ele>
        <time>2018-08-15T13:03:13Z</time>
      </trkpt>
      <trkpt lat="45.45228" lon="5.92128">
        <ele>1840</ele>
        <time>2018-08-15T13:03:16Z</time>
      </trkpt>
      <trkpt lat="45.45226" lon="5.9212">
        <ele>1840</ele>
        <time>2018-08-15T13:03:21Z</time>
      </trkpt>
      <trkpt lat="45.45225" lon="5.92112">
        <ele>1840</ele>
        <time>2018-08-15T13:03:26Z</time>
      </trkpt>
      <trkpt lat="45.45224" lon="5.92107">
        <ele>1840</ele>
        <time>2018-08-15T13:03:59Z</time>
      </trkpt>
      <trkpt lat="45.45223" lon="5.92101">
        <ele>1841</ele>
        <time>2018-08-15T13:04:02Z</time>
      </trkpt>
      <trkpt lat="45.45222" lon="5.92094">
        <ele>1841</ele>
        <time>2018-08-15T13:04:10Z</time>
      </trkpt>
      <trkpt lat="45.45217" lon="5.92089">
        <ele>1841</ele>
        <time>2018-08-15T13:04:18Z</time>
      </trkpt>
      <trkpt lat="45.45213" lon="5.92082">
        <ele>1834</ele>
        <time>2018-08-15T13:04:23Z</time>
      </trkpt>
      <trkpt lat="45.4521" lon="5.92075">
        <ele>1834</ele>
        <time>2018-08-15T13:04:28Z</time>
      </trkpt>
      <trkpt lat="45.45207" lon="5.92068">
        <ele>1834</ele>
        <time>2018-08-15T13:04:33Z</time>
      </trkpt>
      <trkpt lat="45.45207" lon="5.92063">
        <ele>1833</ele>
        <time>2018-08-15T13:04:38Z</time>
      </trkpt>
      <trkpt lat="45.45206" lon="5.92059">
        <ele>1833</ele>
        <time>2018-08-15T13:04:55Z</time>
      </trkpt>
      <trkpt lat="45.45204" lon="5.92054">
        <ele>1832</ele>
        <time>2018-08-15T13:04:59Z</time>
      </trkpt>
      <trkpt lat="45.45204" lon="5.92048">
        <ele>1831</ele>
        <time>2018-08-15T13:05:08Z</time>
      </trkpt>
      <trkpt lat="45.452" lon="5.92051">
        <ele>1832</ele>
        <time>2018-08-15T13:06:10Z</time>
      </trkpt>
      <trkpt lat="45.45199" lon="5.92046">
        <ele>1831</ele>
        <time>2018-08-15T13:06:15Z</time>
      </trkpt>
      <trkpt lat="45.45194" lon="5.92046">
        <ele>1832</ele>
        <time>2018-08-15T13:06:25Z</time>
      </trkpt>
      <trkpt lat="45.45189" lon="5.92051">
        <ele>1833</ele>
        <time>2018-08-15T13:06:46Z</time>
      </trkpt>
      <trkpt lat="45.45185" lon="5.92056">
        <ele>1835</ele>
        <time>2018-08-15T13:06:57Z</time>
      </trkpt>
      <trkpt lat="45.45179" lon="5.92058">
        <ele>1836</ele>
        <time>2018-08-15T13:07:04Z</time>
      </trkpt>
      <trkpt lat="45.45176" lon="5.92065">
        <ele>1839</ele>
        <time>2018-08-15T13:07:15Z</time>
      </trkpt>
      <trkpt lat="45.45172" lon="5.92072">
        <ele>1843</ele>
        <time>2018-08-15T13:07:23Z</time>
      </trkpt>
      <trkpt lat="45.45168" lon="5.92077">
        <ele>1846</ele>
        <time>2018-08-15T13:07:30Z</time>
      </trkpt>
      <trkpt lat="45.45163" lon="5.92078">
        <ele>1848</ele>
        <time>2018-08-15T13:07:36Z</time>
      </trkpt>
      <trkpt lat="45.45162" lon="5.92074">
        <ele>1847</ele>
        <time>2018-08-15T13:07:49Z</time>
      </trkpt>
      <trkpt lat="45.45159" lon="5.9207">
        <ele>1846</ele>
        <time>2018-08-15T13:08:00Z</time>
      </trkpt>
      <trkpt lat="45.45154" lon="5.92066">
        <ele>1844</ele>
        <time>2018-08-15T13:08:15Z</time>
      </trkpt>
      <trkpt lat="45.4515" lon="5.92065">
        <ele>1844</ele>
        <time>2018-08-15T13:08:42Z</time>
      </trkpt>
      <trkpt lat="45.45146" lon="5.92063">
        <ele>1843</ele>
        <time>2018-08-15T13:08:47Z</time>
      </trkpt>
      <trkpt lat="45.45147" lon="5.92057">
        <ele>1842</ele>
        <time>2018-08-15T13:08:54Z</time>
      </trkpt>
      <trkpt lat="45.45149" lon="5.92053">
        <ele>1842</ele>
        <time>2018-08-15T13:09:06Z</time>
      </trkpt>
      <trkpt lat="45.45144" lon="5.9205">
        <ele>1841</ele>
        <time>2018-08-15T13:09:15Z</time>
      </trkpt>
      <trkpt lat="45.45139" lon="5.92046">
        <ele>1841</ele>
        <time>2018-08-15T13:09:21Z</time>
      </trkpt>
      <trkpt lat="45.45134" lon="5.92043">
        <ele>1840</ele>
        <time>2018-08-15T13:09:54Z</time>
      </trkpt>
      <trkpt lat="45.45132" lon="5.92039">
        <ele>1840</ele>
        <time>2018-08-15T13:10:02Z</time>
      </trkpt>
      <trkpt lat="45.45127" lon="5.92037">
        <ele>1840</ele>
        <time>2018-08-15T13:10:11Z</time>
      </trkpt>
      <trkpt lat="45.45124" lon="5.92032">
        <ele>1840</ele>
        <time>2018-08-15T13:10:19Z</time>
      </trkpt>
      <trkpt lat="45.45121" lon="5.92028">
        <ele>1839</ele>
        <time>2018-08-15T13:10:31Z</time>
      </trkpt>
      <trkpt lat="45.45119" lon="5.9203">
        <ele>1840</ele>
        <time>2018-08-15T13:10:51Z</time>
      </trkpt>
      <trkpt lat="45.45116" lon="5.92027">
        <ele>1840</ele>
        <time>2018-08-15T13:10:56Z</time>
      </trkpt>
      <trkpt lat="45.45114" lon="5.92018">
        <ele>1839</ele>
        <time>2018-08-15T13:11:12Z</time>
      </trkpt>
      <trkpt lat="45.45113" lon="5.9201">
        <ele>1839</ele>
        <time>2018-08-15T13:11:25Z</time>
      </trkpt>
      <trkpt lat="45.45111" lon="5.92003">
        <ele>1838</ele>
        <time>2018-08-15T13:11:31Z</time>
      </trkpt>
      <trkpt lat="45.45108" lon="5.91995">
        <ele>1826</ele>
        <time>2018-08-15T13:11:36Z</time>
      </trkpt>
      <trkpt lat="45.45106" lon="5.91988">
        <ele>1826</ele>
        <time>2018-08-15T13:11:41Z</time>
      </trkpt>
      <trkpt lat="45.4511" lon="5.91986">
        <ele>1824</ele>
        <time>2018-08-15T13:11:46Z</time>
      </trkpt>
      <trkpt lat="45.45113" lon="5.91989">
        <ele>1824</ele>
        <time>2018-08-15T13:11:51Z</time>
      </trkpt>
      <trkpt lat="45.45113" lon="5.91985">
        <ele>1824</ele>
        <time>2018-08-15T13:12:03Z</time>
      </trkpt>
      <trkpt lat="45.45116" lon="5.91984">
        <ele>1823</ele>
        <time>2018-08-15T13:12:07Z</time>
      </trkpt>
      <trkpt lat="45.45121" lon="5.91985">
        <ele>1822</ele>
        <time>2018-08-15T13:12:14Z</time>
      </trkpt>
      <trkpt lat="45.45124" lon="5.9198">
        <ele>1821</ele>
        <time>2018-08-15T13:12:26Z</time>
      </trkpt>
      <trkpt lat="45.45121" lon="5.91972">
        <ele>1820</ele>
        <time>2018-08-15T13:12:35Z</time>
      </trkpt>
      <trkpt lat="45.45117" lon="5.91969">
        <ele>1820</ele>
        <time>2018-08-15T13:12:42Z</time>
      </trkpt>
      <trkpt lat="45.45115" lon="5.91964">
        <ele>1820</ele>
        <time>2018-08-15T13:12:51Z</time>
      </trkpt>
      <trkpt lat="45.45116" lon="5.91965">
        <ele>1820</ele>
        <time>2018-08-15T13:13:10Z</time>
      </trkpt>
      <trkpt lat="45.45128" lon="5.9196">
        <ele>1817</ele>
        <time>2018-08-15T13:14:02Z</time>
      </trkpt>
      <trkpt lat="45.45131" lon="5.9196">
        <ele>1817</ele>
        <time>2018-08-15T13:14:04Z</time>
      </trkpt>
      <trkpt lat="45.4513" lon="5.91955">
        <ele>1816</ele>
        <time>2018-08-15T13:14:10Z</time>
      </trkpt>
      <trkpt lat="45.45128" lon="5.91949">
        <ele>1815</ele>
        <time>2018-08-15T13:14:16Z</time>
      </trkpt>
      <trkpt lat="45.45134" lon="5.91952">
        <ele>1815</ele>
        <time>2018-08-15T13:14:24Z</time>
      </trkpt>
      <trkpt lat="45.45136" lon="5.91955">
        <ele>1815</ele>
        <time>2018-08-15T13:14:32Z</time>
      </trkpt>
      <trkpt lat="45.45135" lon="5.91949">
        <ele>1814</ele>
        <time>2018-08-15T13:14:41Z</time>
      </trkpt>
      <trkpt lat="45.45135" lon="5.91941">
        <ele>1813</ele>
        <time>2018-08-15T13:14:52Z</time>
      </trkpt>
      <trkpt lat="45.45133" lon="5.91936">
        <ele>1812</ele>
        <time>2018-08-15T13:15:00Z</time>
      </trkpt>
      <trkpt lat="45.45129" lon="5.9193">
        <ele>1812</ele>
        <time>2018-08-15T13:15:08Z</time>
      </trkpt>
      <trkpt lat="45.45132" lon="5.91921">
        <ele>1810</ele>
        <time>2018-08-15T13:16:07Z</time>
      </trkpt>
      <trkpt lat="45.45134" lon="5.91918">
        <ele>1809</ele>
        <time>2018-08-15T13:16:09Z</time>
      </trkpt>
      <trkpt lat="45.45137" lon="5.91909">
        <ele>1796</ele>
        <time>2018-08-15T13:16:59Z</time>
      </trkpt>
      <trkpt lat="45.45139" lon="5.91904">
        <ele>1795</ele>
        <time>2018-08-15T13:17:08Z</time>
      </trkpt>
      <trkpt lat="45.45144" lon="5.91905">
        <ele>1794</ele>
        <time>2018-08-15T13:17:18Z</time>
      </trkpt>
      <trkpt lat="45.45144" lon="5.91898">
        <ele>1794</ele>
        <time>2018-08-15T13:17:29Z</time>
      </trkpt>
      <trkpt lat="45.4514" lon="5.91895">
        <ele>1795</ele>
        <time>2018-08-15T13:17:39Z</time>
      </trkpt>
      <trkpt lat="45.45136" lon="5.91891">
        <ele>1795</ele>
        <time>2018-08-15T13:17:43Z</time>
      </trkpt>
      <trkpt lat="45.45133" lon="5.91884">
        <ele>1795</ele>
        <time>2018-08-15T13:17:48Z</time>
      </trkpt>
      <trkpt lat="45.45134" lon="5.9188">
        <ele>1795</ele>
        <time>2018-08-15T13:17:55Z</time>
      </trkpt>
      <trkpt lat="45.45136" lon="5.91866">
        <ele>1793</ele>
        <time>2018-08-15T13:19:00Z</time>
      </trkpt>
      <trkpt lat="45.45133" lon="5.91861">
        <ele>1793</ele>
        <time>2018-08-15T13:19:08Z</time>
      </trkpt>
      <trkpt lat="45.45134" lon="5.91863">
        <ele>1793</ele>
        <time>2018-08-15T13:19:42Z</time>
      </trkpt>
      <trkpt lat="45.45126" lon="5.91864">
        <ele>1795</ele>
        <time>2018-08-15T13:19:47Z</time>
      </trkpt>
      <trkpt lat="45.45122" lon="5.91863">
        <ele>1796</ele>
        <time>2018-08-15T13:19:53Z</time>
      </trkpt>
      <trkpt lat="45.45117" lon="5.91861">
        <ele>1797</ele>
        <time>2018-08-15T13:20:00Z</time>
      </trkpt>
      <trkpt lat="45.45108" lon="5.91853">
        <ele>1798</ele>
        <time>2018-08-15T13:20:22Z</time>
      </trkpt>
      <trkpt lat="45.45103" lon="5.91852">
        <ele>1799</ele>
        <time>2018-08-15T13:20:28Z</time>
      </trkpt>
      <trkpt lat="45.45097" lon="5.91849">
        <ele>1800</ele>
        <time>2018-08-15T13:20:38Z</time>
      </trkpt>
      <trkpt lat="45.45092" lon="5.91844">
        <ele>1801</ele>
        <time>2018-08-15T13:20:44Z</time>
      </trkpt>
      <trkpt lat="45.45087" lon="5.91839">
        <ele>1802</ele>
        <time>2018-08-15T13:20:49Z</time>
      </trkpt>
      <trkpt lat="45.45082" lon="5.91836">
        <ele>1807</ele>
        <time>2018-08-15T13:20:54Z</time>
      </trkpt>
      <trkpt lat="45.45077" lon="5.91833">
        <ele>1794</ele>
        <time>2018-08-15T13:21:02Z</time>
      </trkpt>
      <trkpt lat="45.45071" lon="5.91831">
        <ele>1787</ele>
        <time>2018-08-15T13:21:06Z</time>
      </trkpt>
      <trkpt lat="45.45066" lon="5.9183">
        <ele>1784</ele>
        <time>2018-08-15T13:21:11Z</time>
      </trkpt>
      <trkpt lat="45.4506" lon="5.91829">
        <ele>1781</ele>
        <time>2018-08-15T13:21:16Z</time>
      </trkpt>
      <trkpt lat="45.45054" lon="5.91829">
        <ele>1779</ele>
        <time>2018-08-15T13:21:23Z</time>
      </trkpt>
      <trkpt lat="45.45048" lon="5.9183">
        <ele>1779</ele>
        <time>2018-08-15T13:21:28Z</time>
      </trkpt>
      <trkpt lat="45.45043" lon="5.9183">
        <ele>1780</ele>
        <time>2018-08-15T13:21:34Z</time>
      </trkpt>
      <trkpt lat="45.45039" lon="5.91824">
        <ele>1779</ele>
        <time>2018-08-15T13:21:37Z</time>
      </trkpt>
      <trkpt lat="45.45035" lon="5.9182">
        <ele>1779</ele>
        <time>2018-08-15T13:21:41Z</time>
      </trkpt>
      <trkpt lat="45.4503" lon="5.91817">
        <ele>1779</ele>
        <time>2018-08-15T13:21:47Z</time>
      </trkpt>
      <trkpt lat="45.45025" lon="5.91813">
        <ele>1779</ele>
        <time>2018-08-15T13:21:53Z</time>
      </trkpt>
      <trkpt lat="45.45026" lon="5.91812">
        <ele>1778</ele>
        <time>2018-08-15T13:22:20Z</time>
      </trkpt>
      <trkpt lat="45.4502" lon="5.91804">
        <ele>1774</ele>
        <time>2018-08-15T13:22:28Z</time>
      </trkpt>
      <trkpt lat="45.45017" lon="5.918">
        <ele>1771</ele>
        <time>2018-08-15T13:22:30Z</time>
      </trkpt>
      <trkpt lat="45.45015" lon="5.91792">
        <ele>1764</ele>
        <time>2018-08-15T13:22:35Z</time>
      </trkpt>
      <trkpt lat="45.45012" lon="5.91786">
        <ele>1758</ele>
        <time>2018-08-15T13:22:43Z</time>
      </trkpt>
      <trkpt lat="45.45009" lon="5.9178">
        <ele>1753</ele>
        <time>2018-08-15T13:22:49Z</time>
      </trkpt>
      <trkpt lat="45.45006" lon="5.91774">
        <ele>1747</ele>
        <time>2018-08-15T13:22:56Z</time>
      </trkpt>
      <trkpt lat="45.45002" lon="5.91768">
        <ele>1741</ele>
        <time>2018-08-15T13:23:02Z</time>
      </trkpt>
      <trkpt lat="45.44999" lon="5.91764">
        <ele>1741</ele>
        <time>2018-08-15T13:23:06Z</time>
      </trkpt>
      <trkpt lat="45.44993" lon="5.91761">
        <ele>1739</ele>
        <time>2018-08-15T13:23:23Z</time>
      </trkpt>
      <trkpt lat="45.44989" lon="5.91755">
        <ele>1736</ele>
        <time>2018-08-15T13:23:28Z</time>
      </trkpt>
      <trkpt lat="45.44986" lon="5.9175">
        <ele>1737</ele>
        <time>2018-08-15T13:23:32Z</time>
      </trkpt>
      <trkpt lat="45.44983" lon="5.91745">
        <ele>1686</ele>
        <time>2018-08-15T13:23:38Z</time>
      </trkpt>
      <trkpt lat="45.44984" lon="5.91746">
        <ele>1688</ele>
        <time>2018-08-15T13:27:35Z</time>
      </trkpt>
      <trkpt lat="45.44984" lon="5.91753">
        <ele>1740</ele>
        <time>2018-08-15T13:31:14Z</time>
      </trkpt>
      <trkpt lat="45.44984" lon="5.91761">
        <ele>1744</ele>
        <time>2018-08-15T13:31:17Z</time>
      </trkpt>
      <trkpt lat="45.44983" lon="5.91769">
        <ele>1751</ele>
        <time>2018-08-15T13:31:21Z</time>
      </trkpt>
      <trkpt lat="45.44982" lon="5.91775">
        <ele>1757</ele>
        <time>2018-08-15T13:31:25Z</time>
      </trkpt>
      <trkpt lat="45.4498" lon="5.91782">
        <ele>1764</ele>
        <time>2018-08-15T13:31:30Z</time>
      </trkpt>
      <trkpt lat="45.44978" lon="5.91789">
        <ele>1770</ele>
        <time>2018-08-15T13:31:35Z</time>
      </trkpt>
      <trkpt lat="45.44972" lon="5.91793">
        <ele>1774</ele>
        <time>2018-08-15T13:31:40Z</time>
      </trkpt>
      <trkpt lat="45.44966" lon="5.91793">
        <ele>1774</ele>
        <time>2018-08-15T13:31:44Z</time>
      </trkpt>
      <trkpt lat="45.44961" lon="5.91794">
        <ele>1774</ele>
        <time>2018-08-15T13:31:49Z</time>
      </trkpt>
      <trkpt lat="45.44961" lon="5.91788">
        <ele>1769</ele>
        <time>2018-08-15T13:31:58Z</time>
      </trkpt>
      <trkpt lat="45.44961" lon="5.91783">
        <ele>1765</ele>
        <time>2018-08-15T13:32:08Z</time>
      </trkpt>
      <trkpt lat="45.44964" lon="5.91778">
        <ele>1761</ele>
        <time>2018-08-15T13:32:18Z</time>
      </trkpt>
      <trkpt lat="45.44968" lon="5.91776">
        <ele>1760</ele>
        <time>2018-08-15T13:32:27Z</time>
      </trkpt>
      <trkpt lat="45.44973" lon="5.91773">
        <ele>1757</ele>
        <time>2018-08-15T13:32:38Z</time>
      </trkpt>
      <trkpt lat="45.44995" lon="5.91761">
        <ele>1738</ele>
        <time>2018-08-15T13:43:59Z</time>
      </trkpt>
      <trkpt lat="45.44998" lon="5.91753">
        <ele>1724</ele>
        <time>2018-08-15T13:44:08Z</time>
      </trkpt>
      <trkpt lat="45.45001" lon="5.91742">
        <ele>1700</ele>
        <time>2018-08-15T13:44:21Z</time>
      </trkpt>
      <trkpt lat="45.45006" lon="5.91737">
        <ele>1690</ele>
        <time>2018-08-15T13:44:26Z</time>
      </trkpt>
      <trkpt lat="45.45004" lon="5.91737">
        <ele>1691</ele>
        <time>2018-08-15T13:45:07Z</time>
      </trkpt>
      <trkpt lat="45.44996" lon="5.91728">
        <ele>1679</ele>
        <time>2018-08-15T13:45:22Z</time>
      </trkpt>
      <trkpt lat="45.44994" lon="5.91725">
        <ele>1676</ele>
        <time>2018-08-15T13:45:25Z</time>
      </trkpt>
      <trkpt lat="45.44991" lon="5.91726">
        <ele>1676</ele>
        <time>2018-08-15T13:45:40Z</time>
      </trkpt>
      <trkpt lat="45.44988" lon="5.91723">
        <ele>1672</ele>
        <time>2018-08-15T13:45:45Z</time>
      </trkpt>
      <trkpt lat="45.44983" lon="5.91719">
        <ele>1667</ele>
        <time>2018-08-15T13:45:54Z</time>
      </trkpt>
      <trkpt lat="45.4498" lon="5.91714">
        <ele>1663</ele>
        <time>2018-08-15T13:45:59Z</time>
      </trkpt>
      <trkpt lat="45.4498" lon="5.91715">
        <ele>1663</ele>
        <time>2018-08-15T13:47:20Z</time>
      </trkpt>
      <trkpt lat="45.44977" lon="5.91707">
        <ele>1657</ele>
        <time>2018-08-15T13:47:25Z</time>
      </trkpt>
      <trkpt lat="45.44977" lon="5.91701">
        <ele>1654</ele>
        <time>2018-08-15T13:47:32Z</time>
      </trkpt>
      <trkpt lat="45.44974" lon="5.91696">
        <ele>1651</ele>
        <time>2018-08-15T13:47:40Z</time>
      </trkpt>
      <trkpt lat="45.44976" lon="5.91693">
        <ele>1649</ele>
        <time>2018-08-15T13:47:56Z</time>
      </trkpt>
      <trkpt lat="45.44976" lon="5.91686">
        <ele>1646</ele>
        <time>2018-08-15T13:48:10Z</time>
      </trkpt>
      <trkpt lat="45.44973" lon="5.91681">
        <ele>1644</ele>
        <time>2018-08-15T13:48:17Z</time>
      </trkpt>
      <trkpt lat="45.44977" lon="5.91674">
        <ele>1641</ele>
        <time>2018-08-15T13:48:45Z</time>
      </trkpt>
      <trkpt lat="45.44978" lon="5.91668">
        <ele>1639</ele>
        <time>2018-08-15T13:48:52Z</time>
      </trkpt>
      <trkpt lat="45.44975" lon="5.91663">
        <ele>1609</ele>
        <time>2018-08-15T13:49:01Z</time>
      </trkpt>
      <trkpt lat="45.44974" lon="5.91666">
        <ele>1609</ele>
        <time>2018-08-15T13:49:51Z</time>
      </trkpt>
      <trkpt lat="45.44972" lon="5.91661">
        <ele>1607</ele>
        <time>2018-08-15T13:49:59Z</time>
      </trkpt>
      <trkpt lat="45.44975" lon="5.91655">
        <ele>1607</ele>
        <time>2018-08-15T13:50:05Z</time>
      </trkpt>
      <trkpt lat="45.44972" lon="5.91651">
        <ele>1606</ele>
        <time>2018-08-15T13:50:13Z</time>
      </trkpt>
      <trkpt lat="45.44976" lon="5.91645">
        <ele>1606</ele>
        <time>2018-08-15T13:50:21Z</time>
      </trkpt>
      <trkpt lat="45.44979" lon="5.91639">
        <ele>1605</ele>
        <time>2018-08-15T13:50:26Z</time>
      </trkpt>
      <trkpt lat="45.44984" lon="5.91635">
        <ele>1605</ele>
        <time>2018-08-15T13:50:41Z</time>
      </trkpt>
      <trkpt lat="45.44981" lon="5.91631">
        <ele>1603</ele>
        <time>2018-08-15T13:50:46Z</time>
      </trkpt>
      <trkpt lat="45.44981" lon="5.91632">
        <ele>1603</ele>
        <time>2018-08-15T13:51:27Z</time>
      </trkpt>
      <trkpt lat="45.44975" lon="5.91628">
        <ele>1602</ele>
        <time>2018-08-15T13:51:33Z</time>
      </trkpt>
      <trkpt lat="45.4497" lon="5.91625">
        <ele>1600</ele>
        <time>2018-08-15T13:51:38Z</time>
      </trkpt>
      <trkpt lat="45.44966" lon="5.91621">
        <ele>1599</ele>
        <time>2018-08-15T13:51:44Z</time>
      </trkpt>
      <trkpt lat="45.44964" lon="5.91615">
        <ele>1598</ele>
        <time>2018-08-15T13:51:52Z</time>
      </trkpt>
      <trkpt lat="45.44969" lon="5.91613">
        <ele>1598</ele>
        <time>2018-08-15T13:51:59Z</time>
      </trkpt>
      <trkpt lat="45.44978" lon="5.91605">
        <ele>1598</ele>
        <time>2018-08-15T13:52:37Z</time>
      </trkpt>
      <trkpt lat="45.44981" lon="5.91599">
        <ele>1597</ele>
        <time>2018-08-15T13:52:47Z</time>
      </trkpt>
      <trkpt lat="45.44986" lon="5.91594">
        <ele>1597</ele>
        <time>2018-08-15T13:52:54Z</time>
      </trkpt>
      <trkpt lat="45.44989" lon="5.91588">
        <ele>1596</ele>
        <time>2018-08-15T13:53:02Z</time>
      </trkpt>
      <trkpt lat="45.44992" lon="5.91582">
        <ele>1589</ele>
        <time>2018-08-15T13:53:10Z</time>
      </trkpt>
      <trkpt lat="45.44995" lon="5.91575">
        <ele>1588</ele>
        <time>2018-08-15T13:54:02Z</time>
      </trkpt>
      <trkpt lat="45.44999" lon="5.91572">
        <ele>1587</ele>
        <time>2018-08-15T13:54:08Z</time>
      </trkpt>
      <trkpt lat="45.44999" lon="5.91565">
        <ele>1585</ele>
        <time>2018-08-15T13:54:17Z</time>
      </trkpt>
      <trkpt lat="45.44999" lon="5.91559">
        <ele>1583</ele>
        <time>2018-08-15T13:54:23Z</time>
      </trkpt>
      <trkpt lat="45.44999" lon="5.91551">
        <ele>1581</ele>
        <time>2018-08-15T13:54:30Z</time>
      </trkpt>
      <trkpt lat="45.45002" lon="5.91548">
        <ele>1574</ele>
        <time>2018-08-15T13:54:37Z</time>
      </trkpt>
      <trkpt lat="45.45002" lon="5.91542">
        <ele>1573</ele>
        <time>2018-08-15T13:54:49Z</time>
      </trkpt>
      <trkpt lat="45.45004" lon="5.91535">
        <ele>1571</ele>
        <time>2018-08-15T13:54:59Z</time>
      </trkpt>
      <trkpt lat="45.45005" lon="5.91527">
        <ele>1570</ele>
        <time>2018-08-15T13:55:06Z</time>
      </trkpt>
      <trkpt lat="45.4501" lon="5.91522">
        <ele>1570</ele>
        <time>2018-08-15T13:55:11Z</time>
      </trkpt>
      <trkpt lat="45.45014" lon="5.91518">
        <ele>1569</ele>
        <time>2018-08-15T13:55:15Z</time>
      </trkpt>
      <trkpt lat="45.45015" lon="5.9151">
        <ele>1569</ele>
        <time>2018-08-15T13:55:26Z</time>
      </trkpt>
      <trkpt lat="45.45018" lon="5.91505">
        <ele>1568</ele>
        <time>2018-08-15T13:55:33Z</time>
      </trkpt>
      <trkpt lat="45.45019" lon="5.91497">
        <ele>1557</ele>
        <time>2018-08-15T13:55:39Z</time>
      </trkpt>
      <trkpt lat="45.45023" lon="5.91493">
        <ele>1555</ele>
        <time>2018-08-15T13:55:45Z</time>
      </trkpt>
      <trkpt lat="45.45026" lon="5.91489">
        <ele>1553</ele>
        <time>2018-08-15T13:55:54Z</time>
      </trkpt>
      <trkpt lat="45.45026" lon="5.91487">
        <ele>1553</ele>
        <time>2018-08-15T13:56:04Z</time>
      </trkpt>
      <trkpt lat="45.45026" lon="5.91478">
        <ele>1551</ele>
        <time>2018-08-15T13:56:09Z</time>
      </trkpt>
      <trkpt lat="45.45031" lon="5.91474">
        <ele>1549</ele>
        <time>2018-08-15T13:57:48Z</time>
      </trkpt>
      <trkpt lat="45.45033" lon="5.91471">
        <ele>1548</ele>
        <time>2018-08-15T13:57:51Z</time>
      </trkpt>
      <trkpt lat="45.45034" lon="5.91464">
        <ele>1547</ele>
        <time>2018-08-15T13:58:02Z</time>
      </trkpt>
      <trkpt lat="45.45035" lon="5.91456">
        <ele>1545</ele>
        <time>2018-08-15T13:58:11Z</time>
      </trkpt>
      <trkpt lat="45.45039" lon="5.91452">
        <ele>1544</ele>
        <time>2018-08-15T13:58:18Z</time>
      </trkpt>
      <trkpt lat="45.45038" lon="5.91444">
        <ele>1543</ele>
        <time>2018-08-15T13:58:26Z</time>
      </trkpt>
      <trkpt lat="45.4504" lon="5.91439">
        <ele>1542</ele>
        <time>2018-08-15T13:58:33Z</time>
      </trkpt>
      <trkpt lat="45.45042" lon="5.91433">
        <ele>1541</ele>
        <time>2018-08-15T13:58:40Z</time>
      </trkpt>
      <trkpt lat="45.45043" lon="5.9143">
        <ele>1540</ele>
        <time>2018-08-15T13:58:50Z</time>
      </trkpt>
      <trkpt lat="45.45048" lon="5.91427">
        <ele>1539</ele>
        <time>2018-08-15T13:58:59Z</time>
      </trkpt>
      <trkpt lat="45.45048" lon="5.91421">
        <ele>1539</ele>
        <time>2018-08-15T13:59:08Z</time>
      </trkpt>
      <trkpt lat="45.45052" lon="5.91417">
        <ele>1537</ele>
        <time>2018-08-15T13:59:17Z</time>
      </trkpt>
      <trkpt lat="45.45056" lon="5.91413">
        <ele>1522</ele>
        <time>2018-08-15T13:59:24Z</time>
      </trkpt>
      <trkpt lat="45.4506" lon="5.91411">
        <ele>1521</ele>
        <time>2018-08-15T13:59:32Z</time>
      </trkpt>
      <trkpt lat="45.45061" lon="5.91403">
        <ele>1521</ele>
        <time>2018-08-15T13:59:40Z</time>
      </trkpt>
      <trkpt lat="45.45066" lon="5.914">
        <ele>1520</ele>
        <time>2018-08-15T13:59:45Z</time>
      </trkpt>
      <trkpt lat="45.4507" lon="5.91398">
        <ele>1520</ele>
        <time>2018-08-15T13:59:51Z</time>
      </trkpt>
      <trkpt lat="45.45073" lon="5.91394">
        <ele>1520</ele>
        <time>2018-08-15T14:00:01Z</time>
      </trkpt>
      <trkpt lat="45.45078" lon="5.91387">
        <ele>1519</ele>
        <time>2018-08-15T14:00:10Z</time>
      </trkpt>
      <trkpt lat="45.45083" lon="5.91384">
        <ele>1518</ele>
        <time>2018-08-15T14:01:53Z</time>
      </trkpt>
      <trkpt lat="45.45084" lon="5.91378">
        <ele>1500</ele>
        <time>2018-08-15T14:01:57Z</time>
      </trkpt>
      <trkpt lat="45.45088" lon="5.91374">
        <ele>1499</ele>
        <time>2018-08-15T14:02:04Z</time>
      </trkpt>
      <trkpt lat="45.45092" lon="5.91369">
        <ele>1498</ele>
        <time>2018-08-15T14:02:13Z</time>
      </trkpt>
      <trkpt lat="45.45096" lon="5.91365">
        <ele>1498</ele>
        <time>2018-08-15T14:02:21Z</time>
      </trkpt>
      <trkpt lat="45.45098" lon="5.91358">
        <ele>1497</ele>
        <time>2018-08-15T14:02:27Z</time>
      </trkpt>
      <trkpt lat="45.45099" lon="5.91338">
        <ele>1499</ele>
        <time>2018-08-15T14:02:54Z</time>
      </trkpt>
      <trkpt lat="45.45103" lon="5.91333">
        <ele>1490</ele>
        <time>2018-08-15T14:03:01Z</time>
      </trkpt>
      <trkpt lat="45.45108" lon="5.91329">
        <ele>1487</ele>
        <time>2018-08-15T14:03:07Z</time>
      </trkpt>
      <trkpt lat="45.45113" lon="5.91329">
        <ele>1485</ele>
        <time>2018-08-15T14:03:13Z</time>
      </trkpt>
      <trkpt lat="45.45119" lon="5.91324">
        <ele>1482</ele>
        <time>2018-08-15T14:03:21Z</time>
      </trkpt>
      <trkpt lat="45.45124" lon="5.91321">
        <ele>1480</ele>
        <time>2018-08-15T14:03:27Z</time>
      </trkpt>
      <trkpt lat="45.4513" lon="5.91319">
        <ele>1478</ele>
        <time>2018-08-15T14:03:32Z</time>
      </trkpt>
      <trkpt lat="45.45133" lon="5.9132">
        <ele>1477</ele>
        <time>2018-08-15T14:03:45Z</time>
      </trkpt>
      <trkpt lat="45.45144" lon="5.91325">
        <ele>1474</ele>
        <time>2018-08-15T14:05:04Z</time>
      </trkpt>
      <trkpt lat="45.45144" lon="5.91318">
        <ele>1474</ele>
        <time>2018-08-15T14:05:13Z</time>
      </trkpt>
      <trkpt lat="45.45149" lon="5.91315">
        <ele>1473</ele>
        <time>2018-08-15T14:05:20Z</time>
      </trkpt>
      <trkpt lat="45.45153" lon="5.91313">
        <ele>1473</ele>
        <time>2018-08-15T14:05:28Z</time>
      </trkpt>
      <trkpt lat="45.45156" lon="5.9131">
        <ele>1472</ele>
        <time>2018-08-15T14:05:39Z</time>
      </trkpt>
      <trkpt lat="45.45161" lon="5.91311">
        <ele>1472</ele>
        <time>2018-08-15T14:05:49Z</time>
      </trkpt>
      <trkpt lat="45.45167" lon="5.91311">
        <ele>1454</ele>
        <time>2018-08-15T14:05:56Z</time>
      </trkpt>
      <trkpt lat="45.45173" lon="5.91311">
        <ele>1453</ele>
        <time>2018-08-15T14:06:08Z</time>
      </trkpt>
      <trkpt lat="45.45174" lon="5.91305">
        <ele>1451</ele>
        <time>2018-08-15T14:06:14Z</time>
      </trkpt>
      <trkpt lat="45.45179" lon="5.91302">
        <ele>1450</ele>
        <time>2018-08-15T14:06:23Z</time>
      </trkpt>
      <trkpt lat="45.45183" lon="5.91298">
        <ele>1448</ele>
        <time>2018-08-15T14:06:30Z</time>
      </trkpt>
      <trkpt lat="45.45189" lon="5.91297">
        <ele>1447</ele>
        <time>2018-08-15T14:06:42Z</time>
      </trkpt>
      <trkpt lat="45.45192" lon="5.91292">
        <ele>1446</ele>
        <time>2018-08-15T14:06:52Z</time>
      </trkpt>
      <trkpt lat="45.45195" lon="5.91296">
        <ele>1446</ele>
        <time>2018-08-15T14:07:34Z</time>
      </trkpt>
      <trkpt lat="45.45206" lon="5.91296">
        <ele>1443</ele>
        <time>2018-08-15T14:07:52Z</time>
      </trkpt>
      <trkpt lat="45.45209" lon="5.91294">
        <ele>1442</ele>
        <time>2018-08-15T14:07:54Z</time>
      </trkpt>
      <trkpt lat="45.45213" lon="5.9129">
        <ele>1441</ele>
        <time>2018-08-15T14:08:00Z</time>
      </trkpt>
      <trkpt lat="45.45216" lon="5.91289">
        <ele>1441</ele>
        <time>2018-08-15T14:08:52Z</time>
      </trkpt>
      <trkpt lat="45.45216" lon="5.91281">
        <ele>1440</ele>
        <time>2018-08-15T14:08:57Z</time>
      </trkpt>
      <trkpt lat="45.45215" lon="5.91274">
        <ele>1440</ele>
        <time>2018-08-15T14:09:03Z</time>
      </trkpt>
      <trkpt lat="45.45215" lon="5.91267">
        <ele>1440</ele>
        <time>2018-08-15T14:09:08Z</time>
      </trkpt>
      <trkpt lat="45.45216" lon="5.91258">
        <ele>1439</ele>
        <time>2018-08-15T14:09:13Z</time>
      </trkpt>
      <trkpt lat="45.45215" lon="5.9125">
        <ele>1430</ele>
        <time>2018-08-15T14:09:18Z</time>
      </trkpt>
      <trkpt lat="45.45213" lon="5.91243">
        <ele>1430</ele>
        <time>2018-08-15T14:09:22Z</time>
      </trkpt>
      <trkpt lat="45.45211" lon="5.91236">
        <ele>1430</ele>
        <time>2018-08-15T14:09:26Z</time>
      </trkpt>
      <trkpt lat="45.45209" lon="5.91229">
        <ele>1430</ele>
        <time>2018-08-15T14:09:31Z</time>
      </trkpt>
      <trkpt lat="45.45206" lon="5.91221">
        <ele>1430</ele>
        <time>2018-08-15T14:09:37Z</time>
      </trkpt>
      <trkpt lat="45.45203" lon="5.91214">
        <ele>1429</ele>
        <time>2018-08-15T14:09:41Z</time>
      </trkpt>
      <trkpt lat="45.452" lon="5.91207">
        <ele>1429</ele>
        <time>2018-08-15T14:09:48Z</time>
      </trkpt>
      <trkpt lat="45.45194" lon="5.91203">
        <ele>1429</ele>
        <time>2018-08-15T14:09:53Z</time>
      </trkpt>
      <trkpt lat="45.45189" lon="5.91199">
        <ele>1429</ele>
        <time>2018-08-15T14:09:58Z</time>
      </trkpt>
      <trkpt lat="45.45186" lon="5.91192">
        <ele>1429</ele>
        <time>2018-08-15T14:10:03Z</time>
      </trkpt>
      <trkpt lat="45.45183" lon="5.91186">
        <ele>1428</ele>
        <time>2018-08-15T14:10:09Z</time>
      </trkpt>
      <trkpt lat="45.45179" lon="5.9118">
        <ele>1428</ele>
        <time>2018-08-15T14:10:13Z</time>
      </trkpt>
      <trkpt lat="45.45176" lon="5.91173">
        <ele>1428</ele>
        <time>2018-08-15T14:10:18Z</time>
      </trkpt>
      <trkpt lat="45.45172" lon="5.91166">
        <ele>1423</ele>
        <time>2018-08-15T14:10:22Z</time>
      </trkpt>
      <trkpt lat="45.4517" lon="5.9116">
        <ele>1422</ele>
        <time>2018-08-15T14:10:26Z</time>
      </trkpt>
      <trkpt lat="45.45166" lon="5.91152">
        <ele>1425</ele>
        <time>2018-08-15T14:10:31Z</time>
      </trkpt>
      <trkpt lat="45.45163" lon="5.91146">
        <ele>1423</ele>
        <time>2018-08-15T14:10:35Z</time>
      </trkpt>
      <trkpt lat="45.45161" lon="5.9114">
        <ele>1422</ele>
        <time>2018-08-15T14:10:40Z</time>
      </trkpt>
      <trkpt lat="45.45158" lon="5.91132">
        <ele>1420</ele>
        <time>2018-08-15T14:10:44Z</time>
      </trkpt>
      <trkpt lat="45.45155" lon="5.91127">
        <ele>1419</ele>
        <time>2018-08-15T14:10:47Z</time>
      </trkpt>
      <trkpt lat="45.45152" lon="5.91119">
        <ele>1418</ele>
        <time>2018-08-15T14:10:51Z</time>
      </trkpt>
      <trkpt lat="45.45149" lon="5.91114">
        <ele>1417</ele>
        <time>2018-08-15T14:10:57Z</time>
      </trkpt>
      <trkpt lat="45.45146" lon="5.91107">
        <ele>1415</ele>
        <time>2018-08-15T14:11:01Z</time>
      </trkpt>
      <trkpt lat="45.45143" lon="5.91101">
        <ele>1415</ele>
        <time>2018-08-15T14:11:07Z</time>
      </trkpt>
      <trkpt lat="45.45139" lon="5.91095">
        <ele>1414</ele>
        <time>2018-08-15T14:11:14Z</time>
      </trkpt>
      <trkpt lat="45.45136" lon="5.9109">
        <ele>1414</ele>
        <time>2018-08-15T14:11:20Z</time>
      </trkpt>
      <trkpt lat="45.45134" lon="5.91081">
        <ele>1398</ele>
        <time>2018-08-15T14:11:25Z</time>
      </trkpt>
      <trkpt lat="45.45132" lon="5.91075">
        <ele>1397</ele>
        <time>2018-08-15T14:11:29Z</time>
      </trkpt>
      <trkpt lat="45.45129" lon="5.91068">
        <ele>1397</ele>
        <time>2018-08-15T14:11:36Z</time>
      </trkpt>
      <trkpt lat="45.45127" lon="5.91062">
        <ele>1396</ele>
        <time>2018-08-15T14:11:40Z</time>
      </trkpt>
      <trkpt lat="45.45128" lon="5.91056">
        <ele>1396</ele>
        <time>2018-08-15T14:11:46Z</time>
      </trkpt>
      <trkpt lat="45.4513" lon="5.91055">
        <ele>1395</ele>
        <time>2018-08-15T14:15:31Z</time>
      </trkpt>
      <trkpt lat="45.45127" lon="5.91053">
        <ele>1395</ele>
        <time>2018-08-15T14:16:34Z</time>
      </trkpt>
      <trkpt lat="45.45123" lon="5.91047">
        <ele>1395</ele>
        <time>2018-08-15T14:16:43Z</time>
      </trkpt>
      <trkpt lat="45.45122" lon="5.91041">
        <ele>1394</ele>
        <time>2018-08-15T14:16:49Z</time>
      </trkpt>
      <trkpt lat="45.4512" lon="5.91034">
        <ele>1393</ele>
        <time>2018-08-15T14:16:57Z</time>
      </trkpt>
      <trkpt lat="45.45117" lon="5.91029">
        <ele>1392</ele>
        <time>2018-08-15T14:17:03Z</time>
      </trkpt>
      <trkpt lat="45.45112" lon="5.91024">
        <ele>1392</ele>
        <time>2018-08-15T14:17:08Z</time>
      </trkpt>
      <trkpt lat="45.45108" lon="5.91018">
        <ele>1391</ele>
        <time>2018-08-15T14:17:12Z</time>
      </trkpt>
      <trkpt lat="45.45104" lon="5.91011">
        <ele>1390</ele>
        <time>2018-08-15T14:17:17Z</time>
      </trkpt>
      <trkpt lat="45.451" lon="5.91005">
        <ele>1389</ele>
        <time>2018-08-15T14:17:21Z</time>
      </trkpt>
      <trkpt lat="45.45097" lon="5.90999">
        <ele>1378</ele>
        <time>2018-08-15T14:17:24Z</time>
      </trkpt>
      <trkpt lat="45.45093" lon="5.90991">
        <ele>1378</ele>
        <time>2018-08-15T14:17:28Z</time>
      </trkpt>
      <trkpt lat="45.45091" lon="5.90985">
        <ele>1376</ele>
        <time>2018-08-15T14:17:31Z</time>
      </trkpt>
      <trkpt lat="45.45089" lon="5.9098">
        <ele>1374</ele>
        <time>2018-08-15T14:17:35Z</time>
      </trkpt>
      <trkpt lat="45.45083" lon="5.90978">
        <ele>1370</ele>
        <time>2018-08-15T14:17:44Z</time>
      </trkpt>
      <trkpt lat="45.45078" lon="5.90976">
        <ele>1369</ele>
        <time>2018-08-15T14:17:48Z</time>
      </trkpt>
      <trkpt lat="45.45073" lon="5.90971">
        <ele>1366</ele>
        <time>2018-08-15T14:17:53Z</time>
      </trkpt>
      <trkpt lat="45.45069" lon="5.90967">
        <ele>1365</ele>
        <time>2018-08-15T14:17:58Z</time>
      </trkpt>
      <trkpt lat="45.45065" lon="5.90962">
        <ele>1363</ele>
        <time>2018-08-15T14:18:02Z</time>
      </trkpt>
      <trkpt lat="45.4506" lon="5.90958">
        <ele>1361</ele>
        <time>2018-08-15T14:18:06Z</time>
      </trkpt>
      <trkpt lat="45.45055" lon="5.90958">
        <ele>1361</ele>
        <time>2018-08-15T14:18:10Z</time>
      </trkpt>
      <trkpt lat="45.4505" lon="5.90956">
        <ele>1360</ele>
        <time>2018-08-15T14:18:14Z</time>
      </trkpt>
      <trkpt lat="45.45046" lon="5.90951">
        <ele>1358</ele>
        <time>2018-08-15T14:18:19Z</time>
      </trkpt>
      <trkpt lat="45.4504" lon="5.90949">
        <ele>1357</ele>
        <time>2018-08-15T14:18:24Z</time>
      </trkpt>
      <trkpt lat="45.45034" lon="5.90947">
        <ele>1356</ele>
        <time>2018-08-15T14:18:29Z</time>
      </trkpt>
      <trkpt lat="45.45028" lon="5.90947">
        <ele>1355</ele>
        <time>2018-08-15T14:18:34Z</time>
      </trkpt>
      <trkpt lat="45.45022" lon="5.90947">
        <ele>1354</ele>
        <time>2018-08-15T14:18:39Z</time>
      </trkpt>
      <trkpt lat="45.45015" lon="5.90946">
        <ele>1353</ele>
        <time>2018-08-15T14:18:44Z</time>
      </trkpt>
      <trkpt lat="45.45011" lon="5.90945">
        <ele>1352</ele>
        <time>2018-08-15T14:18:48Z</time>
      </trkpt>
      <trkpt lat="45.45005" lon="5.90944">
        <ele>1351</ele>
        <time>2018-08-15T14:18:53Z</time>
      </trkpt>
      <trkpt lat="45.45" lon="5.90944">
        <ele>1350</ele>
        <time>2018-08-15T14:18:59Z</time>
      </trkpt>
      <trkpt lat="45.44994" lon="5.90943">
        <ele>1340</ele>
        <time>2018-08-15T14:19:06Z</time>
      </trkpt>
      <trkpt lat="45.44989" lon="5.90943">
        <ele>1340</ele>
        <time>2018-08-15T14:19:17Z</time>
      </trkpt>
      <trkpt lat="45.44984" lon="5.90941">
        <ele>1340</ele>
        <time>2018-08-15T14:19:25Z</time>
      </trkpt>
      <trkpt lat="45.44978" lon="5.90941">
        <ele>1340</ele>
        <time>2018-08-15T14:19:31Z</time>
      </trkpt>
      <trkpt lat="45.44973" lon="5.90941">
        <ele>1340</ele>
        <time>2018-08-15T14:19:36Z</time>
      </trkpt>
      <trkpt lat="45.44967" lon="5.9094">
        <ele>1339</ele>
        <time>2018-08-15T14:19:43Z</time>
      </trkpt>
      <trkpt lat="45.44962" lon="5.90938">
        <ele>1339</ele>
        <time>2018-08-15T14:19:48Z</time>
      </trkpt>
      <trkpt lat="45.44956" lon="5.90941">
        <ele>1338</ele>
        <time>2018-08-15T14:19:53Z</time>
      </trkpt>
      <trkpt lat="45.4495" lon="5.90939">
        <ele>1337</ele>
        <time>2018-08-15T14:19:58Z</time>
      </trkpt>
      <trkpt lat="45.44945" lon="5.90938">
        <ele>1337</ele>
        <time>2018-08-15T14:20:04Z</time>
      </trkpt>
      <trkpt lat="45.44939" lon="5.90939">
        <ele>1336</ele>
        <time>2018-08-15T14:20:10Z</time>
      </trkpt>
      <trkpt lat="45.44934" lon="5.90936">
        <ele>1334</ele>
        <time>2018-08-15T14:20:14Z</time>
      </trkpt>
      <trkpt lat="45.44929" lon="5.90933">
        <ele>1332</ele>
        <time>2018-08-15T14:20:17Z</time>
      </trkpt>
      <trkpt lat="45.44923" lon="5.90933">
        <ele>1331</ele>
        <time>2018-08-15T14:20:22Z</time>
      </trkpt>
      <trkpt lat="45.44918" lon="5.90934">
        <ele>1331</ele>
        <time>2018-08-15T14:20:27Z</time>
      </trkpt>
      <trkpt lat="45.44912" lon="5.90931">
        <ele>1325</ele>
        <time>2018-08-15T14:20:31Z</time>
      </trkpt>
      <trkpt lat="45.44907" lon="5.9093">
        <ele>1325</ele>
        <time>2018-08-15T14:20:35Z</time>
      </trkpt>
      <trkpt lat="45.44902" lon="5.90926">
        <ele>1325</ele>
        <time>2018-08-15T14:20:39Z</time>
      </trkpt>
      <trkpt lat="45.44898" lon="5.90923">
        <ele>1325</ele>
        <time>2018-08-15T14:20:43Z</time>
      </trkpt>
      <trkpt lat="45.44892" lon="5.90922">
        <ele>1325</ele>
        <time>2018-08-15T14:20:49Z</time>
      </trkpt>
      <trkpt lat="45.44886" lon="5.90917">
        <ele>1325</ele>
        <time>2018-08-15T14:20:53Z</time>
      </trkpt>
      <trkpt lat="45.44882" lon="5.90913">
        <ele>1307</ele>
        <time>2018-08-15T14:20:56Z</time>
      </trkpt>
      <trkpt lat="45.44877" lon="5.90908">
        <ele>1306</ele>
        <time>2018-08-15T14:21:00Z</time>
      </trkpt>
      <trkpt lat="45.44872" lon="5.90905">
        <ele>1305</ele>
        <time>2018-08-15T14:21:04Z</time>
      </trkpt>
      <trkpt lat="45.44866" lon="5.90903">
        <ele>1304</ele>
        <time>2018-08-15T14:21:10Z</time>
      </trkpt>
      <trkpt lat="45.44862" lon="5.90903">
        <ele>1304</ele>
        <time>2018-08-15T14:21:15Z</time>
      </trkpt>
      <trkpt lat="45.44856" lon="5.90903">
        <ele>1304</ele>
        <time>2018-08-15T14:21:22Z</time>
      </trkpt>
      <trkpt lat="45.44852" lon="5.909">
        <ele>1304</ele>
        <time>2018-08-15T14:21:28Z</time>
      </trkpt>
      <trkpt lat="45.44847" lon="5.90898">
        <ele>1304</ele>
        <time>2018-08-15T14:21:33Z</time>
      </trkpt>
      <trkpt lat="45.44841" lon="5.90898">
        <ele>1304</ele>
        <time>2018-08-15T14:21:38Z</time>
      </trkpt>
      <trkpt lat="45.44836" lon="5.90896">
        <ele>1304</ele>
        <time>2018-08-15T14:21:44Z</time>
      </trkpt>
      <trkpt lat="45.4483" lon="5.90893">
        <ele>1297</ele>
        <time>2018-08-15T14:21:49Z</time>
      </trkpt>
      <trkpt lat="45.44822" lon="5.90885">
        <ele>1294</ele>
        <time>2018-08-15T14:24:14Z</time>
      </trkpt>
      <trkpt lat="45.44819" lon="5.90884">
        <ele>1294</ele>
        <time>2018-08-15T14:24:15Z</time>
      </trkpt>
      <trkpt lat="45.44815" lon="5.90883">
        <ele>1293</ele>
        <time>2018-08-15T14:24:17Z</time>
      </trkpt>
      <trkpt lat="45.44811" lon="5.90879">
        <ele>1292</ele>
        <time>2018-08-15T14:24:22Z</time>
      </trkpt>
      <trkpt lat="45.44805" lon="5.90874">
        <ele>1290</ele>
        <time>2018-08-15T14:24:27Z</time>
      </trkpt>
      <trkpt lat="45.448" lon="5.90872">
        <ele>1290</ele>
        <time>2018-08-15T14:24:31Z</time>
      </trkpt>
      <trkpt lat="45.44794" lon="5.9087">
        <ele>1289</ele>
        <time>2018-08-15T14:24:37Z</time>
      </trkpt>
      <trkpt lat="45.44789" lon="5.90868">
        <ele>1288</ele>
        <time>2018-08-15T14:24:43Z</time>
      </trkpt>
      <trkpt lat="45.44783" lon="5.90866">
        <ele>1287</ele>
        <time>2018-08-15T14:24:48Z</time>
      </trkpt>
      <trkpt lat="45.44778" lon="5.90863">
        <ele>1286</ele>
        <time>2018-08-15T14:24:53Z</time>
      </trkpt>
      <trkpt lat="45.44773" lon="5.9086">
        <ele>1285</ele>
        <time>2018-08-15T14:24:58Z</time>
      </trkpt>
      <trkpt lat="45.44768" lon="5.90856">
        <ele>1283</ele>
        <time>2018-08-15T14:25:02Z</time>
      </trkpt>
      <trkpt lat="45.44763" lon="5.90852">
        <ele>1281</ele>
        <time>2018-08-15T14:25:06Z</time>
      </trkpt>
      <trkpt lat="45.44758" lon="5.90848">
        <ele>1278</ele>
        <time>2018-08-15T14:25:10Z</time>
      </trkpt>
      <trkpt lat="45.44755" lon="5.90839">
        <ele>1273</ele>
        <time>2018-08-15T14:25:14Z</time>
      </trkpt>
      <trkpt lat="45.44753" lon="5.90832">
        <ele>1266</ele>
        <time>2018-08-15T14:25:18Z</time>
      </trkpt>
      <trkpt lat="45.44752" lon="5.90827">
        <ele>1266</ele>
        <time>2018-08-15T14:25:36Z</time>
      </trkpt>
      <trkpt lat="45.44752" lon="5.90822">
        <ele>1265</ele>
        <time>2018-08-15T14:25:38Z</time>
      </trkpt>
      <trkpt lat="45.44751" lon="5.90814">
        <ele>1264</ele>
        <time>2018-08-15T14:25:42Z</time>
      </trkpt>
      <trkpt lat="45.4475" lon="5.90807">
        <ele>1254</ele>
        <time>2018-08-15T14:25:46Z</time>
      </trkpt>
      <trkpt lat="45.4475" lon="5.908">
        <ele>1252</ele>
        <time>2018-08-15T14:25:52Z</time>
      </trkpt>
      <trkpt lat="45.44748" lon="5.90792">
        <ele>1250</ele>
        <time>2018-08-15T14:25:57Z</time>
      </trkpt>
      <trkpt lat="45.44747" lon="5.90784">
        <ele>1249</ele>
        <time>2018-08-15T14:26:01Z</time>
      </trkpt>
      <trkpt lat="45.44745" lon="5.90776">
        <ele>1247</ele>
        <time>2018-08-15T14:26:05Z</time>
      </trkpt>
      <trkpt lat="45.44743" lon="5.90769">
        <ele>1247</ele>
        <time>2018-08-15T14:26:09Z</time>
      </trkpt>
      <trkpt lat="45.4474" lon="5.90761">
        <ele>1246</ele>
        <time>2018-08-15T14:26:13Z</time>
      </trkpt>
      <trkpt lat="45.44738" lon="5.90753">
        <ele>1246</ele>
        <time>2018-08-15T14:26:17Z</time>
      </trkpt>
      <trkpt lat="45.44736" lon="5.90744">
        <ele>1238</ele>
        <time>2018-08-15T14:26:21Z</time>
      </trkpt>
      <trkpt lat="45.44734" lon="5.90735">
        <ele>1236</ele>
        <time>2018-08-15T14:26:25Z</time>
      </trkpt>
      <trkpt lat="45.44733" lon="5.90728">
        <ele>1234</ele>
        <time>2018-08-15T14:26:28Z</time>
      </trkpt>
      <trkpt lat="45.44732" lon="5.9072">
        <ele>1232</ele>
        <time>2018-08-15T14:26:32Z</time>
      </trkpt>
      <trkpt lat="45.44732" lon="5.90712">
        <ele>1231</ele>
        <time>2018-08-15T14:26:36Z</time>
      </trkpt>
      <trkpt lat="45.44732" lon="5.90704">
        <ele>1230</ele>
        <time>2018-08-15T14:26:40Z</time>
      </trkpt>
      <trkpt lat="45.44737" lon="5.90698">
        <ele>1231</ele>
        <time>2018-08-15T14:26:43Z</time>
      </trkpt>
      <trkpt lat="45.44739" lon="5.9069">
        <ele>1231</ele>
        <time>2018-08-15T14:26:47Z</time>
      </trkpt>
      <trkpt lat="45.4474" lon="5.90682">
        <ele>1231</ele>
        <time>2018-08-15T14:26:51Z</time>
      </trkpt>
      <trkpt lat="45.44741" lon="5.90673">
        <ele>1232</ele>
        <time>2018-08-15T14:26:55Z</time>
      </trkpt>
      <trkpt lat="45.44742" lon="5.90665">
        <ele>1228</ele>
        <time>2018-08-15T14:26:59Z</time>
      </trkpt>
      <trkpt lat="45.44743" lon="5.90656">
        <ele>1226</ele>
        <time>2018-08-15T14:27:03Z</time>
      </trkpt>
      <trkpt lat="45.44744" lon="5.90647">
        <ele>1223</ele>
        <time>2018-08-15T14:27:07Z</time>
      </trkpt>
      <trkpt lat="45.44745" lon="5.90639">
        <ele>1221</ele>
        <time>2018-08-15T14:27:11Z</time>
      </trkpt>
      <trkpt lat="45.44746" lon="5.9063">
        <ele>1220</ele>
        <time>2018-08-15T14:27:15Z</time>
      </trkpt>
      <trkpt lat="45.44747" lon="5.90621">
        <ele>1219</ele>
        <time>2018-08-15T14:27:19Z</time>
      </trkpt>
      <trkpt lat="45.44748" lon="5.90613">
        <ele>1218</ele>
        <time>2018-08-15T14:27:23Z</time>
      </trkpt>
      <trkpt lat="45.4475" lon="5.90604">
        <ele>1218</ele>
        <time>2018-08-15T14:27:27Z</time>
      </trkpt>
      <trkpt lat="45.4475" lon="5.90597">
        <ele>1219</ele>
        <time>2018-08-15T14:27:30Z</time>
      </trkpt>
      <trkpt lat="45.44751" lon="5.9059">
        <ele>1224</ele>
        <time>2018-08-15T14:27:34Z</time>
      </trkpt>
      <trkpt lat="45.44751" lon="5.90584">
        <ele>1222</ele>
        <time>2018-08-15T14:27:39Z</time>
      </trkpt>
      <trkpt lat="45.44751" lon="5.90581">
        <ele>1222</ele>
        <time>2018-08-15T14:28:03Z</time>
      </trkpt>
      <trkpt lat="45.44753" lon="5.90576">
        <ele>1221</ele>
        <time>2018-08-15T14:28:05Z</time>
      </trkpt>
      <trkpt lat="45.44754" lon="5.90568">
        <ele>1219</ele>
        <time>2018-08-15T14:28:09Z</time>
      </trkpt>
      <trkpt lat="45.44756" lon="5.9056">
        <ele>1218</ele>
        <time>2018-08-15T14:28:13Z</time>
      </trkpt>
      <trkpt lat="45.44757" lon="5.90552">
        <ele>1217</ele>
        <time>2018-08-15T14:28:18Z</time>
      </trkpt>
      <trkpt lat="45.44759" lon="5.90544">
        <ele>1216</ele>
        <time>2018-08-15T14:28:23Z</time>
      </trkpt>
      <trkpt lat="45.4476" lon="5.90536">
        <ele>1215</ele>
        <time>2018-08-15T14:28:28Z</time>
      </trkpt>
      <trkpt lat="45.44761" lon="5.90528">
        <ele>1214</ele>
        <time>2018-08-15T14:28:33Z</time>
      </trkpt>
      <trkpt lat="45.44764" lon="5.9052">
        <ele>1213</ele>
        <time>2018-08-15T14:28:38Z</time>
      </trkpt>
      <trkpt lat="45.44769" lon="5.90517">
        <ele>1213</ele>
        <time>2018-08-15T14:28:41Z</time>
      </trkpt>
      <trkpt lat="45.44772" lon="5.9051">
        <ele>1213</ele>
        <time>2018-08-15T14:28:49Z</time>
      </trkpt>
      <trkpt lat="45.44775" lon="5.90504">
        <ele>1213</ele>
        <time>2018-08-15T14:28:53Z</time>
      </trkpt>
      <trkpt lat="45.44778" lon="5.90498">
        <ele>1209</ele>
        <time>2018-08-15T14:28:57Z</time>
      </trkpt>
      <trkpt lat="45.44783" lon="5.90493">
        <ele>1209</ele>
        <time>2018-08-15T14:29:02Z</time>
      </trkpt>
      <trkpt lat="45.44787" lon="5.90489">
        <ele>1210</ele>
        <time>2018-08-15T14:29:07Z</time>
      </trkpt>
      <trkpt lat="45.44788" lon="5.90488">
        <ele>1210</ele>
        <time>2018-08-15T14:30:27Z</time>
      </trkpt>
      <trkpt lat="45.44784" lon="5.90484">
        <ele>1209</ele>
        <time>2018-08-15T14:30:31Z</time>
      </trkpt>
      <trkpt lat="45.44778" lon="5.90485">
        <ele>1209</ele>
        <time>2018-08-15T14:30:36Z</time>
      </trkpt>
      <trkpt lat="45.44774" lon="5.90486">
        <ele>1208</ele>
        <time>2018-08-15T14:30:40Z</time>
      </trkpt>
      <trkpt lat="45.44768" lon="5.90488">
        <ele>1207</ele>
        <time>2018-08-15T14:30:44Z</time>
      </trkpt>
      <trkpt lat="45.44763" lon="5.9049">
        <ele>1207</ele>
        <time>2018-08-15T14:30:48Z</time>
      </trkpt>
      <trkpt lat="45.44757" lon="5.90491">
        <ele>1206</ele>
        <time>2018-08-15T14:30:54Z</time>
      </trkpt>
      <trkpt lat="45.4475" lon="5.90493">
        <ele>1200</ele>
        <time>2018-08-15T14:30:59Z</time>
      </trkpt>
      <trkpt lat="45.44744" lon="5.90493">
        <ele>1199</ele>
        <time>2018-08-15T14:31:03Z</time>
      </trkpt>
      <trkpt lat="45.44737" lon="5.90494">
        <ele>1197</ele>
        <time>2018-08-15T14:31:08Z</time>
      </trkpt>
      <trkpt lat="45.44731" lon="5.90493">
        <ele>1195</ele>
        <time>2018-08-15T14:31:12Z</time>
      </trkpt>
      <trkpt lat="45.44725" lon="5.90493">
        <ele>1194</ele>
        <time>2018-08-15T14:31:16Z</time>
      </trkpt>
      <trkpt lat="45.4472" lon="5.90493">
        <ele>1192</ele>
        <time>2018-08-15T14:31:20Z</time>
      </trkpt>
      <trkpt lat="45.44713" lon="5.90494">
        <ele>1191</ele>
        <time>2018-08-15T14:31:25Z</time>
      </trkpt>
      <trkpt lat="45.44706" lon="5.90494">
        <ele>1189</ele>
        <time>2018-08-15T14:31:29Z</time>
      </trkpt>
      <trkpt lat="45.44701" lon="5.90494">
        <ele>1189</ele>
        <time>2018-08-15T14:31:32Z</time>
      </trkpt>
      <trkpt lat="45.44696" lon="5.90495">
        <ele>1188</ele>
        <time>2018-08-15T14:31:36Z</time>
      </trkpt>
      <trkpt lat="45.44691" lon="5.90495">
        <ele>1187</ele>
        <time>2018-08-15T14:31:40Z</time>
      </trkpt>
      <trkpt lat="45.44684" lon="5.90497">
        <ele>1186</ele>
        <time>2018-08-15T14:31:45Z</time>
      </trkpt>
      <trkpt lat="45.44679" lon="5.90498">
        <ele>1185</ele>
        <time>2018-08-15T14:31:49Z</time>
      </trkpt>
      <trkpt lat="45.44675" lon="5.90506">
        <ele>1189</ele>
        <time>2018-08-15T14:31:53Z</time>
      </trkpt>
      <trkpt lat="45.44673" lon="5.90512">
        <ele>1190</ele>
        <time>2018-08-15T14:31:56Z</time>
      </trkpt>
      <trkpt lat="45.44672" lon="5.9052">
        <ele>1192</ele>
        <time>2018-08-15T14:32:00Z</time>
      </trkpt>
      <trkpt lat="45.44671" lon="5.90529">
        <ele>1194</ele>
        <time>2018-08-15T14:32:05Z</time>
      </trkpt>
      <trkpt lat="45.44669" lon="5.90535">
        <ele>1195</ele>
        <time>2018-08-15T14:32:09Z</time>
      </trkpt>
      <trkpt lat="45.44667" lon="5.90543">
        <ele>1196</ele>
        <time>2018-08-15T14:32:14Z</time>
      </trkpt>
      <trkpt lat="45.44666" lon="5.90551">
        <ele>1177</ele>
        <time>2018-08-15T14:32:20Z</time>
      </trkpt>
      <trkpt lat="45.44664" lon="5.90559">
        <ele>1179</ele>
        <time>2018-08-15T14:32:26Z</time>
      </trkpt>
      <trkpt lat="45.44663" lon="5.90566">
        <ele>1181</ele>
        <time>2018-08-15T14:32:32Z</time>
      </trkpt>
      <trkpt lat="45.44661" lon="5.90577">
        <ele>1185</ele>
        <time>2018-08-15T14:32:50Z</time>
      </trkpt>
      <trkpt lat="45.44659" lon="5.90584">
        <ele>1189</ele>
        <time>2018-08-15T14:32:55Z</time>
      </trkpt>
      <trkpt lat="45.44658" lon="5.90592">
        <ele>1188</ele>
        <time>2018-08-15T14:33:00Z</time>
      </trkpt>
      <trkpt lat="45.44655" lon="5.90599">
        <ele>1187</ele>
        <time>2018-08-15T14:33:06Z</time>
      </trkpt>
      <trkpt lat="45.44653" lon="5.90605">
        <ele>1186</ele>
        <time>2018-08-15T14:33:11Z</time>
      </trkpt>
      <trkpt lat="45.44648" lon="5.90609">
        <ele>1185</ele>
        <time>2018-08-15T14:33:36Z</time>
      </trkpt>
      <trkpt lat="45.44644" lon="5.90611">
        <ele>1185</ele>
        <time>2018-08-15T14:33:39Z</time>
      </trkpt>
      <trkpt lat="45.44638" lon="5.90615">
        <ele>1184</ele>
        <time>2018-08-15T14:33:44Z</time>
      </trkpt>
      <trkpt lat="45.44632" lon="5.90619">
        <ele>1183</ele>
        <time>2018-08-15T14:33:49Z</time>
      </trkpt>
      <trkpt lat="45.44627" lon="5.90622">
        <ele>1182</ele>
        <time>2018-08-15T14:33:54Z</time>
      </trkpt>
      <trkpt lat="45.44622" lon="5.90626">
        <ele>1181</ele>
        <time>2018-08-15T14:33:59Z</time>
      </trkpt>
      <trkpt lat="45.44616" lon="5.9063">
        <ele>1180</ele>
        <time>2018-08-15T14:34:04Z</time>
      </trkpt>
      <trkpt lat="45.44612" lon="5.90633">
        <ele>1180</ele>
        <time>2018-08-15T14:34:09Z</time>
      </trkpt>
      <trkpt lat="45.44605" lon="5.90635">
        <ele>1178</ele>
        <time>2018-08-15T14:34:23Z</time>
      </trkpt>
      <trkpt lat="45.446" lon="5.90637">
        <ele>1178</ele>
        <time>2018-08-15T14:34:28Z</time>
      </trkpt>
      <trkpt lat="45.44595" lon="5.90641">
        <ele>1177</ele>
        <time>2018-08-15T14:34:32Z</time>
      </trkpt>
      <trkpt lat="45.4459" lon="5.90645">
        <ele>1176</ele>
        <time>2018-08-15T14:34:36Z</time>
      </trkpt>
      <trkpt lat="45.44586" lon="5.90641">
        <ele>1176</ele>
        <time>2018-08-15T14:34:40Z</time>
      </trkpt>
      <trkpt lat="45.44585" lon="5.90634">
        <ele>1176</ele>
        <time>2018-08-15T14:34:44Z</time>
      </trkpt>
      <trkpt lat="45.44584" lon="5.90627">
        <ele>1175</ele>
        <time>2018-08-15T14:34:48Z</time>
      </trkpt>
      <trkpt lat="45.44583" lon="5.90619">
        <ele>1152</ele>
        <time>2018-08-15T14:34:53Z</time>
      </trkpt>
      <trkpt lat="45.44579" lon="5.90615">
        <ele>1151</ele>
        <time>2018-08-15T14:34:59Z</time>
      </trkpt>
      <trkpt lat="45.44574" lon="5.90619">
        <ele>1151</ele>
        <time>2018-08-15T14:35:05Z</time>
      </trkpt>
      <trkpt lat="45.44571" lon="5.90626">
        <ele>1151</ele>
        <time>2018-08-15T14:35:09Z</time>
      </trkpt>
      <trkpt lat="45.4457" lon="5.90633">
        <ele>1152</ele>
        <time>2018-08-15T14:35:14Z</time>
      </trkpt>
      <trkpt lat="45.44568" lon="5.9064">
        <ele>1153</ele>
        <time>2018-08-15T14:35:18Z</time>
      </trkpt>
      <trkpt lat="45.44564" lon="5.90647">
        <ele>1154</ele>
        <time>2018-08-15T14:35:22Z</time>
      </trkpt>
      <trkpt lat="45.44562" lon="5.90653">
        <ele>1154</ele>
        <time>2018-08-15T14:35:26Z</time>
      </trkpt>
      <trkpt lat="45.44559" lon="5.9066">
        <ele>1154</ele>
        <time>2018-08-15T14:35:31Z</time>
      </trkpt>
      <trkpt lat="45.44556" lon="5.90667">
        <ele>1162</ele>
        <time>2018-08-15T14:35:36Z</time>
      </trkpt>
      <trkpt lat="45.44552" lon="5.90672">
        <ele>1161</ele>
        <time>2018-08-15T14:35:41Z</time>
      </trkpt>
      <trkpt lat="45.44548" lon="5.90676">
        <ele>1160</ele>
        <time>2018-08-15T14:35:45Z</time>
      </trkpt>
      <trkpt lat="45.44544" lon="5.9068">
        <ele>1159</ele>
        <time>2018-08-15T14:35:50Z</time>
      </trkpt>
      <trkpt lat="45.44538" lon="5.90684">
        <ele>1157</ele>
        <time>2018-08-15T14:35:56Z</time>
      </trkpt>
      <trkpt lat="45.44533" lon="5.90689">
        <ele>1156</ele>
        <time>2018-08-15T14:36:02Z</time>
      </trkpt>
      <trkpt lat="45.44528" lon="5.90694">
        <ele>1155</ele>
        <time>2018-08-15T14:36:07Z</time>
      </trkpt>
      <trkpt lat="45.44523" lon="5.90698">
        <ele>1155</ele>
        <time>2018-08-15T14:36:11Z</time>
      </trkpt>
      <trkpt lat="45.44518" lon="5.90702">
        <ele>1154</ele>
        <time>2018-08-15T14:36:15Z</time>
      </trkpt>
      <trkpt lat="45.44514" lon="5.90706">
        <ele>1154</ele>
        <time>2018-08-15T14:36:19Z</time>
      </trkpt>
      <trkpt lat="45.44508" lon="5.90712">
        <ele>1154</ele>
        <time>2018-08-15T14:36:24Z</time>
      </trkpt>
      <trkpt lat="45.44503" lon="5.90717">
        <ele>1154</ele>
        <time>2018-08-15T14:36:29Z</time>
      </trkpt>
      <trkpt lat="45.44501" lon="5.90726">
        <ele>1154</ele>
        <time>2018-08-15T14:36:32Z</time>
      </trkpt>
      <trkpt lat="45.44497" lon="5.90731">
        <ele>1139</ele>
        <time>2018-08-15T14:36:36Z</time>
      </trkpt>
      <trkpt lat="45.44493" lon="5.90737">
        <ele>1140</ele>
        <time>2018-08-15T14:36:41Z</time>
      </trkpt>
      <trkpt lat="45.44489" lon="5.9074">
        <ele>1140</ele>
        <time>2018-08-15T14:36:45Z</time>
      </trkpt>
      <trkpt lat="45.44484" lon="5.90745">
        <ele>1140</ele>
        <time>2018-08-15T14:36:50Z</time>
      </trkpt>
      <trkpt lat="45.44478" lon="5.90749">
        <ele>1138</ele>
        <time>2018-08-15T14:36:55Z</time>
      </trkpt>
      <trkpt lat="45.44473" lon="5.90752">
        <ele>1144</ele>
        <time>2018-08-15T14:36:59Z</time>
      </trkpt>
      <trkpt lat="45.44468" lon="5.90755">
        <ele>1144</ele>
        <time>2018-08-15T14:37:03Z</time>
      </trkpt>
      <trkpt lat="45.44463" lon="5.90759">
        <ele>1143</ele>
        <time>2018-08-15T14:37:07Z</time>
      </trkpt>
      <trkpt lat="45.44457" lon="5.90761">
        <ele>1141</ele>
        <time>2018-08-15T14:37:11Z</time>
      </trkpt>
      <trkpt lat="45.44452" lon="5.90763">
        <ele>1140</ele>
        <time>2018-08-15T14:37:16Z</time>
      </trkpt>
      <trkpt lat="45.44446" lon="5.90765">
        <ele>1139</ele>
        <time>2018-08-15T14:37:21Z</time>
      </trkpt>
      <trkpt lat="45.44442" lon="5.90767">
        <ele>1138</ele>
        <time>2018-08-15T14:37:25Z</time>
      </trkpt>
      <trkpt lat="45.44436" lon="5.9077">
        <ele>1137</ele>
        <time>2018-08-15T14:37:34Z</time>
      </trkpt>
      <trkpt lat="45.44431" lon="5.90772">
        <ele>1137</ele>
        <time>2018-08-15T14:37:38Z</time>
      </trkpt>
      <trkpt lat="45.44425" lon="5.90775">
        <ele>1137</ele>
        <time>2018-08-15T14:37:43Z</time>
      </trkpt>
      <trkpt lat="45.4442" lon="5.90776">
        <ele>1136</ele>
        <time>2018-08-15T14:37:47Z</time>
      </trkpt>
      <trkpt lat="45.44418" lon="5.90768">
        <ele>1134</ele>
        <time>2018-08-15T14:37:53Z</time>
      </trkpt>
      <trkpt lat="45.44418" lon="5.90761">
        <ele>1130</ele>
        <time>2018-08-15T14:37:58Z</time>
      </trkpt>
      <trkpt lat="45.4442" lon="5.90753">
        <ele>1127</ele>
        <time>2018-08-15T14:38:03Z</time>
      </trkpt>
      <trkpt lat="45.4442" lon="5.90744">
        <ele>1125</ele>
        <time>2018-08-15T14:38:08Z</time>
      </trkpt>
      <trkpt lat="45.4442" lon="5.90737">
        <ele>1126</ele>
        <time>2018-08-15T14:38:13Z</time>
      </trkpt>
      <trkpt lat="45.4442" lon="5.9073">
        <ele>1126</ele>
        <time>2018-08-15T14:38:20Z</time>
      </trkpt>
      <trkpt lat="45.44421" lon="5.90725">
        <ele>1127</ele>
        <time>2018-08-15T14:39:18Z</time>
      </trkpt>
      <trkpt lat="45.44421" lon="5.9072">
        <ele>1127</ele>
        <time>2018-08-15T14:39:21Z</time>
      </trkpt>
      <trkpt lat="45.44418" lon="5.90713">
        <ele>1126</ele>
        <time>2018-08-15T14:39:26Z</time>
      </trkpt>
      <trkpt lat="45.44415" lon="5.90709">
        <ele>1118</ele>
        <time>2018-08-15T14:39:31Z</time>
      </trkpt>
      <trkpt lat="45.44411" lon="5.90707">
        <ele>1118</ele>
        <time>2018-08-15T14:39:49Z</time>
      </trkpt>
      <trkpt lat="45.44405" lon="5.90704">
        <ele>1118</ele>
        <time>2018-08-15T14:39:55Z</time>
      </trkpt>
      <trkpt lat="45.444" lon="5.90702">
        <ele>1117</ele>
        <time>2018-08-15T14:40:00Z</time>
      </trkpt>
      <trkpt lat="45.44395" lon="5.90699">
        <ele>1117</ele>
        <time>2018-08-15T14:40:05Z</time>
      </trkpt>
      <trkpt lat="45.44391" lon="5.90696">
        <ele>1117</ele>
        <time>2018-08-15T14:40:10Z</time>
      </trkpt>
      <trkpt lat="45.44385" lon="5.90693">
        <ele>1117</ele>
        <time>2018-08-15T14:40:14Z</time>
      </trkpt>
      <trkpt lat="45.44379" lon="5.9069">
        <ele>1116</ele>
        <time>2018-08-15T14:40:18Z</time>
      </trkpt>
      <trkpt lat="45.44375" lon="5.90688">
        <ele>1116</ele>
        <time>2018-08-15T14:40:22Z</time>
      </trkpt>
      <trkpt lat="45.44371" lon="5.90683">
        <ele>1116</ele>
        <time>2018-08-15T14:40:27Z</time>
      </trkpt>
      <trkpt lat="45.44368" lon="5.90677">
        <ele>1116</ele>
        <time>2018-08-15T14:40:32Z</time>
      </trkpt>
      <trkpt lat="45.44365" lon="5.90671">
        <ele>1115</ele>
        <time>2018-08-15T14:40:36Z</time>
      </trkpt>
      <trkpt lat="45.44359" lon="5.90668">
        <ele>1115</ele>
        <time>2018-08-15T14:40:41Z</time>
      </trkpt>
      <trkpt lat="45.44355" lon="5.90666">
        <ele>1109</ele>
        <time>2018-08-15T14:40:46Z</time>
      </trkpt>
      <trkpt lat="45.4435" lon="5.90662">
        <ele>1109</ele>
        <time>2018-08-15T14:40:52Z</time>
      </trkpt>
      <trkpt lat="45.44345" lon="5.90658">
        <ele>1109</ele>
        <time>2018-08-15T14:40:57Z</time>
      </trkpt>
      <trkpt lat="45.4434" lon="5.90653">
        <ele>1109</ele>
        <time>2018-08-15T14:41:02Z</time>
      </trkpt>
      <trkpt lat="45.44335" lon="5.90648">
        <ele>1109</ele>
        <time>2018-08-15T14:41:07Z</time>
      </trkpt>
      <trkpt lat="45.4433" lon="5.90643">
        <ele>1107</ele>
        <time>2018-08-15T14:41:12Z</time>
      </trkpt>
      <trkpt lat="45.44326" lon="5.90639">
        <ele>1107</ele>
        <time>2018-08-15T14:41:16Z</time>
      </trkpt>
      <trkpt lat="45.44321" lon="5.90635">
        <ele>1107</ele>
        <time>2018-08-15T14:41:20Z</time>
      </trkpt>
      <trkpt lat="45.44315" lon="5.90631">
        <ele>1106</ele>
        <time>2018-08-15T14:41:25Z</time>
      </trkpt>
      <trkpt lat="45.4431" lon="5.90626">
        <ele>1106</ele>
        <time>2018-08-15T14:41:30Z</time>
      </trkpt>
      <trkpt lat="45.44305" lon="5.90623">
        <ele>1106</ele>
        <time>2018-08-15T14:41:34Z</time>
      </trkpt>
      <trkpt lat="45.44301" lon="5.90619">
        <ele>1105</ele>
        <time>2018-08-15T14:41:39Z</time>
      </trkpt>
      <trkpt lat="45.44295" lon="5.90615">
        <ele>1105</ele>
        <time>2018-08-15T14:41:44Z</time>
      </trkpt>
      <trkpt lat="45.4429" lon="5.90612">
        <ele>1105</ele>
        <time>2018-08-15T14:41:48Z</time>
      </trkpt>
      <trkpt lat="45.44285" lon="5.90608">
        <ele>1105</ele>
        <time>2018-08-15T14:41:53Z</time>
      </trkpt>
      <trkpt lat="45.4428" lon="5.90604">
        <ele>1105</ele>
        <time>2018-08-15T14:41:58Z</time>
      </trkpt>
      <trkpt lat="45.44274" lon="5.906">
        <ele>1104</ele>
        <time>2018-08-15T14:42:03Z</time>
      </trkpt>
      <trkpt lat="45.44268" lon="5.90596">
        <ele>1104</ele>
        <time>2018-08-15T14:42:08Z</time>
      </trkpt>
      <trkpt lat="45.44264" lon="5.90593">
        <ele>1104</ele>
        <time>2018-08-15T14:42:12Z</time>
      </trkpt>
      <trkpt lat="45.44258" lon="5.9059">
        <ele>1103</ele>
        <time>2018-08-15T14:42:17Z</time>
      </trkpt>
      <trkpt lat="45.44253" lon="5.90587">
        <ele>1103</ele>
        <time>2018-08-15T14:42:22Z</time>
      </trkpt>
      <trkpt lat="45.44248" lon="5.90584">
        <ele>1103</ele>
        <time>2018-08-15T14:42:27Z</time>
      </trkpt>
      <trkpt lat="45.44248" lon="5.90576">
        <ele>1104</ele>
        <time>2018-08-15T14:42:30Z</time>
      </trkpt>
      <trkpt lat="45.44249" lon="5.90567">
        <ele>1106</ele>
        <time>2018-08-15T14:42:34Z</time>
      </trkpt>
      <trkpt lat="45.44252" lon="5.90561">
        <ele>1101</ele>
        <time>2018-08-15T14:42:38Z</time>
      </trkpt>
      <trkpt lat="45.44258" lon="5.9056">
        <ele>1101</ele>
        <time>2018-08-15T14:42:43Z</time>
      </trkpt>
      <trkpt lat="45.44264" lon="5.9056">
        <ele>1101</ele>
        <time>2018-08-15T14:42:47Z</time>
      </trkpt>
      <trkpt lat="45.44268" lon="5.90558">
        <ele>1100</ele>
        <time>2018-08-15T14:42:51Z</time>
      </trkpt>
      <trkpt lat="45.44274" lon="5.90557">
        <ele>1100</ele>
        <time>2018-08-15T14:42:55Z</time>
      </trkpt>
      <trkpt lat="45.44279" lon="5.90557">
        <ele>1100</ele>
        <time>2018-08-15T14:42:59Z</time>
      </trkpt>
      <trkpt lat="45.44284" lon="5.90555">
        <ele>1100</ele>
        <time>2018-08-15T14:43:04Z</time>
      </trkpt>
    </trkseg>
  </trk>
</gpx>